<?xml version="1.0" encoding="UTF-8" standalone="no" ?>
<gpx xmlns="http://www.topografix.com/GPX/1/1" xmlns:xsi="http://www.w3.org/2001/XMLSchema-instance" xsi:schemaLocation="http://www.topografix.com/GPX/1/1 http://www.topografix.com/GPX/1/1/gpx.xsd" version="1.1" creator="VisuGPX - https://www.visugpx.com">
  <metadata>
    <name>Truc sous Oisy</name>
    <desc><![CDATA[Billy sous Oisy
Passeport Détente ]]></desc>
  </metadata>
  <trk>
    <name><![CDATA[2021-09-27 18.02.04 on AllTrails]]></name>
    <extensions>
      <line xmlns="http://www.topografix.com/GPX/gpx_style/0/2">
        <color>0000FF</color>
        <width>4</width>
      </line>
    </extensions>
    <trkseg>
      <trkpt lat="47.53553" lon="3.69159">
        <ele>205</ele>
        <time>2021-09-27T16:02:04Z</time>
      </trkpt>
      <trkpt lat="47.53539" lon="3.69166">
        <ele>203</ele>
        <time>2021-09-27T16:01:53Z</time>
      </trkpt>
      <trkpt lat="47.53541" lon="3.69191">
        <ele>202</ele>
        <time>2021-09-27T16:01:22Z</time>
      </trkpt>
      <trkpt lat="47.53539" lon="3.69188">
        <ele>202</ele>
        <time>2021-09-27T16:01:21Z</time>
      </trkpt>
      <trkpt lat="47.53537" lon="3.69186">
        <ele>202</ele>
        <time>2021-09-27T16:01:20Z</time>
      </trkpt>
      <trkpt lat="47.53536" lon="3.69184">
        <ele>202</ele>
        <time>2021-09-27T16:01:19Z</time>
      </trkpt>
      <trkpt lat="47.5353" lon="3.69178">
        <ele>202</ele>
        <time>2021-09-27T16:01:17Z</time>
      </trkpt>
      <trkpt lat="47.53532" lon="3.69176">
        <ele>202</ele>
        <time>2021-09-27T16:01:02Z</time>
      </trkpt>
      <trkpt lat="47.53532" lon="3.69166">
        <ele>203</ele>
        <time>2021-09-27T16:00:47Z</time>
      </trkpt>
      <trkpt lat="47.53527" lon="3.69153">
        <ele>202</ele>
        <time>2021-09-27T16:00:28Z</time>
      </trkpt>
      <trkpt lat="47.53528" lon="3.69155">
        <ele>203</ele>
        <time>2021-09-27T16:00:10Z</time>
      </trkpt>
      <trkpt lat="47.53529" lon="3.69158">
        <ele>203</ele>
        <time>2021-09-27T15:59:57Z</time>
      </trkpt>
      <trkpt lat="47.5355" lon="3.69148">
        <ele>205</ele>
        <time>2021-09-27T15:59:43Z</time>
      </trkpt>
      <trkpt lat="47.53571" lon="3.6914">
        <ele>205</ele>
        <time>2021-09-27T15:59:32Z</time>
      </trkpt>
      <trkpt lat="47.53594" lon="3.69132">
        <ele>206</ele>
        <time>2021-09-27T15:59:16Z</time>
      </trkpt>
      <trkpt lat="47.5361" lon="3.69136">
        <ele>207</ele>
        <time>2021-09-27T15:59:06Z</time>
      </trkpt>
      <trkpt lat="47.5361" lon="3.69136">
        <ele>207</ele>
        <time>2021-09-27T15:59:04Z</time>
      </trkpt>
      <trkpt lat="47.53553" lon="3.69143">
        <ele>205</ele>
        <time>2021-09-27T15:58:34Z</time>
      </trkpt>
      <trkpt lat="47.53549" lon="3.69143">
        <ele>205</ele>
        <time>2021-09-27T15:58:33Z</time>
      </trkpt>
      <trkpt lat="47.53545" lon="3.69144">
        <ele>204</ele>
        <time>2021-09-27T15:58:32Z</time>
      </trkpt>
      <trkpt lat="47.53542" lon="3.69144">
        <ele>204</ele>
        <time>2021-09-27T15:58:31Z</time>
      </trkpt>
      <trkpt lat="47.5354" lon="3.69144">
        <ele>204</ele>
        <time>2021-09-27T15:58:30Z</time>
      </trkpt>
      <trkpt lat="47.53539" lon="3.69144">
        <ele>204</ele>
        <time>2021-09-27T15:58:29Z</time>
      </trkpt>
      <trkpt lat="47.53525" lon="3.6914">
        <ele>202</ele>
        <time>2021-09-27T15:58:17Z</time>
      </trkpt>
      <trkpt lat="47.53514" lon="3.69097">
        <ele>199</ele>
        <time>2021-09-27T15:58:01Z</time>
      </trkpt>
      <trkpt lat="47.53509" lon="3.69106">
        <ele>199</ele>
        <time>2021-09-27T15:57:44Z</time>
      </trkpt>
      <trkpt lat="47.53511" lon="3.69115">
        <ele>200</ele>
        <time>2021-09-27T15:57:27Z</time>
      </trkpt>
      <trkpt lat="47.53514" lon="3.69124">
        <ele>200</ele>
        <time>2021-09-27T15:57:10Z</time>
      </trkpt>
      <trkpt lat="47.53522" lon="3.69146">
        <ele>202</ele>
        <time>2021-09-27T15:56:51Z</time>
      </trkpt>
      <trkpt lat="47.53524" lon="3.6915">
        <ele>202</ele>
        <time>2021-09-27T15:56:32Z</time>
      </trkpt>
      <trkpt lat="47.53525" lon="3.69156">
        <ele>202</ele>
        <time>2021-09-27T15:56:12Z</time>
      </trkpt>
      <trkpt lat="47.53525" lon="3.69145">
        <ele>202</ele>
        <time>2021-09-27T15:55:44Z</time>
      </trkpt>
      <trkpt lat="47.53521" lon="3.69139">
        <ele>202</ele>
        <time>2021-09-27T15:55:25Z</time>
      </trkpt>
      <trkpt lat="47.53519" lon="3.69135">
        <ele>201</ele>
        <time>2021-09-27T15:55:01Z</time>
      </trkpt>
      <trkpt lat="47.53518" lon="3.69143">
        <ele>201</ele>
        <time>2021-09-27T15:54:43Z</time>
      </trkpt>
      <trkpt lat="47.5352" lon="3.69147">
        <ele>201</ele>
        <time>2021-09-27T15:54:27Z</time>
      </trkpt>
      <trkpt lat="47.53516" lon="3.6914">
        <ele>201</ele>
        <time>2021-09-27T15:54:06Z</time>
      </trkpt>
      <trkpt lat="47.53519" lon="3.69136">
        <ele>201</ele>
        <time>2021-09-27T15:53:46Z</time>
      </trkpt>
      <trkpt lat="47.53521" lon="3.69139">
        <ele>202</ele>
        <time>2021-09-27T15:53:27Z</time>
      </trkpt>
      <trkpt lat="47.53522" lon="3.69138">
        <ele>202</ele>
        <time>2021-09-27T15:53:09Z</time>
      </trkpt>
      <trkpt lat="47.53523" lon="3.6914">
        <ele>202</ele>
        <time>2021-09-27T15:52:53Z</time>
      </trkpt>
      <trkpt lat="47.53523" lon="3.69144">
        <ele>202</ele>
        <time>2021-09-27T15:52:30Z</time>
      </trkpt>
      <trkpt lat="47.53526" lon="3.69152">
        <ele>202</ele>
        <time>2021-09-27T15:52:09Z</time>
      </trkpt>
      <trkpt lat="47.53526" lon="3.69153">
        <ele>202</ele>
        <time>2021-09-27T15:52:08Z</time>
      </trkpt>
      <trkpt lat="47.53526" lon="3.69155">
        <ele>202</ele>
        <time>2021-09-27T15:51:52Z</time>
      </trkpt>
      <trkpt lat="47.53523" lon="3.69151">
        <ele>202</ele>
        <time>2021-09-27T15:51:37Z</time>
      </trkpt>
      <trkpt lat="47.5352" lon="3.69146">
        <ele>201</ele>
        <time>2021-09-27T15:51:18Z</time>
      </trkpt>
      <trkpt lat="47.53524" lon="3.69147">
        <ele>202</ele>
        <time>2021-09-27T15:50:59Z</time>
      </trkpt>
      <trkpt lat="47.53529" lon="3.69152">
        <ele>203</ele>
        <time>2021-09-27T15:50:51Z</time>
      </trkpt>
      <trkpt lat="47.5353" lon="3.69164">
        <ele>203</ele>
        <time>2021-09-27T15:50:32Z</time>
      </trkpt>
      <trkpt lat="47.53531" lon="3.69163">
        <ele>203</ele>
        <time>2021-09-27T15:50:18Z</time>
      </trkpt>
      <trkpt lat="47.53532" lon="3.69152">
        <ele>203</ele>
        <time>2021-09-27T15:50:03Z</time>
      </trkpt>
      <trkpt lat="47.5353" lon="3.69159">
        <ele>203</ele>
        <time>2021-09-27T15:49:45Z</time>
      </trkpt>
      <trkpt lat="47.53539" lon="3.69166">
        <ele>203</ele>
        <time>2021-09-27T15:49:26Z</time>
      </trkpt>
      <trkpt lat="47.53545" lon="3.69172">
        <ele>203</ele>
        <time>2021-09-27T15:49:06Z</time>
      </trkpt>
      <trkpt lat="47.53544" lon="3.69166">
        <ele>204</ele>
        <time>2021-09-27T15:48:48Z</time>
      </trkpt>
      <trkpt lat="47.53539" lon="3.69161">
        <ele>203</ele>
        <time>2021-09-27T15:48:30Z</time>
      </trkpt>
      <trkpt lat="47.53542" lon="3.69156">
        <ele>204</ele>
        <time>2021-09-27T15:48:13Z</time>
      </trkpt>
      <trkpt lat="47.53543" lon="3.69155">
        <ele>204</ele>
        <time>2021-09-27T15:47:56Z</time>
      </trkpt>
      <trkpt lat="47.53542" lon="3.69164">
        <ele>204</ele>
        <time>2021-09-27T15:47:37Z</time>
      </trkpt>
      <trkpt lat="47.53528" lon="3.69156">
        <ele>203</ele>
        <time>2021-09-27T15:47:19Z</time>
      </trkpt>
      <trkpt lat="47.53519" lon="3.69152">
        <ele>201</ele>
        <time>2021-09-27T15:47:02Z</time>
      </trkpt>
      <trkpt lat="47.53519" lon="3.69154">
        <ele>201</ele>
        <time>2021-09-27T15:46:46Z</time>
      </trkpt>
      <trkpt lat="47.53517" lon="3.69146">
        <ele>201</ele>
        <time>2021-09-27T15:46:30Z</time>
      </trkpt>
      <trkpt lat="47.53515" lon="3.6914">
        <ele>201</ele>
        <time>2021-09-27T15:46:16Z</time>
      </trkpt>
      <trkpt lat="47.53511" lon="3.69132">
        <ele>200</ele>
        <time>2021-09-27T15:46:01Z</time>
      </trkpt>
      <trkpt lat="47.53501" lon="3.69109">
        <ele>198</ele>
        <time>2021-09-27T15:45:48Z</time>
      </trkpt>
      <trkpt lat="47.535" lon="3.69108">
        <ele>197</ele>
        <time>2021-09-27T15:45:36Z</time>
      </trkpt>
      <trkpt lat="47.53505" lon="3.69117">
        <ele>199</ele>
        <time>2021-09-27T15:45:20Z</time>
      </trkpt>
      <trkpt lat="47.53505" lon="3.69116">
        <ele>199</ele>
        <time>2021-09-27T15:45:17Z</time>
      </trkpt>
      <trkpt lat="47.53508" lon="3.69129">
        <ele>199</ele>
        <time>2021-09-27T15:45:00Z</time>
      </trkpt>
      <trkpt lat="47.53508" lon="3.69127">
        <ele>199</ele>
        <time>2021-09-27T15:44:58Z</time>
      </trkpt>
      <trkpt lat="47.53513" lon="3.69146">
        <ele>200</ele>
        <time>2021-09-27T15:44:44Z</time>
      </trkpt>
      <trkpt lat="47.53521" lon="3.69144">
        <ele>202</ele>
        <time>2021-09-27T15:44:34Z</time>
      </trkpt>
      <trkpt lat="47.53524" lon="3.69146">
        <ele>202</ele>
        <time>2021-09-27T15:44:15Z</time>
      </trkpt>
      <trkpt lat="47.53527" lon="3.69149">
        <ele>202</ele>
        <time>2021-09-27T15:43:59Z</time>
      </trkpt>
      <trkpt lat="47.53524" lon="3.69144">
        <ele>202</ele>
        <time>2021-09-27T15:43:40Z</time>
      </trkpt>
      <trkpt lat="47.53521" lon="3.69136">
        <ele>201</ele>
        <time>2021-09-27T15:43:21Z</time>
      </trkpt>
      <trkpt lat="47.53518" lon="3.69138">
        <ele>201</ele>
        <time>2021-09-27T15:43:05Z</time>
      </trkpt>
      <trkpt lat="47.53515" lon="3.69141">
        <ele>201</ele>
        <time>2021-09-27T15:43:02Z</time>
      </trkpt>
      <trkpt lat="47.53511" lon="3.69138">
        <ele>200</ele>
        <time>2021-09-27T15:42:43Z</time>
      </trkpt>
      <trkpt lat="47.53509" lon="3.69128">
        <ele>200</ele>
        <time>2021-09-27T15:42:24Z</time>
      </trkpt>
      <trkpt lat="47.53512" lon="3.69118">
        <ele>200</ele>
        <time>2021-09-27T15:42:04Z</time>
      </trkpt>
      <trkpt lat="47.53515" lon="3.69119">
        <ele>200</ele>
        <time>2021-09-27T15:41:46Z</time>
      </trkpt>
      <trkpt lat="47.5352" lon="3.69134">
        <ele>201</ele>
        <time>2021-09-27T15:41:32Z</time>
      </trkpt>
      <trkpt lat="47.53521" lon="3.69143">
        <ele>202</ele>
        <time>2021-09-27T15:41:15Z</time>
      </trkpt>
      <trkpt lat="47.53523" lon="3.69129">
        <ele>202</ele>
        <time>2021-09-27T15:40:55Z</time>
      </trkpt>
      <trkpt lat="47.53519" lon="3.69124">
        <ele>201</ele>
        <time>2021-09-27T15:40:37Z</time>
      </trkpt>
      <trkpt lat="47.53519" lon="3.69124">
        <ele>201</ele>
        <time>2021-09-27T15:40:19Z</time>
      </trkpt>
      <trkpt lat="47.53523" lon="3.69127">
        <ele>202</ele>
        <time>2021-09-27T15:40:03Z</time>
      </trkpt>
      <trkpt lat="47.53524" lon="3.69146">
        <ele>202</ele>
        <time>2021-09-27T15:39:43Z</time>
      </trkpt>
      <trkpt lat="47.53524" lon="3.69144">
        <ele>202</ele>
        <time>2021-09-27T15:39:26Z</time>
      </trkpt>
      <trkpt lat="47.53528" lon="3.69138">
        <ele>203</ele>
        <time>2021-09-27T15:39:12Z</time>
      </trkpt>
      <trkpt lat="47.53519" lon="3.69118">
        <ele>201</ele>
        <time>2021-09-27T15:38:56Z</time>
      </trkpt>
      <trkpt lat="47.53519" lon="3.69124">
        <ele>201</ele>
        <time>2021-09-27T15:38:40Z</time>
      </trkpt>
      <trkpt lat="47.53521" lon="3.69136">
        <ele>201</ele>
        <time>2021-09-27T15:38:23Z</time>
      </trkpt>
      <trkpt lat="47.53523" lon="3.69138">
        <ele>202</ele>
        <time>2021-09-27T15:37:54Z</time>
      </trkpt>
      <trkpt lat="47.53521" lon="3.69133">
        <ele>201</ele>
        <time>2021-09-27T15:37:27Z</time>
      </trkpt>
      <trkpt lat="47.53523" lon="3.69138">
        <ele>202</ele>
        <time>2021-09-27T15:36:57Z</time>
      </trkpt>
      <trkpt lat="47.53528" lon="3.69139">
        <ele>203</ele>
        <time>2021-09-27T15:36:25Z</time>
      </trkpt>
      <trkpt lat="47.53533" lon="3.6915">
        <ele>203</ele>
        <time>2021-09-27T15:35:58Z</time>
      </trkpt>
      <trkpt lat="47.53532" lon="3.69147">
        <ele>203</ele>
        <time>2021-09-27T15:35:39Z</time>
      </trkpt>
      <trkpt lat="47.53535" lon="3.69149">
        <ele>203</ele>
        <time>2021-09-27T15:35:10Z</time>
      </trkpt>
      <trkpt lat="47.53534" lon="3.6915">
        <ele>203</ele>
        <time>2021-09-27T15:34:55Z</time>
      </trkpt>
      <trkpt lat="47.53534" lon="3.69147">
        <ele>203</ele>
        <time>2021-09-27T15:34:40Z</time>
      </trkpt>
      <trkpt lat="47.53532" lon="3.69142">
        <ele>203</ele>
        <time>2021-09-27T15:34:35Z</time>
      </trkpt>
      <trkpt lat="47.53531" lon="3.69137">
        <ele>203</ele>
        <time>2021-09-27T15:34:17Z</time>
      </trkpt>
      <trkpt lat="47.5353" lon="3.69136">
        <ele>203</ele>
        <time>2021-09-27T15:34:15Z</time>
      </trkpt>
      <trkpt lat="47.53525" lon="3.69127">
        <ele>202</ele>
        <time>2021-09-27T15:33:58Z</time>
      </trkpt>
      <trkpt lat="47.53526" lon="3.69129">
        <ele>202</ele>
        <time>2021-09-27T15:33:14Z</time>
      </trkpt>
      <trkpt lat="47.53527" lon="3.69131">
        <ele>202</ele>
        <time>2021-09-27T15:33:08Z</time>
      </trkpt>
      <trkpt lat="47.53528" lon="3.69134">
        <ele>202</ele>
        <time>2021-09-27T15:33:07Z</time>
      </trkpt>
      <trkpt lat="47.53528" lon="3.69137">
        <ele>203</ele>
        <time>2021-09-27T15:33:06Z</time>
      </trkpt>
      <trkpt lat="47.53513" lon="3.69157">
        <ele>200</ele>
        <time>2021-09-27T15:33:01Z</time>
      </trkpt>
      <trkpt lat="47.53508" lon="3.69162">
        <ele>200</ele>
        <time>2021-09-27T15:33:00Z</time>
      </trkpt>
      <trkpt lat="47.53502" lon="3.69166">
        <ele>199</ele>
        <time>2021-09-27T15:32:59Z</time>
      </trkpt>
      <trkpt lat="47.53496" lon="3.69167">
        <ele>198</ele>
        <time>2021-09-27T15:32:58Z</time>
      </trkpt>
      <trkpt lat="47.53491" lon="3.69166">
        <ele>198</ele>
        <time>2021-09-27T15:32:57Z</time>
      </trkpt>
      <trkpt lat="47.53487" lon="3.69162">
        <ele>197</ele>
        <time>2021-09-27T15:32:56Z</time>
      </trkpt>
      <trkpt lat="47.53466" lon="3.69104">
        <ele>194</ele>
        <time>2021-09-27T15:32:50Z</time>
      </trkpt>
      <trkpt lat="47.53444" lon="3.69041">
        <ele>191</ele>
        <time>2021-09-27T15:32:46Z</time>
      </trkpt>
      <trkpt lat="47.53421" lon="3.6895">
        <ele>190</ele>
        <time>2021-09-27T15:32:41Z</time>
      </trkpt>
      <trkpt lat="47.53418" lon="3.68935">
        <ele>190</ele>
        <time>2021-09-27T15:32:40Z</time>
      </trkpt>
      <trkpt lat="47.53416" lon="3.68921">
        <ele>190</ele>
        <time>2021-09-27T15:32:39Z</time>
      </trkpt>
      <trkpt lat="47.53414" lon="3.68907">
        <ele>189</ele>
        <time>2021-09-27T15:32:38Z</time>
      </trkpt>
      <trkpt lat="47.53413" lon="3.68895">
        <ele>188</ele>
        <time>2021-09-27T15:32:37Z</time>
      </trkpt>
      <trkpt lat="47.53415" lon="3.68882">
        <ele>187</ele>
        <time>2021-09-27T15:32:36Z</time>
      </trkpt>
      <trkpt lat="47.53418" lon="3.68871">
        <ele>186</ele>
        <time>2021-09-27T15:32:35Z</time>
      </trkpt>
      <trkpt lat="47.53434" lon="3.68833">
        <ele>184</ele>
        <time>2021-09-27T15:32:32Z</time>
      </trkpt>
      <trkpt lat="47.53439" lon="3.6882">
        <ele>184</ele>
        <time>2021-09-27T15:32:31Z</time>
      </trkpt>
      <trkpt lat="47.53455" lon="3.68746">
        <ele>181</ele>
        <time>2021-09-27T15:32:25Z</time>
      </trkpt>
      <trkpt lat="47.53458" lon="3.68736">
        <ele>180</ele>
        <time>2021-09-27T15:32:24Z</time>
      </trkpt>
      <trkpt lat="47.53461" lon="3.68592">
        <ele>173</ele>
        <time>2021-09-27T15:32:14Z</time>
      </trkpt>
      <trkpt lat="47.53451" lon="3.68515">
        <ele>174</ele>
        <time>2021-09-27T15:32:09Z</time>
      </trkpt>
      <trkpt lat="47.53449" lon="3.68499">
        <ele>174</ele>
        <time>2021-09-27T15:32:08Z</time>
      </trkpt>
      <trkpt lat="47.53446" lon="3.68484">
        <ele>175</ele>
        <time>2021-09-27T15:32:07Z</time>
      </trkpt>
      <trkpt lat="47.53442" lon="3.68468">
        <ele>176</ele>
        <time>2021-09-27T15:32:06Z</time>
      </trkpt>
      <trkpt lat="47.53437" lon="3.68452">
        <ele>178</ele>
        <time>2021-09-27T15:32:05Z</time>
      </trkpt>
      <trkpt lat="47.53431" lon="3.68438">
        <ele>179</ele>
        <time>2021-09-27T15:32:04Z</time>
      </trkpt>
      <trkpt lat="47.53425" lon="3.68426">
        <ele>179</ele>
        <time>2021-09-27T15:32:03Z</time>
      </trkpt>
      <trkpt lat="47.53417" lon="3.68415">
        <ele>180</ele>
        <time>2021-09-27T15:32:02Z</time>
      </trkpt>
      <trkpt lat="47.53409" lon="3.68407">
        <ele>180</ele>
        <time>2021-09-27T15:32:01Z</time>
      </trkpt>
      <trkpt lat="47.534" lon="3.684">
        <ele>181</ele>
        <time>2021-09-27T15:32:00Z</time>
      </trkpt>
      <trkpt lat="47.53363" lon="3.68397">
        <ele>185</ele>
        <time>2021-09-27T15:31:56Z</time>
      </trkpt>
      <trkpt lat="47.53337" lon="3.68397">
        <ele>187</ele>
        <time>2021-09-27T15:31:53Z</time>
      </trkpt>
      <trkpt lat="47.53328" lon="3.68397">
        <ele>188</ele>
        <time>2021-09-27T15:31:52Z</time>
      </trkpt>
      <trkpt lat="47.53319" lon="3.68396">
        <ele>188</ele>
        <time>2021-09-27T15:31:51Z</time>
      </trkpt>
      <trkpt lat="47.5331" lon="3.68394">
        <ele>188</ele>
        <time>2021-09-27T15:31:50Z</time>
      </trkpt>
      <trkpt lat="47.53302" lon="3.68388">
        <ele>189</ele>
        <time>2021-09-27T15:31:49Z</time>
      </trkpt>
      <trkpt lat="47.53296" lon="3.6838">
        <ele>189</ele>
        <time>2021-09-27T15:31:48Z</time>
      </trkpt>
      <trkpt lat="47.53292" lon="3.68369">
        <ele>190</ele>
        <time>2021-09-27T15:31:47Z</time>
      </trkpt>
      <trkpt lat="47.53288" lon="3.68343">
        <ele>191</ele>
        <time>2021-09-27T15:31:45Z</time>
      </trkpt>
      <trkpt lat="47.53283" lon="3.68286">
        <ele>193</ele>
        <time>2021-09-27T15:31:42Z</time>
      </trkpt>
      <trkpt lat="47.53275" lon="3.68214">
        <ele>196</ele>
        <time>2021-09-27T15:31:39Z</time>
      </trkpt>
      <trkpt lat="47.5326" lon="3.68081">
        <ele>199</ele>
        <time>2021-09-27T15:31:34Z</time>
      </trkpt>
      <trkpt lat="47.53235" lon="3.67957">
        <ele>203</ele>
        <time>2021-09-27T15:31:29Z</time>
      </trkpt>
      <trkpt lat="47.53228" lon="3.67934">
        <ele>204</ele>
        <time>2021-09-27T15:31:28Z</time>
      </trkpt>
      <trkpt lat="47.5322" lon="3.67911">
        <ele>205</ele>
        <time>2021-09-27T15:31:27Z</time>
      </trkpt>
      <trkpt lat="47.53211" lon="3.6789">
        <ele>205</ele>
        <time>2021-09-27T15:31:26Z</time>
      </trkpt>
      <trkpt lat="47.53177" lon="3.67831">
        <ele>207</ele>
        <time>2021-09-27T15:31:23Z</time>
      </trkpt>
      <trkpt lat="47.53132" lon="3.67755">
        <ele>213</ele>
        <time>2021-09-27T15:31:19Z</time>
      </trkpt>
      <trkpt lat="47.531" lon="3.67702">
        <ele>216</ele>
        <time>2021-09-27T15:31:16Z</time>
      </trkpt>
      <trkpt lat="47.53079" lon="3.6767">
        <ele>218</ele>
        <time>2021-09-27T15:31:14Z</time>
      </trkpt>
      <trkpt lat="47.53071" lon="3.67654">
        <ele>218</ele>
        <time>2021-09-27T15:31:13Z</time>
      </trkpt>
      <trkpt lat="47.53065" lon="3.67637">
        <ele>219</ele>
        <time>2021-09-27T15:31:12Z</time>
      </trkpt>
      <trkpt lat="47.53057" lon="3.67558">
        <ele>226</ele>
        <time>2021-09-27T15:31:08Z</time>
      </trkpt>
      <trkpt lat="47.53058" lon="3.67489">
        <ele>231</ele>
        <time>2021-09-27T15:31:05Z</time>
      </trkpt>
      <trkpt lat="47.53059" lon="3.67467">
        <ele>233</ele>
        <time>2021-09-27T15:31:04Z</time>
      </trkpt>
      <trkpt lat="47.53061" lon="3.67446">
        <ele>235</ele>
        <time>2021-09-27T15:31:03Z</time>
      </trkpt>
      <trkpt lat="47.53064" lon="3.67425">
        <ele>237</ele>
        <time>2021-09-27T15:31:02Z</time>
      </trkpt>
      <trkpt lat="47.5307" lon="3.67406">
        <ele>239</ele>
        <time>2021-09-27T15:31:01Z</time>
      </trkpt>
      <trkpt lat="47.53097" lon="3.67358">
        <ele>244</ele>
        <time>2021-09-27T15:30:58Z</time>
      </trkpt>
      <trkpt lat="47.53122" lon="3.67308">
        <ele>248</ele>
        <time>2021-09-27T15:30:55Z</time>
      </trkpt>
      <trkpt lat="47.53142" lon="3.67259">
        <ele>251</ele>
        <time>2021-09-27T15:30:52Z</time>
      </trkpt>
      <trkpt lat="47.53168" lon="3.67197">
        <ele>254</ele>
        <time>2021-09-27T15:30:48Z</time>
      </trkpt>
      <trkpt lat="47.53203" lon="3.67087">
        <ele>257</ele>
        <time>2021-09-27T15:30:43Z</time>
      </trkpt>
      <trkpt lat="47.53209" lon="3.67063">
        <ele>259</ele>
        <time>2021-09-27T15:30:42Z</time>
      </trkpt>
      <trkpt lat="47.53222" lon="3.66943">
        <ele>263</ele>
        <time>2021-09-27T15:30:37Z</time>
      </trkpt>
      <trkpt lat="47.53256" lon="3.6663">
        <ele>270</ele>
        <time>2021-09-27T15:30:24Z</time>
      </trkpt>
      <trkpt lat="47.53271" lon="3.66526">
        <ele>268</ele>
        <time>2021-09-27T15:30:20Z</time>
      </trkpt>
      <trkpt lat="47.5329" lon="3.66413">
        <ele>266</ele>
        <time>2021-09-27T15:30:16Z</time>
      </trkpt>
      <trkpt lat="47.53295" lon="3.66384">
        <ele>266</ele>
        <time>2021-09-27T15:30:15Z</time>
      </trkpt>
      <trkpt lat="47.53298" lon="3.66325">
        <ele>263</ele>
        <time>2021-09-27T15:30:13Z</time>
      </trkpt>
      <trkpt lat="47.53311" lon="3.66184">
        <ele>260</ele>
        <time>2021-09-27T15:30:08Z</time>
      </trkpt>
      <trkpt lat="47.53313" lon="3.66046">
        <ele>258</ele>
        <time>2021-09-27T15:30:03Z</time>
      </trkpt>
      <trkpt lat="47.53313" lon="3.6602">
        <ele>259</ele>
        <time>2021-09-27T15:30:02Z</time>
      </trkpt>
      <trkpt lat="47.53301" lon="3.65918">
        <ele>259</ele>
        <time>2021-09-27T15:29:58Z</time>
      </trkpt>
      <trkpt lat="47.53299" lon="3.65894">
        <ele>258</ele>
        <time>2021-09-27T15:29:57Z</time>
      </trkpt>
      <trkpt lat="47.53297" lon="3.65871">
        <ele>256</ele>
        <time>2021-09-27T15:29:56Z</time>
      </trkpt>
      <trkpt lat="47.53294" lon="3.6585">
        <ele>256</ele>
        <time>2021-09-27T15:29:55Z</time>
      </trkpt>
      <trkpt lat="47.53289" lon="3.65831">
        <ele>255</ele>
        <time>2021-09-27T15:29:54Z</time>
      </trkpt>
      <trkpt lat="47.53283" lon="3.65814">
        <ele>254</ele>
        <time>2021-09-27T15:29:53Z</time>
      </trkpt>
      <trkpt lat="47.53277" lon="3.65798">
        <ele>253</ele>
        <time>2021-09-27T15:29:52Z</time>
      </trkpt>
      <trkpt lat="47.53272" lon="3.65782">
        <ele>251</ele>
        <time>2021-09-27T15:29:51Z</time>
      </trkpt>
      <trkpt lat="47.53269" lon="3.65766">
        <ele>249</ele>
        <time>2021-09-27T15:29:50Z</time>
      </trkpt>
      <trkpt lat="47.5327" lon="3.65752">
        <ele>248</ele>
        <time>2021-09-27T15:29:49Z</time>
      </trkpt>
      <trkpt lat="47.53272" lon="3.65737">
        <ele>247</ele>
        <time>2021-09-27T15:29:48Z</time>
      </trkpt>
      <trkpt lat="47.53277" lon="3.65724">
        <ele>246</ele>
        <time>2021-09-27T15:29:47Z</time>
      </trkpt>
      <trkpt lat="47.53282" lon="3.65711">
        <ele>245</ele>
        <time>2021-09-27T15:29:46Z</time>
      </trkpt>
      <trkpt lat="47.53289" lon="3.65698">
        <ele>244</ele>
        <time>2021-09-27T15:29:45Z</time>
      </trkpt>
      <trkpt lat="47.53296" lon="3.65686">
        <ele>244</ele>
        <time>2021-09-27T15:29:44Z</time>
      </trkpt>
      <trkpt lat="47.53305" lon="3.65677">
        <ele>244</ele>
        <time>2021-09-27T15:29:43Z</time>
      </trkpt>
      <trkpt lat="47.53315" lon="3.6567">
        <ele>244</ele>
        <time>2021-09-27T15:29:42Z</time>
      </trkpt>
      <trkpt lat="47.53324" lon="3.65665">
        <ele>243</ele>
        <time>2021-09-27T15:29:41Z</time>
      </trkpt>
      <trkpt lat="47.53331" lon="3.65658">
        <ele>243</ele>
        <time>2021-09-27T15:29:40Z</time>
      </trkpt>
      <trkpt lat="47.53337" lon="3.65649">
        <ele>243</ele>
        <time>2021-09-27T15:29:39Z</time>
      </trkpt>
      <trkpt lat="47.53339" lon="3.65637">
        <ele>242</ele>
        <time>2021-09-27T15:29:38Z</time>
      </trkpt>
      <trkpt lat="47.53338" lon="3.65624">
        <ele>242</ele>
        <time>2021-09-27T15:29:37Z</time>
      </trkpt>
      <trkpt lat="47.53333" lon="3.65613">
        <ele>242</ele>
        <time>2021-09-27T15:29:36Z</time>
      </trkpt>
      <trkpt lat="47.53325" lon="3.65606">
        <ele>241</ele>
        <time>2021-09-27T15:29:35Z</time>
      </trkpt>
      <trkpt lat="47.53314" lon="3.65601">
        <ele>241</ele>
        <time>2021-09-27T15:29:34Z</time>
      </trkpt>
      <trkpt lat="47.53302" lon="3.65597">
        <ele>240</ele>
        <time>2021-09-27T15:29:33Z</time>
      </trkpt>
      <trkpt lat="47.5329" lon="3.65596">
        <ele>240</ele>
        <time>2021-09-27T15:29:32Z</time>
      </trkpt>
      <trkpt lat="47.53277" lon="3.65593">
        <ele>239</ele>
        <time>2021-09-27T15:29:31Z</time>
      </trkpt>
      <trkpt lat="47.53266" lon="3.65586">
        <ele>238</ele>
        <time>2021-09-27T15:29:30Z</time>
      </trkpt>
      <trkpt lat="47.53255" lon="3.65577">
        <ele>236</ele>
        <time>2021-09-27T15:29:29Z</time>
      </trkpt>
      <trkpt lat="47.53245" lon="3.65565">
        <ele>234</ele>
        <time>2021-09-27T15:29:28Z</time>
      </trkpt>
      <trkpt lat="47.53237" lon="3.65551">
        <ele>233</ele>
        <time>2021-09-27T15:29:27Z</time>
      </trkpt>
      <trkpt lat="47.5323" lon="3.65535">
        <ele>231</ele>
        <time>2021-09-27T15:29:26Z</time>
      </trkpt>
      <trkpt lat="47.53219" lon="3.65499">
        <ele>229</ele>
        <time>2021-09-27T15:29:24Z</time>
      </trkpt>
      <trkpt lat="47.53203" lon="3.65436">
        <ele>227</ele>
        <time>2021-09-27T15:29:21Z</time>
      </trkpt>
      <trkpt lat="47.53189" lon="3.65367">
        <ele>223</ele>
        <time>2021-09-27T15:29:18Z</time>
      </trkpt>
      <trkpt lat="47.53178" lon="3.65294">
        <ele>219</ele>
        <time>2021-09-27T15:29:15Z</time>
      </trkpt>
      <trkpt lat="47.53171" lon="3.65244">
        <ele>216</ele>
        <time>2021-09-27T15:29:13Z</time>
      </trkpt>
      <trkpt lat="47.53165" lon="3.65146">
        <ele>211</ele>
        <time>2021-09-27T15:29:09Z</time>
      </trkpt>
      <trkpt lat="47.53162" lon="3.65047">
        <ele>200</ele>
        <time>2021-09-27T15:29:05Z</time>
      </trkpt>
      <trkpt lat="47.53165" lon="3.64947">
        <ele>197</ele>
        <time>2021-09-27T15:29:01Z</time>
      </trkpt>
      <trkpt lat="47.53158" lon="3.64856">
        <ele>194</ele>
        <time>2021-09-27T15:28:57Z</time>
      </trkpt>
      <trkpt lat="47.53154" lon="3.64836">
        <ele>193</ele>
        <time>2021-09-27T15:28:56Z</time>
      </trkpt>
      <trkpt lat="47.53151" lon="3.64817">
        <ele>192</ele>
        <time>2021-09-27T15:28:55Z</time>
      </trkpt>
      <trkpt lat="47.53149" lon="3.64799">
        <ele>192</ele>
        <time>2021-09-27T15:28:54Z</time>
      </trkpt>
      <trkpt lat="47.5315" lon="3.64783">
        <ele>191</ele>
        <time>2021-09-27T15:28:53Z</time>
      </trkpt>
      <trkpt lat="47.53152" lon="3.64768">
        <ele>191</ele>
        <time>2021-09-27T15:28:52Z</time>
      </trkpt>
      <trkpt lat="47.53169" lon="3.64725">
        <ele>190</ele>
        <time>2021-09-27T15:28:49Z</time>
      </trkpt>
      <trkpt lat="47.53176" lon="3.6471">
        <ele>190</ele>
        <time>2021-09-27T15:28:48Z</time>
      </trkpt>
      <trkpt lat="47.53183" lon="3.64694">
        <ele>189</ele>
        <time>2021-09-27T15:28:47Z</time>
      </trkpt>
      <trkpt lat="47.53188" lon="3.64676">
        <ele>188</ele>
        <time>2021-09-27T15:28:46Z</time>
      </trkpt>
      <trkpt lat="47.53192" lon="3.64657">
        <ele>187</ele>
        <time>2021-09-27T15:28:45Z</time>
      </trkpt>
      <trkpt lat="47.53195" lon="3.64595">
        <ele>185</ele>
        <time>2021-09-27T15:28:42Z</time>
      </trkpt>
      <trkpt lat="47.53197" lon="3.64574">
        <ele>184</ele>
        <time>2021-09-27T15:28:41Z</time>
      </trkpt>
      <trkpt lat="47.53212" lon="3.64493">
        <ele>183</ele>
        <time>2021-09-27T15:28:37Z</time>
      </trkpt>
      <trkpt lat="47.53217" lon="3.64473">
        <ele>182</ele>
        <time>2021-09-27T15:28:36Z</time>
      </trkpt>
      <trkpt lat="47.5322" lon="3.64454">
        <ele>181</ele>
        <time>2021-09-27T15:28:35Z</time>
      </trkpt>
      <trkpt lat="47.53222" lon="3.64435">
        <ele>180</ele>
        <time>2021-09-27T15:28:34Z</time>
      </trkpt>
      <trkpt lat="47.5322" lon="3.64417">
        <ele>178</ele>
        <time>2021-09-27T15:28:33Z</time>
      </trkpt>
      <trkpt lat="47.53216" lon="3.64398">
        <ele>177</ele>
        <time>2021-09-27T15:28:32Z</time>
      </trkpt>
      <trkpt lat="47.53209" lon="3.64381">
        <ele>176</ele>
        <time>2021-09-27T15:28:31Z</time>
      </trkpt>
      <trkpt lat="47.532" lon="3.64364">
        <ele>175</ele>
        <time>2021-09-27T15:28:30Z</time>
      </trkpt>
      <trkpt lat="47.53191" lon="3.64349">
        <ele>174</ele>
        <time>2021-09-27T15:28:29Z</time>
      </trkpt>
      <trkpt lat="47.5318" lon="3.64335">
        <ele>174</ele>
        <time>2021-09-27T15:28:28Z</time>
      </trkpt>
      <trkpt lat="47.53169" lon="3.64323">
        <ele>173</ele>
        <time>2021-09-27T15:28:27Z</time>
      </trkpt>
      <trkpt lat="47.53096" lon="3.64273">
        <ele>167</ele>
        <time>2021-09-27T15:28:22Z</time>
      </trkpt>
      <trkpt lat="47.53035" lon="3.64209">
        <ele>166</ele>
        <time>2021-09-27T15:28:17Z</time>
      </trkpt>
      <trkpt lat="47.53027" lon="3.64195">
        <ele>166</ele>
        <time>2021-09-27T15:28:16Z</time>
      </trkpt>
      <trkpt lat="47.53019" lon="3.6418">
        <ele>166</ele>
        <time>2021-09-27T15:28:15Z</time>
      </trkpt>
      <trkpt lat="47.53013" lon="3.64165">
        <ele>167</ele>
        <time>2021-09-27T15:28:14Z</time>
      </trkpt>
      <trkpt lat="47.53008" lon="3.64149">
        <ele>166</ele>
        <time>2021-09-27T15:28:13Z</time>
      </trkpt>
      <trkpt lat="47.53005" lon="3.64132">
        <ele>164</ele>
        <time>2021-09-27T15:28:12Z</time>
      </trkpt>
      <trkpt lat="47.53006" lon="3.64047">
        <ele>160</ele>
        <time>2021-09-27T15:28:07Z</time>
      </trkpt>
      <trkpt lat="47.53011" lon="3.63926">
        <ele>161</ele>
        <time>2021-09-27T15:28:00Z</time>
      </trkpt>
      <trkpt lat="47.53035" lon="3.63818">
        <ele>154</ele>
        <time>2021-09-27T15:27:53Z</time>
      </trkpt>
      <trkpt lat="47.53063" lon="3.63731">
        <ele>149</ele>
        <time>2021-09-27T15:27:45Z</time>
      </trkpt>
      <trkpt lat="47.53086" lon="3.63682">
        <ele>146</ele>
        <time>2021-09-27T15:27:39Z</time>
      </trkpt>
      <trkpt lat="47.5313" lon="3.63574">
        <ele>140</ele>
        <time>2021-09-27T15:27:25Z</time>
      </trkpt>
      <trkpt lat="47.53137" lon="3.63548">
        <ele>140</ele>
        <time>2021-09-27T15:27:18Z</time>
      </trkpt>
      <trkpt lat="47.53151" lon="3.63465">
        <ele>137</ele>
        <time>2021-09-27T15:27:08Z</time>
      </trkpt>
      <trkpt lat="47.53151" lon="3.63458">
        <ele>137</ele>
        <time>2021-09-27T15:27:07Z</time>
      </trkpt>
      <trkpt lat="47.53152" lon="3.63452">
        <ele>137</ele>
        <time>2021-09-27T15:27:06Z</time>
      </trkpt>
      <trkpt lat="47.53153" lon="3.63447">
        <ele>137</ele>
        <time>2021-09-27T15:27:05Z</time>
      </trkpt>
      <trkpt lat="47.53156" lon="3.63445">
        <ele>137</ele>
        <time>2021-09-27T15:27:04Z</time>
      </trkpt>
      <trkpt lat="47.53158" lon="3.63443">
        <ele>137</ele>
        <time>2021-09-27T15:27:03Z</time>
      </trkpt>
      <trkpt lat="47.5321" lon="3.63447">
        <ele>138</ele>
        <time>2021-09-27T15:26:52Z</time>
      </trkpt>
      <trkpt lat="47.53218" lon="3.63446">
        <ele>138</ele>
        <time>2021-09-27T15:26:51Z</time>
      </trkpt>
      <trkpt lat="47.53224" lon="3.63445">
        <ele>138</ele>
        <time>2021-09-27T15:26:50Z</time>
      </trkpt>
      <trkpt lat="47.53273" lon="3.63416">
        <ele>138</ele>
        <time>2021-09-27T15:26:43Z</time>
      </trkpt>
      <trkpt lat="47.53286" lon="3.63414">
        <ele>137</ele>
        <time>2021-09-27T15:26:41Z</time>
      </trkpt>
      <trkpt lat="47.53297" lon="3.63414">
        <ele>136</ele>
        <time>2021-09-27T15:26:39Z</time>
      </trkpt>
      <trkpt lat="47.53323" lon="3.63421">
        <ele>134</ele>
        <time>2021-09-27T15:26:35Z</time>
      </trkpt>
      <trkpt lat="47.5333" lon="3.63423">
        <ele>133</ele>
        <time>2021-09-27T15:26:34Z</time>
      </trkpt>
      <trkpt lat="47.5336" lon="3.63419">
        <ele>133</ele>
        <time>2021-09-27T15:26:30Z</time>
      </trkpt>
      <trkpt lat="47.53367" lon="3.63417">
        <ele>133</ele>
        <time>2021-09-27T15:26:29Z</time>
      </trkpt>
      <trkpt lat="47.53434" lon="3.63361">
        <ele>129</ele>
        <time>2021-09-27T15:26:18Z</time>
      </trkpt>
      <trkpt lat="47.53439" lon="3.63356">
        <ele>129</ele>
        <time>2021-09-27T15:26:17Z</time>
      </trkpt>
      <trkpt lat="47.53442" lon="3.63353">
        <ele>129</ele>
        <time>2021-09-27T15:26:16Z</time>
      </trkpt>
      <trkpt lat="47.53443" lon="3.63349">
        <ele>129</ele>
        <time>2021-09-27T15:26:15Z</time>
      </trkpt>
      <trkpt lat="47.53444" lon="3.63346">
        <ele>129</ele>
        <time>2021-09-27T15:26:14Z</time>
      </trkpt>
      <trkpt lat="47.53444" lon="3.63344">
        <ele>129</ele>
        <time>2021-09-27T15:26:13Z</time>
      </trkpt>
      <trkpt lat="47.53443" lon="3.63342">
        <ele>129</ele>
        <time>2021-09-27T15:26:12Z</time>
      </trkpt>
      <trkpt lat="47.53442" lon="3.6334">
        <ele>129</ele>
        <time>2021-09-27T15:26:11Z</time>
      </trkpt>
      <trkpt lat="47.53439" lon="3.63337">
        <ele>129</ele>
        <time>2021-09-27T15:26:10Z</time>
      </trkpt>
      <trkpt lat="47.53359" lon="3.63311">
        <ele>131</ele>
        <time>2021-09-27T15:25:59Z</time>
      </trkpt>
      <trkpt lat="47.53351" lon="3.63309">
        <ele>131</ele>
        <time>2021-09-27T15:25:58Z</time>
      </trkpt>
      <trkpt lat="47.53344" lon="3.63306">
        <ele>131</ele>
        <time>2021-09-27T15:25:57Z</time>
      </trkpt>
      <trkpt lat="47.53338" lon="3.63302">
        <ele>131</ele>
        <time>2021-09-27T15:25:56Z</time>
      </trkpt>
      <trkpt lat="47.53334" lon="3.63295">
        <ele>131</ele>
        <time>2021-09-27T15:25:55Z</time>
      </trkpt>
      <trkpt lat="47.5328" lon="3.63202">
        <ele>131</ele>
        <time>2021-09-27T15:25:44Z</time>
      </trkpt>
      <trkpt lat="47.53244" lon="3.63152">
        <ele>133</ele>
        <time>2021-09-27T15:25:37Z</time>
      </trkpt>
      <trkpt lat="47.5322" lon="3.63088">
        <ele>132</ele>
        <time>2021-09-27T15:25:30Z</time>
      </trkpt>
      <trkpt lat="47.53199" lon="3.63055">
        <ele>134</ele>
        <time>2021-09-27T15:25:26Z</time>
      </trkpt>
      <trkpt lat="47.5312" lon="3.62935">
        <ele>133</ele>
        <time>2021-09-27T15:25:15Z</time>
      </trkpt>
      <trkpt lat="47.53055" lon="3.62733">
        <ele>134</ele>
        <time>2021-09-27T15:25:03Z</time>
      </trkpt>
      <trkpt lat="47.52961" lon="3.62431">
        <ele>138</ele>
        <time>2021-09-27T15:24:48Z</time>
      </trkpt>
      <trkpt lat="47.52956" lon="3.6241">
        <ele>138</ele>
        <time>2021-09-27T15:24:47Z</time>
      </trkpt>
      <trkpt lat="47.52947" lon="3.62342">
        <ele>136</ele>
        <time>2021-09-27T15:24:44Z</time>
      </trkpt>
      <trkpt lat="47.52939" lon="3.62112">
        <ele>139</ele>
        <time>2021-09-27T15:24:35Z</time>
      </trkpt>
      <trkpt lat="47.52952" lon="3.61906">
        <ele>145</ele>
        <time>2021-09-27T15:24:27Z</time>
      </trkpt>
      <trkpt lat="47.53017" lon="3.61668">
        <ele>145</ele>
        <time>2021-09-27T15:24:18Z</time>
      </trkpt>
      <trkpt lat="47.53073" lon="3.61457">
        <ele>138</ele>
        <time>2021-09-27T15:24:11Z</time>
      </trkpt>
      <trkpt lat="47.53162" lon="3.61297">
        <ele>136</ele>
        <time>2021-09-27T15:24:05Z</time>
      </trkpt>
      <trkpt lat="47.53291" lon="3.61171">
        <ele>133</ele>
        <time>2021-09-27T15:23:58Z</time>
      </trkpt>
      <trkpt lat="47.53386" lon="3.6108">
        <ele>134</ele>
        <time>2021-09-27T15:23:52Z</time>
      </trkpt>
      <trkpt lat="47.534" lon="3.61066">
        <ele>135</ele>
        <time>2021-09-27T15:23:51Z</time>
      </trkpt>
      <trkpt lat="47.53414" lon="3.61051">
        <ele>136</ele>
        <time>2021-09-27T15:23:50Z</time>
      </trkpt>
      <trkpt lat="47.53426" lon="3.61035">
        <ele>136</ele>
        <time>2021-09-27T15:23:49Z</time>
      </trkpt>
      <trkpt lat="47.53437" lon="3.61017">
        <ele>136</ele>
        <time>2021-09-27T15:23:48Z</time>
      </trkpt>
      <trkpt lat="47.53447" lon="3.60998">
        <ele>136</ele>
        <time>2021-09-27T15:23:47Z</time>
      </trkpt>
      <trkpt lat="47.53455" lon="3.60978">
        <ele>137</ele>
        <time>2021-09-27T15:23:46Z</time>
      </trkpt>
      <trkpt lat="47.53461" lon="3.60956">
        <ele>137</ele>
        <time>2021-09-27T15:23:45Z</time>
      </trkpt>
      <trkpt lat="47.53465" lon="3.60934">
        <ele>137</ele>
        <time>2021-09-27T15:23:44Z</time>
      </trkpt>
      <trkpt lat="47.53466" lon="3.60911">
        <ele>138</ele>
        <time>2021-09-27T15:23:43Z</time>
      </trkpt>
      <trkpt lat="47.53434" lon="3.60688">
        <ele>141</ele>
        <time>2021-09-27T15:23:33Z</time>
      </trkpt>
      <trkpt lat="47.53428" lon="3.60666">
        <ele>142</ele>
        <time>2021-09-27T15:23:32Z</time>
      </trkpt>
      <trkpt lat="47.53421" lon="3.60644">
        <ele>142</ele>
        <time>2021-09-27T15:23:31Z</time>
      </trkpt>
      <trkpt lat="47.53343" lon="3.60513">
        <ele>143</ele>
        <time>2021-09-27T15:23:24Z</time>
      </trkpt>
      <trkpt lat="47.53257" lon="3.60408">
        <ele>141</ele>
        <time>2021-09-27T15:23:18Z</time>
      </trkpt>
      <trkpt lat="47.53243" lon="3.60391">
        <ele>140</ele>
        <time>2021-09-27T15:23:17Z</time>
      </trkpt>
      <trkpt lat="47.5323" lon="3.60377">
        <ele>139</ele>
        <time>2021-09-27T15:23:16Z</time>
      </trkpt>
      <trkpt lat="47.53216" lon="3.60364">
        <ele>138</ele>
        <time>2021-09-27T15:23:15Z</time>
      </trkpt>
      <trkpt lat="47.53202" lon="3.60356">
        <ele>138</ele>
        <time>2021-09-27T15:23:14Z</time>
      </trkpt>
      <trkpt lat="47.53188" lon="3.6035">
        <ele>137</ele>
        <time>2021-09-27T15:23:13Z</time>
      </trkpt>
      <trkpt lat="47.53174" lon="3.60349">
        <ele>136</ele>
        <time>2021-09-27T15:23:12Z</time>
      </trkpt>
      <trkpt lat="47.53114" lon="3.6037">
        <ele>135</ele>
        <time>2021-09-27T15:23:08Z</time>
      </trkpt>
      <trkpt lat="47.52944" lon="3.60472">
        <ele>139</ele>
        <time>2021-09-27T15:22:58Z</time>
      </trkpt>
      <trkpt lat="47.5278" lon="3.60554">
        <ele>142</ele>
        <time>2021-09-27T15:22:50Z</time>
      </trkpt>
      <trkpt lat="47.52587" lon="3.60557">
        <ele>139</ele>
        <time>2021-09-27T15:22:42Z</time>
      </trkpt>
      <trkpt lat="47.52443" lon="3.60536">
        <ele>139</ele>
        <time>2021-09-27T15:22:35Z</time>
      </trkpt>
      <trkpt lat="47.52426" lon="3.60532">
        <ele>140</ele>
        <time>2021-09-27T15:22:34Z</time>
      </trkpt>
      <trkpt lat="47.52411" lon="3.60527">
        <ele>140</ele>
        <time>2021-09-27T15:22:33Z</time>
      </trkpt>
      <trkpt lat="47.52396" lon="3.6052">
        <ele>140</ele>
        <time>2021-09-27T15:22:32Z</time>
      </trkpt>
      <trkpt lat="47.52384" lon="3.60512">
        <ele>139</ele>
        <time>2021-09-27T15:22:31Z</time>
      </trkpt>
      <trkpt lat="47.52348" lon="3.60475">
        <ele>137</ele>
        <time>2021-09-27T15:22:28Z</time>
      </trkpt>
      <trkpt lat="47.52336" lon="3.6046">
        <ele>135</ele>
        <time>2021-09-27T15:22:27Z</time>
      </trkpt>
      <trkpt lat="47.52323" lon="3.60442">
        <ele>133</ele>
        <time>2021-09-27T15:22:26Z</time>
      </trkpt>
      <trkpt lat="47.52311" lon="3.60422">
        <ele>133</ele>
        <time>2021-09-27T15:22:25Z</time>
      </trkpt>
      <trkpt lat="47.523" lon="3.60401">
        <ele>133</ele>
        <time>2021-09-27T15:22:24Z</time>
      </trkpt>
      <trkpt lat="47.5229" lon="3.60377">
        <ele>132</ele>
        <time>2021-09-27T15:22:23Z</time>
      </trkpt>
      <trkpt lat="47.52282" lon="3.60352">
        <ele>131</ele>
        <time>2021-09-27T15:22:22Z</time>
      </trkpt>
      <trkpt lat="47.52251" lon="3.60042">
        <ele>133</ele>
        <time>2021-09-27T15:22:11Z</time>
      </trkpt>
      <trkpt lat="47.52224" lon="3.5968">
        <ele>132</ele>
        <time>2021-09-27T15:22:00Z</time>
      </trkpt>
      <trkpt lat="47.52208" lon="3.59321">
        <ele>135</ele>
        <time>2021-09-27T15:21:49Z</time>
      </trkpt>
      <trkpt lat="47.52249" lon="3.58968">
        <ele>135</ele>
        <time>2021-09-27T15:21:37Z</time>
      </trkpt>
      <trkpt lat="47.523" lon="3.58691">
        <ele>139</ele>
        <time>2021-09-27T15:21:26Z</time>
      </trkpt>
      <trkpt lat="47.5232" lon="3.58592">
        <ele>141</ele>
        <time>2021-09-27T15:21:20Z</time>
      </trkpt>
      <trkpt lat="47.52337" lon="3.58508">
        <ele>142</ele>
        <time>2021-09-27T15:21:11Z</time>
      </trkpt>
      <trkpt lat="47.52356" lon="3.58387">
        <ele>142</ele>
        <time>2021-09-27T15:21:01Z</time>
      </trkpt>
      <trkpt lat="47.52387" lon="3.58293">
        <ele>143</ele>
        <time>2021-09-27T15:20:52Z</time>
      </trkpt>
      <trkpt lat="47.52406" lon="3.58212">
        <ele>144</ele>
        <time>2021-09-27T15:20:43Z</time>
      </trkpt>
      <trkpt lat="47.52408" lon="3.58205">
        <ele>144</ele>
        <time>2021-09-27T15:20:42Z</time>
      </trkpt>
      <trkpt lat="47.52411" lon="3.582">
        <ele>144</ele>
        <time>2021-09-27T15:20:41Z</time>
      </trkpt>
      <trkpt lat="47.52413" lon="3.58196">
        <ele>144</ele>
        <time>2021-09-27T15:20:40Z</time>
      </trkpt>
      <trkpt lat="47.52428" lon="3.58159">
        <ele>144</ele>
        <time>2021-09-27T15:20:33Z</time>
      </trkpt>
      <trkpt lat="47.52432" lon="3.5815">
        <ele>144</ele>
        <time>2021-09-27T15:20:32Z</time>
      </trkpt>
      <trkpt lat="47.52436" lon="3.5814">
        <ele>143</ele>
        <time>2021-09-27T15:20:31Z</time>
      </trkpt>
      <trkpt lat="47.52459" lon="3.58037">
        <ele>143</ele>
        <time>2021-09-27T15:20:20Z</time>
      </trkpt>
      <trkpt lat="47.52507" lon="3.57813">
        <ele>143</ele>
        <time>2021-09-27T15:20:04Z</time>
      </trkpt>
      <trkpt lat="47.52524" lon="3.57657">
        <ele>146</ele>
        <time>2021-09-27T15:19:55Z</time>
      </trkpt>
      <trkpt lat="47.52523" lon="3.57418">
        <ele>143</ele>
        <time>2021-09-27T15:19:45Z</time>
      </trkpt>
      <trkpt lat="47.52521" lon="3.57019">
        <ele>135</ele>
        <time>2021-09-27T15:19:32Z</time>
      </trkpt>
      <trkpt lat="47.52518" lon="3.56619">
        <ele>135</ele>
        <time>2021-09-27T15:19:21Z</time>
      </trkpt>
      <trkpt lat="47.52504" lon="3.56221">
        <ele>137</ele>
        <time>2021-09-27T15:19:11Z</time>
      </trkpt>
      <trkpt lat="47.52483" lon="3.55942">
        <ele>139</ele>
        <time>2021-09-27T15:19:03Z</time>
      </trkpt>
      <trkpt lat="47.52437" lon="3.55677">
        <ele>140</ele>
        <time>2021-09-27T15:18:54Z</time>
      </trkpt>
      <trkpt lat="47.52419" lon="3.55492">
        <ele>141</ele>
        <time>2021-09-27T15:18:46Z</time>
      </trkpt>
      <trkpt lat="47.52371" lon="3.55281">
        <ele>151</ele>
        <time>2021-09-27T15:18:37Z</time>
      </trkpt>
      <trkpt lat="47.52296" lon="3.55057">
        <ele>145</ele>
        <time>2021-09-27T15:18:27Z</time>
      </trkpt>
      <trkpt lat="47.52202" lon="3.54794">
        <ele>148</ele>
        <time>2021-09-27T15:18:16Z</time>
      </trkpt>
      <trkpt lat="47.5208" lon="3.54426">
        <ele>149</ele>
        <time>2021-09-27T15:18:02Z</time>
      </trkpt>
      <trkpt lat="47.52035" lon="3.54244">
        <ele>149</ele>
        <time>2021-09-27T15:17:54Z</time>
      </trkpt>
      <trkpt lat="47.52027" lon="3.54056">
        <ele>144</ele>
        <time>2021-09-27T15:17:44Z</time>
      </trkpt>
      <trkpt lat="47.52027" lon="3.54041">
        <ele>144</ele>
        <time>2021-09-27T15:17:43Z</time>
      </trkpt>
      <trkpt lat="47.52027" lon="3.54027">
        <ele>144</ele>
        <time>2021-09-27T15:17:42Z</time>
      </trkpt>
      <trkpt lat="47.52029" lon="3.54015">
        <ele>143</ele>
        <time>2021-09-27T15:17:41Z</time>
      </trkpt>
      <trkpt lat="47.52031" lon="3.54003">
        <ele>143</ele>
        <time>2021-09-27T15:17:40Z</time>
      </trkpt>
      <trkpt lat="47.52033" lon="3.53992">
        <ele>143</ele>
        <time>2021-09-27T15:17:39Z</time>
      </trkpt>
      <trkpt lat="47.52034" lon="3.53982">
        <ele>143</ele>
        <time>2021-09-27T15:17:38Z</time>
      </trkpt>
      <trkpt lat="47.52033" lon="3.53972">
        <ele>142</ele>
        <time>2021-09-27T15:17:37Z</time>
      </trkpt>
      <trkpt lat="47.52029" lon="3.53963">
        <ele>142</ele>
        <time>2021-09-27T15:17:36Z</time>
      </trkpt>
      <trkpt lat="47.51969" lon="3.53858">
        <ele>147</ele>
        <time>2021-09-27T15:17:27Z</time>
      </trkpt>
      <trkpt lat="47.51897" lon="3.53727">
        <ele>146</ele>
        <time>2021-09-27T15:17:18Z</time>
      </trkpt>
      <trkpt lat="47.5179" lon="3.53564">
        <ele>148</ele>
        <time>2021-09-27T15:17:08Z</time>
      </trkpt>
      <trkpt lat="47.51632" lon="3.53349">
        <ele>153</ele>
        <time>2021-09-27T15:16:56Z</time>
      </trkpt>
      <trkpt lat="47.51398" lon="3.53029">
        <ele>154</ele>
        <time>2021-09-27T15:16:39Z</time>
      </trkpt>
      <trkpt lat="47.51208" lon="3.52889">
        <ele>148</ele>
        <time>2021-09-27T15:16:28Z</time>
      </trkpt>
      <trkpt lat="47.51133" lon="3.52846">
        <ele>149</ele>
        <time>2021-09-27T15:16:24Z</time>
      </trkpt>
      <trkpt lat="47.5104" lon="3.52792">
        <ele>154</ele>
        <time>2021-09-27T15:16:19Z</time>
      </trkpt>
      <trkpt lat="47.50936" lon="3.52732">
        <ele>156</ele>
        <time>2021-09-27T15:16:13Z</time>
      </trkpt>
      <trkpt lat="47.50847" lon="3.5268">
        <ele>159</ele>
        <time>2021-09-27T15:16:08Z</time>
      </trkpt>
      <trkpt lat="47.50757" lon="3.52627">
        <ele>160</ele>
        <time>2021-09-27T15:16:03Z</time>
      </trkpt>
      <trkpt lat="47.50672" lon="3.52578">
        <ele>166</ele>
        <time>2021-09-27T15:15:58Z</time>
      </trkpt>
      <trkpt lat="47.50586" lon="3.52526">
        <ele>167</ele>
        <time>2021-09-27T15:15:53Z</time>
      </trkpt>
      <trkpt lat="47.50514" lon="3.52485">
        <ele>171</ele>
        <time>2021-09-27T15:15:49Z</time>
      </trkpt>
      <trkpt lat="47.50495" lon="3.52476">
        <ele>172</ele>
        <time>2021-09-27T15:15:48Z</time>
      </trkpt>
      <trkpt lat="47.50475" lon="3.5247">
        <ele>175</ele>
        <time>2021-09-27T15:15:47Z</time>
      </trkpt>
      <trkpt lat="47.50434" lon="3.52467">
        <ele>177</ele>
        <time>2021-09-27T15:15:45Z</time>
      </trkpt>
      <trkpt lat="47.50372" lon="3.52478">
        <ele>180</ele>
        <time>2021-09-27T15:15:42Z</time>
      </trkpt>
      <trkpt lat="47.50291" lon="3.52513">
        <ele>184</ele>
        <time>2021-09-27T15:15:38Z</time>
      </trkpt>
      <trkpt lat="47.50194" lon="3.52559">
        <ele>192</ele>
        <time>2021-09-27T15:15:33Z</time>
      </trkpt>
      <trkpt lat="47.50021" lon="3.52639">
        <ele>197</ele>
        <time>2021-09-27T15:15:24Z</time>
      </trkpt>
      <trkpt lat="47.49856" lon="3.52702">
        <ele>198</ele>
        <time>2021-09-27T15:15:15Z</time>
      </trkpt>
      <trkpt lat="47.49763" lon="3.52701">
        <ele>198</ele>
        <time>2021-09-27T15:15:10Z</time>
      </trkpt>
      <trkpt lat="47.49685" lon="3.52678">
        <ele>198</ele>
        <time>2021-09-27T15:15:06Z</time>
      </trkpt>
      <trkpt lat="47.49646" lon="3.52664">
        <ele>198</ele>
        <time>2021-09-27T15:15:04Z</time>
      </trkpt>
      <trkpt lat="47.4959" lon="3.52647">
        <ele>193</ele>
        <time>2021-09-27T15:15:01Z</time>
      </trkpt>
      <trkpt lat="47.49536" lon="3.52639">
        <ele>192</ele>
        <time>2021-09-27T15:14:58Z</time>
      </trkpt>
      <trkpt lat="47.49484" lon="3.52641">
        <ele>192</ele>
        <time>2021-09-27T15:14:55Z</time>
      </trkpt>
      <trkpt lat="47.49433" lon="3.52653">
        <ele>193</ele>
        <time>2021-09-27T15:14:52Z</time>
      </trkpt>
      <trkpt lat="47.49399" lon="3.52666">
        <ele>190</ele>
        <time>2021-09-27T15:14:50Z</time>
      </trkpt>
      <trkpt lat="47.4935" lon="3.52694">
        <ele>185</ele>
        <time>2021-09-27T15:14:47Z</time>
      </trkpt>
      <trkpt lat="47.49304" lon="3.52734">
        <ele>180</ele>
        <time>2021-09-27T15:14:44Z</time>
      </trkpt>
      <trkpt lat="47.49259" lon="3.52783">
        <ele>176</ele>
        <time>2021-09-27T15:14:41Z</time>
      </trkpt>
      <trkpt lat="47.49213" lon="3.52838">
        <ele>175</ele>
        <time>2021-09-27T15:14:38Z</time>
      </trkpt>
      <trkpt lat="47.49162" lon="3.52887">
        <ele>168</ele>
        <time>2021-09-27T15:14:35Z</time>
      </trkpt>
      <trkpt lat="47.49027" lon="3.5294">
        <ele>151</ele>
        <time>2021-09-27T15:14:28Z</time>
      </trkpt>
      <trkpt lat="47.48624" lon="3.52967">
        <ele>151</ele>
        <time>2021-09-27T15:14:08Z</time>
      </trkpt>
      <trkpt lat="47.48341" lon="3.52977">
        <ele>156</ele>
        <time>2021-09-27T15:13:54Z</time>
      </trkpt>
      <trkpt lat="47.48198" lon="3.52916">
        <ele>151</ele>
        <time>2021-09-27T15:13:46Z</time>
      </trkpt>
      <trkpt lat="47.4804" lon="3.52821">
        <ele>154</ele>
        <time>2021-09-27T15:13:36Z</time>
      </trkpt>
      <trkpt lat="47.47908" lon="3.52764">
        <ele>156</ele>
        <time>2021-09-27T15:13:25Z</time>
      </trkpt>
      <trkpt lat="47.47898" lon="3.52761">
        <ele>155</ele>
        <time>2021-09-27T15:13:24Z</time>
      </trkpt>
      <trkpt lat="47.47876" lon="3.52759">
        <ele>155</ele>
        <time>2021-09-27T15:13:22Z</time>
      </trkpt>
      <trkpt lat="47.47867" lon="3.5276">
        <ele>155</ele>
        <time>2021-09-27T15:13:21Z</time>
      </trkpt>
      <trkpt lat="47.47858" lon="3.52761">
        <ele>156</ele>
        <time>2021-09-27T15:13:20Z</time>
      </trkpt>
      <trkpt lat="47.47852" lon="3.52756">
        <ele>154</ele>
        <time>2021-09-27T15:13:19Z</time>
      </trkpt>
      <trkpt lat="47.47848" lon="3.52748">
        <ele>152</ele>
        <time>2021-09-27T15:13:18Z</time>
      </trkpt>
      <trkpt lat="47.47847" lon="3.52739">
        <ele>150</ele>
        <time>2021-09-27T15:13:17Z</time>
      </trkpt>
      <trkpt lat="47.47849" lon="3.52718">
        <ele>147</ele>
        <time>2021-09-27T15:13:15Z</time>
      </trkpt>
      <trkpt lat="47.47849" lon="3.52706">
        <ele>147</ele>
        <time>2021-09-27T15:13:14Z</time>
      </trkpt>
      <trkpt lat="47.47842" lon="3.52663">
        <ele>145</ele>
        <time>2021-09-27T15:13:11Z</time>
      </trkpt>
      <trkpt lat="47.47779" lon="3.52463">
        <ele>146</ele>
        <time>2021-09-27T15:13:00Z</time>
      </trkpt>
      <trkpt lat="47.47686" lon="3.52164">
        <ele>150</ele>
        <time>2021-09-27T15:12:47Z</time>
      </trkpt>
      <trkpt lat="47.4761" lon="3.51925">
        <ele>148</ele>
        <time>2021-09-27T15:12:38Z</time>
      </trkpt>
      <trkpt lat="47.47547" lon="3.51757">
        <ele>151</ele>
        <time>2021-09-27T15:12:31Z</time>
      </trkpt>
      <trkpt lat="47.47479" lon="3.51603">
        <ele>154</ele>
        <time>2021-09-27T15:12:24Z</time>
      </trkpt>
      <trkpt lat="47.47371" lon="3.51396">
        <ele>158</ele>
        <time>2021-09-27T15:12:14Z</time>
      </trkpt>
      <trkpt lat="47.47282" lon="3.51262">
        <ele>163</ele>
        <time>2021-09-27T15:12:06Z</time>
      </trkpt>
      <trkpt lat="47.47273" lon="3.51248">
        <ele>164</ele>
        <time>2021-09-27T15:12:05Z</time>
      </trkpt>
      <trkpt lat="47.47263" lon="3.51237">
        <ele>164</ele>
        <time>2021-09-27T15:12:04Z</time>
      </trkpt>
      <trkpt lat="47.47253" lon="3.51227">
        <ele>164</ele>
        <time>2021-09-27T15:12:03Z</time>
      </trkpt>
      <trkpt lat="47.47243" lon="3.51222">
        <ele>165</ele>
        <time>2021-09-27T15:12:02Z</time>
      </trkpt>
      <trkpt lat="47.47234" lon="3.51217">
        <ele>166</ele>
        <time>2021-09-27T15:12:01Z</time>
      </trkpt>
      <trkpt lat="47.47227" lon="3.5121">
        <ele>166</ele>
        <time>2021-09-27T15:12:00Z</time>
      </trkpt>
      <trkpt lat="47.47221" lon="3.512">
        <ele>166</ele>
        <time>2021-09-27T15:11:59Z</time>
      </trkpt>
      <trkpt lat="47.47217" lon="3.51188">
        <ele>166</ele>
        <time>2021-09-27T15:11:58Z</time>
      </trkpt>
      <trkpt lat="47.47213" lon="3.51174">
        <ele>166</ele>
        <time>2021-09-27T15:11:57Z</time>
      </trkpt>
      <trkpt lat="47.47193" lon="3.51133">
        <ele>165</ele>
        <time>2021-09-27T15:11:54Z</time>
      </trkpt>
      <trkpt lat="47.4713" lon="3.51038">
        <ele>168</ele>
        <time>2021-09-27T15:11:48Z</time>
      </trkpt>
      <trkpt lat="47.47061" lon="3.50942">
        <ele>173</ele>
        <time>2021-09-27T15:11:43Z</time>
      </trkpt>
      <trkpt lat="47.46989" lon="3.50841">
        <ele>176</ele>
        <time>2021-09-27T15:11:38Z</time>
      </trkpt>
      <trkpt lat="47.46931" lon="3.50759">
        <ele>177</ele>
        <time>2021-09-27T15:11:34Z</time>
      </trkpt>
      <trkpt lat="47.46872" lon="3.50678">
        <ele>179</ele>
        <time>2021-09-27T15:11:30Z</time>
      </trkpt>
      <trkpt lat="47.46814" lon="3.50596">
        <ele>180</ele>
        <time>2021-09-27T15:11:26Z</time>
      </trkpt>
      <trkpt lat="47.46741" lon="3.50494">
        <ele>185</ele>
        <time>2021-09-27T15:11:21Z</time>
      </trkpt>
      <trkpt lat="47.46668" lon="3.50392">
        <ele>189</ele>
        <time>2021-09-27T15:11:16Z</time>
      </trkpt>
      <trkpt lat="47.46563" lon="3.50253">
        <ele>193</ele>
        <time>2021-09-27T15:11:09Z</time>
      </trkpt>
      <trkpt lat="47.46117" lon="3.49741">
        <ele>205</ele>
        <time>2021-09-27T15:10:41Z</time>
      </trkpt>
      <trkpt lat="47.4594" lon="3.49542">
        <ele>201</ele>
        <time>2021-09-27T15:10:30Z</time>
      </trkpt>
      <trkpt lat="47.45827" lon="3.49415">
        <ele>201</ele>
        <time>2021-09-27T15:10:23Z</time>
      </trkpt>
      <trkpt lat="47.45763" lon="3.49343">
        <ele>201</ele>
        <time>2021-09-27T15:10:19Z</time>
      </trkpt>
      <trkpt lat="47.45682" lon="3.49253">
        <ele>196</ele>
        <time>2021-09-27T15:10:14Z</time>
      </trkpt>
      <trkpt lat="47.45569" lon="3.49127">
        <ele>188</ele>
        <time>2021-09-27T15:10:07Z</time>
      </trkpt>
      <trkpt lat="47.45433" lon="3.48999">
        <ele>187</ele>
        <time>2021-09-27T15:09:59Z</time>
      </trkpt>
      <trkpt lat="47.45339" lon="3.4894">
        <ele>185</ele>
        <time>2021-09-27T15:09:54Z</time>
      </trkpt>
      <trkpt lat="47.45245" lon="3.48899">
        <ele>182</ele>
        <time>2021-09-27T15:09:49Z</time>
      </trkpt>
      <trkpt lat="47.45171" lon="3.48878">
        <ele>180</ele>
        <time>2021-09-27T15:09:45Z</time>
      </trkpt>
      <trkpt lat="47.45094" lon="3.48861">
        <ele>176</ele>
        <time>2021-09-27T15:09:41Z</time>
      </trkpt>
      <trkpt lat="47.45005" lon="3.48841">
        <ele>173</ele>
        <time>2021-09-27T15:09:36Z</time>
      </trkpt>
      <trkpt lat="47.4493" lon="3.48824">
        <ele>167</ele>
        <time>2021-09-27T15:09:31Z</time>
      </trkpt>
      <trkpt lat="47.44811" lon="3.48802">
        <ele>156</ele>
        <time>2021-09-27T15:09:23Z</time>
      </trkpt>
      <trkpt lat="47.44798" lon="3.488">
        <ele>156</ele>
        <time>2021-09-27T15:09:22Z</time>
      </trkpt>
      <trkpt lat="47.44785" lon="3.48799">
        <ele>156</ele>
        <time>2021-09-27T15:09:21Z</time>
      </trkpt>
      <trkpt lat="47.44774" lon="3.488">
        <ele>156</ele>
        <time>2021-09-27T15:09:20Z</time>
      </trkpt>
      <trkpt lat="47.44763" lon="3.48804">
        <ele>157</ele>
        <time>2021-09-27T15:09:19Z</time>
      </trkpt>
      <trkpt lat="47.44753" lon="3.48811">
        <ele>157</ele>
        <time>2021-09-27T15:09:18Z</time>
      </trkpt>
      <trkpt lat="47.44746" lon="3.48822">
        <ele>157</ele>
        <time>2021-09-27T15:09:17Z</time>
      </trkpt>
      <trkpt lat="47.44741" lon="3.48836">
        <ele>156</ele>
        <time>2021-09-27T15:09:16Z</time>
      </trkpt>
      <trkpt lat="47.4474" lon="3.48852">
        <ele>156</ele>
        <time>2021-09-27T15:09:15Z</time>
      </trkpt>
      <trkpt lat="47.44743" lon="3.48869">
        <ele>155</ele>
        <time>2021-09-27T15:09:14Z</time>
      </trkpt>
      <trkpt lat="47.44749" lon="3.48883">
        <ele>155</ele>
        <time>2021-09-27T15:09:13Z</time>
      </trkpt>
      <trkpt lat="47.44758" lon="3.48893">
        <ele>155</ele>
        <time>2021-09-27T15:09:12Z</time>
      </trkpt>
      <trkpt lat="47.44769" lon="3.48901">
        <ele>155</ele>
        <time>2021-09-27T15:09:11Z</time>
      </trkpt>
      <trkpt lat="47.44781" lon="3.48905">
        <ele>156</ele>
        <time>2021-09-27T15:09:10Z</time>
      </trkpt>
      <trkpt lat="47.44791" lon="3.48907">
        <ele>157</ele>
        <time>2021-09-27T15:09:09Z</time>
      </trkpt>
      <trkpt lat="47.448" lon="3.48906">
        <ele>157</ele>
        <time>2021-09-27T15:09:08Z</time>
      </trkpt>
      <trkpt lat="47.44808" lon="3.48903">
        <ele>158</ele>
        <time>2021-09-27T15:09:07Z</time>
      </trkpt>
      <trkpt lat="47.44815" lon="3.48898">
        <ele>158</ele>
        <time>2021-09-27T15:09:06Z</time>
      </trkpt>
      <trkpt lat="47.4482" lon="3.48892">
        <ele>159</ele>
        <time>2021-09-27T15:09:05Z</time>
      </trkpt>
      <trkpt lat="47.44823" lon="3.48884">
        <ele>159</ele>
        <time>2021-09-27T15:09:04Z</time>
      </trkpt>
      <trkpt lat="47.44854" lon="3.4876">
        <ele>157</ele>
        <time>2021-09-27T15:08:54Z</time>
      </trkpt>
      <trkpt lat="47.44857" lon="3.48746">
        <ele>156</ele>
        <time>2021-09-27T15:08:53Z</time>
      </trkpt>
      <trkpt lat="47.44858" lon="3.48732">
        <ele>156</ele>
        <time>2021-09-27T15:08:52Z</time>
      </trkpt>
      <trkpt lat="47.44859" lon="3.48719">
        <ele>155</ele>
        <time>2021-09-27T15:08:51Z</time>
      </trkpt>
      <trkpt lat="47.44859" lon="3.48707">
        <ele>154</ele>
        <time>2021-09-27T15:08:50Z</time>
      </trkpt>
      <trkpt lat="47.44861" lon="3.48696">
        <ele>154</ele>
        <time>2021-09-27T15:08:49Z</time>
      </trkpt>
      <trkpt lat="47.44866" lon="3.48687">
        <ele>153</ele>
        <time>2021-09-27T15:08:48Z</time>
      </trkpt>
      <trkpt lat="47.44871" lon="3.48679">
        <ele>153</ele>
        <time>2021-09-27T15:08:47Z</time>
      </trkpt>
      <trkpt lat="47.44876" lon="3.48668">
        <ele>153</ele>
        <time>2021-09-27T15:08:46Z</time>
      </trkpt>
      <trkpt lat="47.44888" lon="3.48621">
        <ele>152</ele>
        <time>2021-09-27T15:08:43Z</time>
      </trkpt>
      <trkpt lat="47.44959" lon="3.48322">
        <ele>154</ele>
        <time>2021-09-27T15:08:29Z</time>
      </trkpt>
      <trkpt lat="47.45064" lon="3.47881">
        <ele>156</ele>
        <time>2021-09-27T15:08:12Z</time>
      </trkpt>
      <trkpt lat="47.45148" lon="3.47531">
        <ele>156</ele>
        <time>2021-09-27T15:07:59Z</time>
      </trkpt>
      <trkpt lat="47.45199" lon="3.47318">
        <ele>160</ele>
        <time>2021-09-27T15:07:50Z</time>
      </trkpt>
      <trkpt lat="47.45205" lon="3.47299">
        <ele>160</ele>
        <time>2021-09-27T15:07:49Z</time>
      </trkpt>
      <trkpt lat="47.45261" lon="3.47201">
        <ele>160</ele>
        <time>2021-09-27T15:07:42Z</time>
      </trkpt>
      <trkpt lat="47.45439" lon="3.46978">
        <ele>161</ele>
        <time>2021-09-27T15:07:23Z</time>
      </trkpt>
      <trkpt lat="47.4555" lon="3.46817">
        <ele>162</ele>
        <time>2021-09-27T15:07:09Z</time>
      </trkpt>
      <trkpt lat="47.45558" lon="3.46805">
        <ele>162</ele>
        <time>2021-09-27T15:07:08Z</time>
      </trkpt>
      <trkpt lat="47.45613" lon="3.46681">
        <ele>163</ele>
        <time>2021-09-27T15:06:59Z</time>
      </trkpt>
      <trkpt lat="47.45664" lon="3.46521">
        <ele>163</ele>
        <time>2021-09-27T15:06:51Z</time>
      </trkpt>
      <trkpt lat="47.45701" lon="3.46304">
        <ele>160</ele>
        <time>2021-09-27T15:06:41Z</time>
      </trkpt>
      <trkpt lat="47.45712" lon="3.46206">
        <ele>161</ele>
        <time>2021-09-27T15:06:34Z</time>
      </trkpt>
      <trkpt lat="47.45714" lon="3.46198">
        <ele>161</ele>
        <time>2021-09-27T15:06:33Z</time>
      </trkpt>
      <trkpt lat="47.45716" lon="3.46193">
        <ele>161</ele>
        <time>2021-09-27T15:06:32Z</time>
      </trkpt>
      <trkpt lat="47.45728" lon="3.46185">
        <ele>162</ele>
        <time>2021-09-27T15:06:27Z</time>
      </trkpt>
      <trkpt lat="47.45761" lon="3.46166">
        <ele>164</ele>
        <time>2021-09-27T15:06:21Z</time>
      </trkpt>
      <trkpt lat="47.45837" lon="3.46101">
        <ele>168</ele>
        <time>2021-09-27T15:06:14Z</time>
      </trkpt>
      <trkpt lat="47.46001" lon="3.4595">
        <ele>168</ele>
        <time>2021-09-27T15:06:04Z</time>
      </trkpt>
      <trkpt lat="47.46016" lon="3.45932">
        <ele>169</ele>
        <time>2021-09-27T15:06:03Z</time>
      </trkpt>
      <trkpt lat="47.46029" lon="3.45911">
        <ele>170</ele>
        <time>2021-09-27T15:06:02Z</time>
      </trkpt>
      <trkpt lat="47.46134" lon="3.45585">
        <ele>170</ele>
        <time>2021-09-27T15:05:50Z</time>
      </trkpt>
      <trkpt lat="47.46142" lon="3.45559">
        <ele>170</ele>
        <time>2021-09-27T15:05:49Z</time>
      </trkpt>
      <trkpt lat="47.4615" lon="3.45535">
        <ele>170</ele>
        <time>2021-09-27T15:05:48Z</time>
      </trkpt>
      <trkpt lat="47.4616" lon="3.45514">
        <ele>168</ele>
        <time>2021-09-27T15:05:47Z</time>
      </trkpt>
      <trkpt lat="47.46172" lon="3.45494">
        <ele>168</ele>
        <time>2021-09-27T15:05:46Z</time>
      </trkpt>
      <trkpt lat="47.46185" lon="3.45476">
        <ele>167</ele>
        <time>2021-09-27T15:05:45Z</time>
      </trkpt>
      <trkpt lat="47.462" lon="3.4546">
        <ele>167</ele>
        <time>2021-09-27T15:05:44Z</time>
      </trkpt>
      <trkpt lat="47.46578" lon="3.45158">
        <ele>165</ele>
        <time>2021-09-27T15:05:23Z</time>
      </trkpt>
      <trkpt lat="47.4674" lon="3.44971">
        <ele>166</ele>
        <time>2021-09-27T15:05:13Z</time>
      </trkpt>
      <trkpt lat="47.46889" lon="3.44758">
        <ele>167</ele>
        <time>2021-09-27T15:05:03Z</time>
      </trkpt>
      <trkpt lat="47.46982" lon="3.44624">
        <ele>169</ele>
        <time>2021-09-27T15:04:55Z</time>
      </trkpt>
      <trkpt lat="47.47131" lon="3.44385">
        <ele>170</ele>
        <time>2021-09-27T15:04:39Z</time>
      </trkpt>
      <trkpt lat="47.47219" lon="3.44242">
        <ele>174</ele>
        <time>2021-09-27T15:04:30Z</time>
      </trkpt>
      <trkpt lat="47.47385" lon="3.43971">
        <ele>170</ele>
        <time>2021-09-27T15:04:18Z</time>
      </trkpt>
      <trkpt lat="47.47558" lon="3.43691">
        <ele>176</ele>
        <time>2021-09-27T15:04:05Z</time>
      </trkpt>
      <trkpt lat="47.47681" lon="3.43493">
        <ele>178</ele>
        <time>2021-09-27T15:03:54Z</time>
      </trkpt>
      <trkpt lat="47.47691" lon="3.43474">
        <ele>178</ele>
        <time>2021-09-27T15:03:53Z</time>
      </trkpt>
      <trkpt lat="47.47699" lon="3.43454">
        <ele>179</ele>
        <time>2021-09-27T15:03:52Z</time>
      </trkpt>
      <trkpt lat="47.47727" lon="3.43325">
        <ele>175</ele>
        <time>2021-09-27T15:03:46Z</time>
      </trkpt>
      <trkpt lat="47.47781" lon="3.43045">
        <ele>173</ele>
        <time>2021-09-27T15:03:35Z</time>
      </trkpt>
      <trkpt lat="47.47787" lon="3.4302">
        <ele>173</ele>
        <time>2021-09-27T15:03:34Z</time>
      </trkpt>
      <trkpt lat="47.47794" lon="3.42996">
        <ele>173</ele>
        <time>2021-09-27T15:03:33Z</time>
      </trkpt>
      <trkpt lat="47.47889" lon="3.42812">
        <ele>175</ele>
        <time>2021-09-27T15:03:25Z</time>
      </trkpt>
      <trkpt lat="47.4801" lon="3.42594">
        <ele>175</ele>
        <time>2021-09-27T15:03:15Z</time>
      </trkpt>
      <trkpt lat="47.48019" lon="3.42573">
        <ele>175</ele>
        <time>2021-09-27T15:03:14Z</time>
      </trkpt>
      <trkpt lat="47.48026" lon="3.42551">
        <ele>175</ele>
        <time>2021-09-27T15:03:13Z</time>
      </trkpt>
      <trkpt lat="47.48055" lon="3.4233">
        <ele>178</ele>
        <time>2021-09-27T15:03:02Z</time>
      </trkpt>
      <trkpt lat="47.48091" lon="3.42034">
        <ele>178</ele>
        <time>2021-09-27T15:02:46Z</time>
      </trkpt>
      <trkpt lat="47.48093" lon="3.42017">
        <ele>178</ele>
        <time>2021-09-27T15:02:45Z</time>
      </trkpt>
      <trkpt lat="47.48094" lon="3.42001">
        <ele>177</ele>
        <time>2021-09-27T15:02:44Z</time>
      </trkpt>
      <trkpt lat="47.48095" lon="3.41985">
        <ele>177</ele>
        <time>2021-09-27T15:02:43Z</time>
      </trkpt>
      <trkpt lat="47.48094" lon="3.4197">
        <ele>177</ele>
        <time>2021-09-27T15:02:42Z</time>
      </trkpt>
      <trkpt lat="47.48068" lon="3.41868">
        <ele>178</ele>
        <time>2021-09-27T15:02:35Z</time>
      </trkpt>
      <trkpt lat="47.48037" lon="3.41695">
        <ele>180</ele>
        <time>2021-09-27T15:02:22Z</time>
      </trkpt>
    </trkseg>
  </trk>
  <trk>
    <name><![CDATA[Truc sous Oisy_2]]></name>
    <trkseg>
      <trkpt lat="47.48037" lon="3.41695">
        <ele>180</ele>
        <time>2021-09-27T15:02:22Z</time>
      </trkpt>
      <trkpt lat="47.48027" lon="3.4154">
        <ele>182</ele>
        <time>2021-09-27T15:02:10Z</time>
      </trkpt>
      <trkpt lat="47.48027" lon="3.41529">
        <ele>182</ele>
        <time>2021-09-27T15:02:09Z</time>
      </trkpt>
      <trkpt lat="47.48027" lon="3.41519">
        <ele>183</ele>
        <time>2021-09-27T15:02:08Z</time>
      </trkpt>
      <trkpt lat="47.48026" lon="3.4151">
        <ele>183</ele>
        <time>2021-09-27T15:02:07Z</time>
      </trkpt>
      <trkpt lat="47.48025" lon="3.41502">
        <ele>183</ele>
        <time>2021-09-27T15:02:06Z</time>
      </trkpt>
      <trkpt lat="47.48024" lon="3.41497">
        <ele>183</ele>
        <time>2021-09-27T15:02:05Z</time>
      </trkpt>
      <trkpt lat="47.48022" lon="3.41493">
        <ele>183</ele>
        <time>2021-09-27T15:02:04Z</time>
      </trkpt>
      <trkpt lat="47.48021" lon="3.41492">
        <ele>183</ele>
        <time>2021-09-27T15:02:03Z</time>
      </trkpt>
      <trkpt lat="47.48019" lon="3.41491">
        <ele>183</ele>
        <time>2021-09-27T15:02:01Z</time>
      </trkpt>
      <trkpt lat="47.48017" lon="3.4149">
        <ele>183</ele>
        <time>2021-09-27T15:02:00Z</time>
      </trkpt>
      <trkpt lat="47.48016" lon="3.41489">
        <ele>183</ele>
        <time>2021-09-27T15:01:59Z</time>
      </trkpt>
      <trkpt lat="47.48005" lon="3.4149">
        <ele>182</ele>
        <time>2021-09-27T15:01:51Z</time>
      </trkpt>
      <trkpt lat="47.47999" lon="3.4149">
        <ele>181</ele>
        <time>2021-09-27T15:01:48Z</time>
      </trkpt>
      <trkpt lat="47.47996" lon="3.41489">
        <ele>181</ele>
        <time>2021-09-27T15:01:46Z</time>
      </trkpt>
      <trkpt lat="47.47993" lon="3.41482">
        <ele>181</ele>
        <time>2021-09-27T15:00:34Z</time>
      </trkpt>
      <trkpt lat="47.47993" lon="3.41481">
        <ele>181</ele>
        <time>2021-09-27T14:59:49Z</time>
      </trkpt>
      <trkpt lat="47.47994" lon="3.41481">
        <ele>181</ele>
        <time>2021-09-27T14:59:17Z</time>
      </trkpt>
      <trkpt lat="47.47992" lon="3.41481">
        <ele>181</ele>
        <time>2021-09-27T14:58:40Z</time>
      </trkpt>
      <trkpt lat="47.47992" lon="3.41483">
        <ele>181</ele>
        <time>2021-09-27T14:58:02Z</time>
      </trkpt>
      <trkpt lat="47.47993" lon="3.41483">
        <ele>181</ele>
        <time>2021-09-27T14:57:42Z</time>
      </trkpt>
      <trkpt lat="47.47991" lon="3.41486">
        <ele>181</ele>
        <time>2021-09-27T14:57:29Z</time>
      </trkpt>
      <trkpt lat="47.47991" lon="3.41489">
        <ele>181</ele>
        <time>2021-09-27T14:57:26Z</time>
      </trkpt>
      <trkpt lat="47.47991" lon="3.4149">
        <ele>181</ele>
        <time>2021-09-27T14:57:09Z</time>
      </trkpt>
      <trkpt lat="47.47999" lon="3.41493">
        <ele>181</ele>
        <time>2021-09-27T14:56:50Z</time>
      </trkpt>
      <trkpt lat="47.48" lon="3.41493">
        <ele>181</ele>
        <time>2021-09-27T14:56:49Z</time>
      </trkpt>
      <trkpt lat="47.48001" lon="3.41493">
        <ele>182</ele>
        <time>2021-09-27T14:56:48Z</time>
      </trkpt>
      <trkpt lat="47.48002" lon="3.41493">
        <ele>182</ele>
        <time>2021-09-27T14:56:47Z</time>
      </trkpt>
      <trkpt lat="47.48003" lon="3.41492">
        <ele>182</ele>
        <time>2021-09-27T14:56:46Z</time>
      </trkpt>
      <trkpt lat="47.48004" lon="3.41491">
        <ele>182</ele>
        <time>2021-09-27T14:56:45Z</time>
      </trkpt>
      <trkpt lat="47.48018" lon="3.41492">
        <ele>183</ele>
        <time>2021-09-27T14:56:31Z</time>
      </trkpt>
      <trkpt lat="47.48019" lon="3.41491">
        <ele>183</ele>
        <time>2021-09-27T14:56:30Z</time>
      </trkpt>
      <trkpt lat="47.4802" lon="3.4149">
        <ele>183</ele>
        <time>2021-09-27T14:56:29Z</time>
      </trkpt>
      <trkpt lat="47.4802" lon="3.41467">
        <ele>183</ele>
        <time>2021-09-27T14:56:18Z</time>
      </trkpt>
      <trkpt lat="47.48021" lon="3.41465">
        <ele>183</ele>
        <time>2021-09-27T14:56:17Z</time>
      </trkpt>
      <trkpt lat="47.48021" lon="3.41463">
        <ele>183</ele>
        <time>2021-09-27T14:56:16Z</time>
      </trkpt>
      <trkpt lat="47.4802" lon="3.41446">
        <ele>184</ele>
        <time>2021-09-27T14:56:08Z</time>
      </trkpt>
      <trkpt lat="47.48016" lon="3.4141">
        <ele>184</ele>
        <time>2021-09-27T14:55:50Z</time>
      </trkpt>
      <trkpt lat="47.48013" lon="3.41364">
        <ele>185</ele>
        <time>2021-09-27T14:55:28Z</time>
      </trkpt>
      <trkpt lat="47.48013" lon="3.41362">
        <ele>185</ele>
        <time>2021-09-27T14:55:27Z</time>
      </trkpt>
      <trkpt lat="47.48013" lon="3.4136">
        <ele>186</ele>
        <time>2021-09-27T14:55:26Z</time>
      </trkpt>
      <trkpt lat="47.48013" lon="3.41358">
        <ele>186</ele>
        <time>2021-09-27T14:55:25Z</time>
      </trkpt>
      <trkpt lat="47.48012" lon="3.41356">
        <ele>186</ele>
        <time>2021-09-27T14:55:24Z</time>
      </trkpt>
      <trkpt lat="47.48012" lon="3.41354">
        <ele>186</ele>
        <time>2021-09-27T14:55:23Z</time>
      </trkpt>
      <trkpt lat="47.48011" lon="3.41352">
        <ele>186</ele>
        <time>2021-09-27T14:55:22Z</time>
      </trkpt>
      <trkpt lat="47.48011" lon="3.4135">
        <ele>186</ele>
        <time>2021-09-27T14:55:21Z</time>
      </trkpt>
      <trkpt lat="47.4801" lon="3.41348">
        <ele>186</ele>
        <time>2021-09-27T14:55:20Z</time>
      </trkpt>
      <trkpt lat="47.48009" lon="3.41347">
        <ele>186</ele>
        <time>2021-09-27T14:55:19Z</time>
      </trkpt>
      <trkpt lat="47.48008" lon="3.41346">
        <ele>186</ele>
        <time>2021-09-27T14:55:18Z</time>
      </trkpt>
      <trkpt lat="47.48" lon="3.41311">
        <ele>185</ele>
        <time>2021-09-27T14:54:59Z</time>
      </trkpt>
      <trkpt lat="47.47979" lon="3.4128">
        <ele>185</ele>
        <time>2021-09-27T14:54:37Z</time>
      </trkpt>
      <trkpt lat="47.47976" lon="3.41271">
        <ele>185</ele>
        <time>2021-09-27T14:54:32Z</time>
      </trkpt>
      <trkpt lat="47.47965" lon="3.41239">
        <ele>184</ele>
        <time>2021-09-27T14:54:14Z</time>
      </trkpt>
      <trkpt lat="47.47965" lon="3.41236">
        <ele>184</ele>
        <time>2021-09-27T14:54:12Z</time>
      </trkpt>
      <trkpt lat="47.47965" lon="3.41234">
        <ele>185</ele>
        <time>2021-09-27T14:54:11Z</time>
      </trkpt>
      <trkpt lat="47.47959" lon="3.4122">
        <ele>185</ele>
        <time>2021-09-27T14:54:03Z</time>
      </trkpt>
      <trkpt lat="47.47949" lon="3.41188">
        <ele>184</ele>
        <time>2021-09-27T14:53:46Z</time>
      </trkpt>
      <trkpt lat="47.47942" lon="3.4114">
        <ele>184</ele>
        <time>2021-09-27T14:53:22Z</time>
      </trkpt>
      <trkpt lat="47.47936" lon="3.41099">
        <ele>185</ele>
        <time>2021-09-27T14:53:02Z</time>
      </trkpt>
      <trkpt lat="47.47936" lon="3.41097">
        <ele>185</ele>
        <time>2021-09-27T14:53:01Z</time>
      </trkpt>
      <trkpt lat="47.47935" lon="3.41095">
        <ele>185</ele>
        <time>2021-09-27T14:53:00Z</time>
      </trkpt>
      <trkpt lat="47.47935" lon="3.41093">
        <ele>185</ele>
        <time>2021-09-27T14:52:59Z</time>
      </trkpt>
      <trkpt lat="47.47934" lon="3.41091">
        <ele>185</ele>
        <time>2021-09-27T14:52:58Z</time>
      </trkpt>
      <trkpt lat="47.47933" lon="3.41089">
        <ele>185</ele>
        <time>2021-09-27T14:52:57Z</time>
      </trkpt>
      <trkpt lat="47.47933" lon="3.41087">
        <ele>185</ele>
        <time>2021-09-27T14:52:56Z</time>
      </trkpt>
      <trkpt lat="47.47932" lon="3.41085">
        <ele>185</ele>
        <time>2021-09-27T14:52:55Z</time>
      </trkpt>
      <trkpt lat="47.47932" lon="3.41084">
        <ele>185</ele>
        <time>2021-09-27T14:52:54Z</time>
      </trkpt>
      <trkpt lat="47.47932" lon="3.41082">
        <ele>185</ele>
        <time>2021-09-27T14:52:53Z</time>
      </trkpt>
      <trkpt lat="47.47933" lon="3.41076">
        <ele>185</ele>
        <time>2021-09-27T14:52:50Z</time>
      </trkpt>
      <trkpt lat="47.47933" lon="3.41073">
        <ele>185</ele>
        <time>2021-09-27T14:52:48Z</time>
      </trkpt>
      <trkpt lat="47.47932" lon="3.41065">
        <ele>185</ele>
        <time>2021-09-27T14:52:43Z</time>
      </trkpt>
      <trkpt lat="47.47925" lon="3.41038">
        <ele>186</ele>
        <time>2021-09-27T14:52:27Z</time>
      </trkpt>
      <trkpt lat="47.47925" lon="3.41035">
        <ele>186</ele>
        <time>2021-09-27T14:52:25Z</time>
      </trkpt>
      <trkpt lat="47.47922" lon="3.41028">
        <ele>186</ele>
        <time>2021-09-27T14:52:20Z</time>
      </trkpt>
      <trkpt lat="47.47921" lon="3.41026">
        <ele>186</ele>
        <time>2021-09-27T14:52:19Z</time>
      </trkpt>
      <trkpt lat="47.4792" lon="3.41025">
        <ele>186</ele>
        <time>2021-09-27T14:52:18Z</time>
      </trkpt>
      <trkpt lat="47.47909" lon="3.4101">
        <ele>185</ele>
        <time>2021-09-27T14:52:03Z</time>
      </trkpt>
      <trkpt lat="47.47889" lon="3.40983">
        <ele>185</ele>
        <time>2021-09-27T14:51:40Z</time>
      </trkpt>
      <trkpt lat="47.47872" lon="3.40953">
        <ele>184</ele>
        <time>2021-09-27T14:51:17Z</time>
      </trkpt>
      <trkpt lat="47.47855" lon="3.40913">
        <ele>183</ele>
        <time>2021-09-27T14:50:52Z</time>
      </trkpt>
      <trkpt lat="47.47845" lon="3.40883">
        <ele>183</ele>
        <time>2021-09-27T14:50:34Z</time>
      </trkpt>
      <trkpt lat="47.47835" lon="3.40853">
        <ele>184</ele>
        <time>2021-09-27T14:50:15Z</time>
      </trkpt>
      <trkpt lat="47.47823" lon="3.40826">
        <ele>185</ele>
        <time>2021-09-27T14:49:57Z</time>
      </trkpt>
      <trkpt lat="47.47812" lon="3.40796">
        <ele>185</ele>
        <time>2021-09-27T14:49:36Z</time>
      </trkpt>
      <trkpt lat="47.47804" lon="3.40776">
        <ele>185</ele>
        <time>2021-09-27T14:49:17Z</time>
      </trkpt>
      <trkpt lat="47.47802" lon="3.40771">
        <ele>185</ele>
        <time>2021-09-27T14:49:00Z</time>
      </trkpt>
      <trkpt lat="47.47795" lon="3.40761">
        <ele>185</ele>
        <time>2021-09-27T14:48:46Z</time>
      </trkpt>
      <trkpt lat="47.47781" lon="3.4075">
        <ele>185</ele>
        <time>2021-09-27T14:48:34Z</time>
      </trkpt>
      <trkpt lat="47.47762" lon="3.40727">
        <ele>186</ele>
        <time>2021-09-27T14:48:15Z</time>
      </trkpt>
      <trkpt lat="47.47742" lon="3.40704">
        <ele>186</ele>
        <time>2021-09-27T14:47:57Z</time>
      </trkpt>
      <trkpt lat="47.47724" lon="3.40678">
        <ele>186</ele>
        <time>2021-09-27T14:47:39Z</time>
      </trkpt>
      <trkpt lat="47.4771" lon="3.40663">
        <ele>186</ele>
        <time>2021-09-27T14:47:21Z</time>
      </trkpt>
      <trkpt lat="47.47697" lon="3.40642">
        <ele>186</ele>
        <time>2021-09-27T14:47:02Z</time>
      </trkpt>
      <trkpt lat="47.47681" lon="3.40631">
        <ele>186</ele>
        <time>2021-09-27T14:46:47Z</time>
      </trkpt>
      <trkpt lat="47.47663" lon="3.40616">
        <ele>185</ele>
        <time>2021-09-27T14:46:29Z</time>
      </trkpt>
      <trkpt lat="47.47643" lon="3.40603">
        <ele>185</ele>
        <time>2021-09-27T14:46:12Z</time>
      </trkpt>
      <trkpt lat="47.47628" lon="3.40588">
        <ele>185</ele>
        <time>2021-09-27T14:45:57Z</time>
      </trkpt>
      <trkpt lat="47.47619" lon="3.40576">
        <ele>185</ele>
        <time>2021-09-27T14:45:46Z</time>
      </trkpt>
      <trkpt lat="47.47605" lon="3.40557">
        <ele>185</ele>
        <time>2021-09-27T14:45:27Z</time>
      </trkpt>
      <trkpt lat="47.47592" lon="3.40543">
        <ele>185</ele>
        <time>2021-09-27T14:45:12Z</time>
      </trkpt>
      <trkpt lat="47.47577" lon="3.40528">
        <ele>185</ele>
        <time>2021-09-27T14:44:55Z</time>
      </trkpt>
      <trkpt lat="47.4756" lon="3.40505">
        <ele>185</ele>
        <time>2021-09-27T14:44:35Z</time>
      </trkpt>
      <trkpt lat="47.47542" lon="3.40482">
        <ele>185</ele>
        <time>2021-09-27T14:44:16Z</time>
      </trkpt>
      <trkpt lat="47.47523" lon="3.40447">
        <ele>186</ele>
        <time>2021-09-27T14:43:51Z</time>
      </trkpt>
      <trkpt lat="47.47504" lon="3.40415">
        <ele>186</ele>
        <time>2021-09-27T14:43:28Z</time>
      </trkpt>
      <trkpt lat="47.47491" lon="3.40391">
        <ele>186</ele>
        <time>2021-09-27T14:43:09Z</time>
      </trkpt>
      <trkpt lat="47.47487" lon="3.40386">
        <ele>186</ele>
        <time>2021-09-27T14:43:05Z</time>
      </trkpt>
      <trkpt lat="47.47486" lon="3.40385">
        <ele>186</ele>
        <time>2021-09-27T14:43:04Z</time>
      </trkpt>
      <trkpt lat="47.47476" lon="3.40357">
        <ele>186</ele>
        <time>2021-09-27T14:42:45Z</time>
      </trkpt>
      <trkpt lat="47.47471" lon="3.40349">
        <ele>186</ele>
        <time>2021-09-27T14:42:39Z</time>
      </trkpt>
      <trkpt lat="47.4746" lon="3.40331">
        <ele>186</ele>
        <time>2021-09-27T14:42:26Z</time>
      </trkpt>
      <trkpt lat="47.47445" lon="3.40303">
        <ele>186</ele>
        <time>2021-09-27T14:42:09Z</time>
      </trkpt>
      <trkpt lat="47.4744" lon="3.40296">
        <ele>186</ele>
        <time>2021-09-27T14:42:05Z</time>
      </trkpt>
      <trkpt lat="47.47435" lon="3.40292">
        <ele>186</ele>
        <time>2021-09-27T14:42:01Z</time>
      </trkpt>
      <trkpt lat="47.47422" lon="3.40278">
        <ele>186</ele>
        <time>2021-09-27T14:41:44Z</time>
      </trkpt>
      <trkpt lat="47.47411" lon="3.4027">
        <ele>187</ele>
        <time>2021-09-27T14:41:37Z</time>
      </trkpt>
      <trkpt lat="47.47397" lon="3.40252">
        <ele>187</ele>
        <time>2021-09-27T14:41:14Z</time>
      </trkpt>
      <trkpt lat="47.47387" lon="3.40243">
        <ele>188</ele>
        <time>2021-09-27T14:41:00Z</time>
      </trkpt>
      <trkpt lat="47.47371" lon="3.40235">
        <ele>189</ele>
        <time>2021-09-27T14:40:41Z</time>
      </trkpt>
      <trkpt lat="47.47358" lon="3.40237">
        <ele>189</ele>
        <time>2021-09-27T14:40:24Z</time>
      </trkpt>
      <trkpt lat="47.47346" lon="3.40217">
        <ele>190</ele>
        <time>2021-09-27T14:40:07Z</time>
      </trkpt>
      <trkpt lat="47.47346" lon="3.40215">
        <ele>190</ele>
        <time>2021-09-27T14:40:06Z</time>
      </trkpt>
      <trkpt lat="47.47345" lon="3.40208">
        <ele>190</ele>
        <time>2021-09-27T14:40:01Z</time>
      </trkpt>
      <trkpt lat="47.47345" lon="3.40205">
        <ele>190</ele>
        <time>2021-09-27T14:39:59Z</time>
      </trkpt>
      <trkpt lat="47.47344" lon="3.40198">
        <ele>190</ele>
        <time>2021-09-27T14:39:45Z</time>
      </trkpt>
      <trkpt lat="47.47339" lon="3.40214">
        <ele>190</ele>
        <time>2021-09-27T14:39:29Z</time>
      </trkpt>
      <trkpt lat="47.47338" lon="3.40221">
        <ele>190</ele>
        <time>2021-09-27T14:38:54Z</time>
      </trkpt>
      <trkpt lat="47.47341" lon="3.4022">
        <ele>190</ele>
        <time>2021-09-27T14:38:36Z</time>
      </trkpt>
      <trkpt lat="47.4734" lon="3.40219">
        <ele>190</ele>
        <time>2021-09-27T14:38:11Z</time>
      </trkpt>
      <trkpt lat="47.47339" lon="3.40219">
        <ele>190</ele>
        <time>2021-09-27T14:37:39Z</time>
      </trkpt>
      <trkpt lat="47.4734" lon="3.40218">
        <ele>190</ele>
        <time>2021-09-27T14:37:05Z</time>
      </trkpt>
      <trkpt lat="47.47339" lon="3.40217">
        <ele>190</ele>
        <time>2021-09-27T14:36:40Z</time>
      </trkpt>
      <trkpt lat="47.47337" lon="3.40214">
        <ele>190</ele>
        <time>2021-09-27T14:36:18Z</time>
      </trkpt>
      <trkpt lat="47.47337" lon="3.40216">
        <ele>190</ele>
        <time>2021-09-27T14:36:01Z</time>
      </trkpt>
      <trkpt lat="47.47335" lon="3.40219">
        <ele>190</ele>
        <time>2021-09-27T14:35:43Z</time>
      </trkpt>
      <trkpt lat="47.47325" lon="3.4022">
        <ele>190</ele>
        <time>2021-09-27T14:35:26Z</time>
      </trkpt>
      <trkpt lat="47.47304" lon="3.40228">
        <ele>189</ele>
        <time>2021-09-27T14:35:08Z</time>
      </trkpt>
      <trkpt lat="47.47284" lon="3.40231">
        <ele>190</ele>
        <time>2021-09-27T14:34:51Z</time>
      </trkpt>
      <trkpt lat="47.4728" lon="3.40231">
        <ele>190</ele>
        <time>2021-09-27T14:34:48Z</time>
      </trkpt>
      <trkpt lat="47.47279" lon="3.40231">
        <ele>191</ele>
        <time>2021-09-27T14:34:47Z</time>
      </trkpt>
      <trkpt lat="47.47263" lon="3.40233">
        <ele>192</ele>
        <time>2021-09-27T14:34:30Z</time>
      </trkpt>
      <trkpt lat="47.47249" lon="3.40236">
        <ele>193</ele>
        <time>2021-09-27T14:34:12Z</time>
      </trkpt>
      <trkpt lat="47.47245" lon="3.40237">
        <ele>193</ele>
        <time>2021-09-27T14:34:06Z</time>
      </trkpt>
      <trkpt lat="47.4724" lon="3.40244">
        <ele>192</ele>
        <time>2021-09-27T14:33:50Z</time>
      </trkpt>
      <trkpt lat="47.47236" lon="3.40251">
        <ele>192</ele>
        <time>2021-09-27T14:33:38Z</time>
      </trkpt>
      <trkpt lat="47.47233" lon="3.40256">
        <ele>192</ele>
        <time>2021-09-27T14:33:34Z</time>
      </trkpt>
      <trkpt lat="47.47226" lon="3.40271">
        <ele>190</ele>
        <time>2021-09-27T14:33:20Z</time>
      </trkpt>
      <trkpt lat="47.47225" lon="3.40272">
        <ele>190</ele>
        <time>2021-09-27T14:33:19Z</time>
      </trkpt>
      <trkpt lat="47.47221" lon="3.40273">
        <ele>190</ele>
        <time>2021-09-27T14:33:01Z</time>
      </trkpt>
      <trkpt lat="47.47222" lon="3.40271">
        <ele>190</ele>
        <time>2021-09-27T14:32:35Z</time>
      </trkpt>
      <trkpt lat="47.47222" lon="3.40271">
        <ele>190</ele>
        <time>2021-09-27T14:32:19Z</time>
      </trkpt>
      <trkpt lat="47.4722" lon="3.40273">
        <ele>190</ele>
        <time>2021-09-27T14:31:45Z</time>
      </trkpt>
      <trkpt lat="47.47219" lon="3.40273">
        <ele>190</ele>
        <time>2021-09-27T14:31:24Z</time>
      </trkpt>
      <trkpt lat="47.47218" lon="3.40273">
        <ele>190</ele>
        <time>2021-09-27T14:31:22Z</time>
      </trkpt>
      <trkpt lat="47.47218" lon="3.40274">
        <ele>190</ele>
        <time>2021-09-27T14:31:04Z</time>
      </trkpt>
      <trkpt lat="47.47215" lon="3.40272">
        <ele>191</ele>
        <time>2021-09-27T14:30:41Z</time>
      </trkpt>
      <trkpt lat="47.47209" lon="3.40271">
        <ele>191</ele>
        <time>2021-09-27T14:30:21Z</time>
      </trkpt>
      <trkpt lat="47.47193" lon="3.40274">
        <ele>193</ele>
        <time>2021-09-27T14:30:02Z</time>
      </trkpt>
      <trkpt lat="47.47175" lon="3.4027">
        <ele>197</ele>
        <time>2021-09-27T14:29:46Z</time>
      </trkpt>
      <trkpt lat="47.47156" lon="3.40261">
        <ele>200</ele>
        <time>2021-09-27T14:29:29Z</time>
      </trkpt>
      <trkpt lat="47.47137" lon="3.40248">
        <ele>203</ele>
        <time>2021-09-27T14:29:13Z</time>
      </trkpt>
      <trkpt lat="47.47114" lon="3.40235">
        <ele>202</ele>
        <time>2021-09-27T14:28:55Z</time>
      </trkpt>
      <trkpt lat="47.47088" lon="3.40221">
        <ele>203</ele>
        <time>2021-09-27T14:28:34Z</time>
      </trkpt>
      <trkpt lat="47.4707" lon="3.40211">
        <ele>204</ele>
        <time>2021-09-27T14:28:20Z</time>
      </trkpt>
      <trkpt lat="47.47045" lon="3.40198">
        <ele>205</ele>
        <time>2021-09-27T14:28:00Z</time>
      </trkpt>
      <trkpt lat="47.47023" lon="3.40188">
        <ele>206</ele>
        <time>2021-09-27T14:27:43Z</time>
      </trkpt>
      <trkpt lat="47.47001" lon="3.40175">
        <ele>207</ele>
        <time>2021-09-27T14:27:25Z</time>
      </trkpt>
      <trkpt lat="47.46977" lon="3.4016">
        <ele>209</ele>
        <time>2021-09-27T14:27:04Z</time>
      </trkpt>
      <trkpt lat="47.46959" lon="3.40151">
        <ele>210</ele>
        <time>2021-09-27T14:26:48Z</time>
      </trkpt>
      <trkpt lat="47.46935" lon="3.40143">
        <ele>210</ele>
        <time>2021-09-27T14:26:31Z</time>
      </trkpt>
      <trkpt lat="47.46933" lon="3.40143">
        <ele>210</ele>
        <time>2021-09-27T14:26:30Z</time>
      </trkpt>
      <trkpt lat="47.46915" lon="3.40137">
        <ele>211</ele>
        <time>2021-09-27T14:26:16Z</time>
      </trkpt>
      <trkpt lat="47.46901" lon="3.4013">
        <ele>212</ele>
        <time>2021-09-27T14:26:03Z</time>
      </trkpt>
      <trkpt lat="47.46881" lon="3.40118">
        <ele>214</ele>
        <time>2021-09-27T14:25:48Z</time>
      </trkpt>
      <trkpt lat="47.46863" lon="3.40105">
        <ele>216</ele>
        <time>2021-09-27T14:25:32Z</time>
      </trkpt>
      <trkpt lat="47.46847" lon="3.40092">
        <ele>217</ele>
        <time>2021-09-27T14:25:16Z</time>
      </trkpt>
      <trkpt lat="47.46823" lon="3.40067">
        <ele>220</ele>
        <time>2021-09-27T14:24:54Z</time>
      </trkpt>
      <trkpt lat="47.46805" lon="3.40035">
        <ele>222</ele>
        <time>2021-09-27T14:24:33Z</time>
      </trkpt>
      <trkpt lat="47.46795" lon="3.39999">
        <ele>224</ele>
        <time>2021-09-27T14:24:13Z</time>
      </trkpt>
      <trkpt lat="47.46789" lon="3.39968">
        <ele>225</ele>
        <time>2021-09-27T14:23:56Z</time>
      </trkpt>
      <trkpt lat="47.46781" lon="3.39933">
        <ele>227</ele>
        <time>2021-09-27T14:23:38Z</time>
      </trkpt>
      <trkpt lat="47.46767" lon="3.39904">
        <ele>228</ele>
        <time>2021-09-27T14:23:21Z</time>
      </trkpt>
      <trkpt lat="47.46766" lon="3.39903">
        <ele>228</ele>
        <time>2021-09-27T14:23:20Z</time>
      </trkpt>
      <trkpt lat="47.46766" lon="3.39901">
        <ele>229</ele>
        <time>2021-09-27T14:23:19Z</time>
      </trkpt>
      <trkpt lat="47.46765" lon="3.39899">
        <ele>229</ele>
        <time>2021-09-27T14:23:18Z</time>
      </trkpt>
      <trkpt lat="47.46764" lon="3.39898">
        <ele>229</ele>
        <time>2021-09-27T14:23:17Z</time>
      </trkpt>
      <trkpt lat="47.46763" lon="3.39896">
        <ele>229</ele>
        <time>2021-09-27T14:23:16Z</time>
      </trkpt>
      <trkpt lat="47.46763" lon="3.39895">
        <ele>229</ele>
        <time>2021-09-27T14:23:15Z</time>
      </trkpt>
      <trkpt lat="47.46762" lon="3.39893">
        <ele>229</ele>
        <time>2021-09-27T14:23:14Z</time>
      </trkpt>
      <trkpt lat="47.46761" lon="3.39891">
        <ele>229</ele>
        <time>2021-09-27T14:23:13Z</time>
      </trkpt>
      <trkpt lat="47.46761" lon="3.39889">
        <ele>229</ele>
        <time>2021-09-27T14:23:12Z</time>
      </trkpt>
      <trkpt lat="47.46739" lon="3.39864">
        <ele>230</ele>
        <time>2021-09-27T14:22:52Z</time>
      </trkpt>
      <trkpt lat="47.46712" lon="3.39842">
        <ele>232</ele>
        <time>2021-09-27T14:22:29Z</time>
      </trkpt>
      <trkpt lat="47.46688" lon="3.39827">
        <ele>233</ele>
        <time>2021-09-27T14:22:12Z</time>
      </trkpt>
      <trkpt lat="47.46666" lon="3.39813">
        <ele>233</ele>
        <time>2021-09-27T14:21:55Z</time>
      </trkpt>
      <trkpt lat="47.46644" lon="3.39802">
        <ele>234</ele>
        <time>2021-09-27T14:21:37Z</time>
      </trkpt>
      <trkpt lat="47.46615" lon="3.39792">
        <ele>233</ele>
        <time>2021-09-27T14:21:17Z</time>
      </trkpt>
      <trkpt lat="47.46588" lon="3.39783">
        <ele>233</ele>
        <time>2021-09-27T14:20:58Z</time>
      </trkpt>
      <trkpt lat="47.46566" lon="3.39779">
        <ele>233</ele>
        <time>2021-09-27T14:20:42Z</time>
      </trkpt>
      <trkpt lat="47.46543" lon="3.39775">
        <ele>234</ele>
        <time>2021-09-27T14:20:25Z</time>
      </trkpt>
      <trkpt lat="47.46518" lon="3.39775">
        <ele>233</ele>
        <time>2021-09-27T14:20:06Z</time>
      </trkpt>
      <trkpt lat="47.46508" lon="3.39778">
        <ele>232</ele>
        <time>2021-09-27T14:19:54Z</time>
      </trkpt>
      <trkpt lat="47.465" lon="3.39777">
        <ele>231</ele>
        <time>2021-09-27T14:19:47Z</time>
      </trkpt>
      <trkpt lat="47.46468" lon="3.39785">
        <ele>229</ele>
        <time>2021-09-27T14:19:25Z</time>
      </trkpt>
      <trkpt lat="47.46434" lon="3.39796">
        <ele>228</ele>
        <time>2021-09-27T14:18:59Z</time>
      </trkpt>
      <trkpt lat="47.46397" lon="3.39806">
        <ele>227</ele>
        <time>2021-09-27T14:18:32Z</time>
      </trkpt>
      <trkpt lat="47.46361" lon="3.39816">
        <ele>227</ele>
        <time>2021-09-27T14:18:06Z</time>
      </trkpt>
      <trkpt lat="47.46335" lon="3.39822">
        <ele>227</ele>
        <time>2021-09-27T14:17:48Z</time>
      </trkpt>
      <trkpt lat="47.46298" lon="3.39837">
        <ele>227</ele>
        <time>2021-09-27T14:17:21Z</time>
      </trkpt>
      <trkpt lat="47.46257" lon="3.39849">
        <ele>229</ele>
        <time>2021-09-27T14:16:53Z</time>
      </trkpt>
      <trkpt lat="47.46214" lon="3.3986">
        <ele>230</ele>
        <time>2021-09-27T14:16:23Z</time>
      </trkpt>
      <trkpt lat="47.46171" lon="3.39873">
        <ele>232</ele>
        <time>2021-09-27T14:15:53Z</time>
      </trkpt>
      <trkpt lat="47.46146" lon="3.39881">
        <ele>233</ele>
        <time>2021-09-27T14:15:35Z</time>
      </trkpt>
      <trkpt lat="47.4611" lon="3.39892">
        <ele>235</ele>
        <time>2021-09-27T14:15:10Z</time>
      </trkpt>
      <trkpt lat="47.46095" lon="3.39856">
        <ele>235</ele>
        <time>2021-09-27T14:14:46Z</time>
      </trkpt>
      <trkpt lat="47.4609" lon="3.39822">
        <ele>235</ele>
        <time>2021-09-27T14:14:28Z</time>
      </trkpt>
      <trkpt lat="47.46089" lon="3.39821">
        <ele>235</ele>
        <time>2021-09-27T14:14:21Z</time>
      </trkpt>
      <trkpt lat="47.46089" lon="3.39815">
        <ele>235</ele>
        <time>2021-09-27T14:14:09Z</time>
      </trkpt>
      <trkpt lat="47.46087" lon="3.39798">
        <ele>235</ele>
        <time>2021-09-27T14:13:53Z</time>
      </trkpt>
      <trkpt lat="47.46085" lon="3.39776">
        <ele>235</ele>
        <time>2021-09-27T14:13:35Z</time>
      </trkpt>
      <trkpt lat="47.46083" lon="3.39758">
        <ele>236</ele>
        <time>2021-09-27T14:13:18Z</time>
      </trkpt>
      <trkpt lat="47.46075" lon="3.39732">
        <ele>235</ele>
        <time>2021-09-27T14:12:59Z</time>
      </trkpt>
      <trkpt lat="47.46044" lon="3.39701">
        <ele>234</ele>
        <time>2021-09-27T14:12:32Z</time>
      </trkpt>
      <trkpt lat="47.46011" lon="3.39674">
        <ele>233</ele>
        <time>2021-09-27T14:12:06Z</time>
      </trkpt>
      <trkpt lat="47.4597" lon="3.39641">
        <ele>234</ele>
        <time>2021-09-27T14:11:34Z</time>
      </trkpt>
      <trkpt lat="47.45936" lon="3.39613">
        <ele>235</ele>
        <time>2021-09-27T14:11:07Z</time>
      </trkpt>
      <trkpt lat="47.459" lon="3.39585">
        <ele>236</ele>
        <time>2021-09-27T14:10:38Z</time>
      </trkpt>
      <trkpt lat="47.45869" lon="3.3956">
        <ele>237</ele>
        <time>2021-09-27T14:10:14Z</time>
      </trkpt>
      <trkpt lat="47.45867" lon="3.39559">
        <ele>237</ele>
        <time>2021-09-27T14:10:13Z</time>
      </trkpt>
      <trkpt lat="47.4584" lon="3.39533">
        <ele>241</ele>
        <time>2021-09-27T14:09:50Z</time>
      </trkpt>
      <trkpt lat="47.45839" lon="3.39532">
        <ele>241</ele>
        <time>2021-09-27T14:09:49Z</time>
      </trkpt>
      <trkpt lat="47.45838" lon="3.39531">
        <ele>241</ele>
        <time>2021-09-27T14:09:48Z</time>
      </trkpt>
      <trkpt lat="47.45837" lon="3.3953">
        <ele>241</ele>
        <time>2021-09-27T14:09:47Z</time>
      </trkpt>
      <trkpt lat="47.45836" lon="3.39529">
        <ele>241</ele>
        <time>2021-09-27T14:09:46Z</time>
      </trkpt>
      <trkpt lat="47.45833" lon="3.39526">
        <ele>241</ele>
        <time>2021-09-27T14:09:40Z</time>
      </trkpt>
      <trkpt lat="47.45833" lon="3.39526">
        <ele>241</ele>
        <time>2021-09-27T14:09:17Z</time>
      </trkpt>
      <trkpt lat="47.45833" lon="3.39527">
        <ele>241</ele>
        <time>2021-09-27T14:08:55Z</time>
      </trkpt>
      <trkpt lat="47.45833" lon="3.39525">
        <ele>241</ele>
        <time>2021-09-27T14:08:32Z</time>
      </trkpt>
      <trkpt lat="47.45833" lon="3.39525">
        <ele>241</ele>
        <time>2021-09-27T14:07:56Z</time>
      </trkpt>
      <trkpt lat="47.45833" lon="3.39524">
        <ele>241</ele>
        <time>2021-09-27T14:07:42Z</time>
      </trkpt>
      <trkpt lat="47.45833" lon="3.39524">
        <ele>241</ele>
        <time>2021-09-27T14:07:25Z</time>
      </trkpt>
      <trkpt lat="47.45833" lon="3.39523">
        <ele>241</ele>
        <time>2021-09-27T14:07:06Z</time>
      </trkpt>
      <trkpt lat="47.45834" lon="3.39523">
        <ele>241</ele>
        <time>2021-09-27T14:06:46Z</time>
      </trkpt>
      <trkpt lat="47.45834" lon="3.39522">
        <ele>241</ele>
        <time>2021-09-27T14:06:30Z</time>
      </trkpt>
      <trkpt lat="47.45833" lon="3.39521">
        <ele>241</ele>
        <time>2021-09-27T14:06:14Z</time>
      </trkpt>
      <trkpt lat="47.45831" lon="3.3952">
        <ele>241</ele>
        <time>2021-09-27T14:05:58Z</time>
      </trkpt>
      <trkpt lat="47.45829" lon="3.39519">
        <ele>241</ele>
        <time>2021-09-27T14:05:42Z</time>
      </trkpt>
      <trkpt lat="47.4583" lon="3.3952">
        <ele>241</ele>
        <time>2021-09-27T14:05:16Z</time>
      </trkpt>
      <trkpt lat="47.45831" lon="3.39521">
        <ele>241</ele>
        <time>2021-09-27T14:04:55Z</time>
      </trkpt>
      <trkpt lat="47.4583" lon="3.39519">
        <ele>241</ele>
        <time>2021-09-27T14:04:41Z</time>
      </trkpt>
      <trkpt lat="47.45822" lon="3.39514">
        <ele>241</ele>
        <time>2021-09-27T14:04:24Z</time>
      </trkpt>
      <trkpt lat="47.4582" lon="3.39509">
        <ele>240</ele>
        <time>2021-09-27T14:04:06Z</time>
      </trkpt>
      <trkpt lat="47.45819" lon="3.39505">
        <ele>240</ele>
        <time>2021-09-27T14:03:53Z</time>
      </trkpt>
      <trkpt lat="47.45819" lon="3.39501">
        <ele>240</ele>
        <time>2021-09-27T14:03:50Z</time>
      </trkpt>
      <trkpt lat="47.45827" lon="3.39482">
        <ele>238</ele>
        <time>2021-09-27T14:03:36Z</time>
      </trkpt>
      <trkpt lat="47.45828" lon="3.39481">
        <ele>237</ele>
        <time>2021-09-27T14:03:35Z</time>
      </trkpt>
      <trkpt lat="47.45829" lon="3.3948">
        <ele>237</ele>
        <time>2021-09-27T14:03:34Z</time>
      </trkpt>
      <trkpt lat="47.4583" lon="3.39478">
        <ele>237</ele>
        <time>2021-09-27T14:03:33Z</time>
      </trkpt>
      <trkpt lat="47.4583" lon="3.39477">
        <ele>237</ele>
        <time>2021-09-27T14:03:32Z</time>
      </trkpt>
      <trkpt lat="47.45831" lon="3.39476">
        <ele>237</ele>
        <time>2021-09-27T14:03:31Z</time>
      </trkpt>
      <trkpt lat="47.45832" lon="3.39473">
        <ele>237</ele>
        <time>2021-09-27T14:03:29Z</time>
      </trkpt>
      <trkpt lat="47.45833" lon="3.39472">
        <ele>237</ele>
        <time>2021-09-27T14:03:28Z</time>
      </trkpt>
      <trkpt lat="47.45832" lon="3.39473">
        <ele>237</ele>
        <time>2021-09-27T14:03:23Z</time>
      </trkpt>
      <trkpt lat="47.45826" lon="3.39486">
        <ele>238</ele>
        <time>2021-09-27T14:03:15Z</time>
      </trkpt>
      <trkpt lat="47.45825" lon="3.39488">
        <ele>238</ele>
        <time>2021-09-27T14:03:14Z</time>
      </trkpt>
      <trkpt lat="47.45822" lon="3.39496">
        <ele>239</ele>
        <time>2021-09-27T14:03:10Z</time>
      </trkpt>
      <trkpt lat="47.4582" lon="3.39501">
        <ele>240</ele>
        <time>2021-09-27T14:03:05Z</time>
      </trkpt>
      <trkpt lat="47.45819" lon="3.39504">
        <ele>240</ele>
        <time>2021-09-27T14:03:00Z</time>
      </trkpt>
      <trkpt lat="47.45817" lon="3.3951">
        <ele>241</ele>
        <time>2021-09-27T14:02:56Z</time>
      </trkpt>
      <trkpt lat="47.45802" lon="3.39537">
        <ele>245</ele>
        <time>2021-09-27T14:02:38Z</time>
      </trkpt>
      <trkpt lat="47.45787" lon="3.39564">
        <ele>247</ele>
        <time>2021-09-27T14:02:21Z</time>
      </trkpt>
      <trkpt lat="47.45769" lon="3.39597">
        <ele>248</ele>
        <time>2021-09-27T14:02:01Z</time>
      </trkpt>
      <trkpt lat="47.45763" lon="3.39606">
        <ele>248</ele>
        <time>2021-09-27T14:01:55Z</time>
      </trkpt>
      <trkpt lat="47.45745" lon="3.39625">
        <ele>249</ele>
        <time>2021-09-27T14:01:39Z</time>
      </trkpt>
      <trkpt lat="47.45713" lon="3.39667">
        <ele>248</ele>
        <time>2021-09-27T14:01:09Z</time>
      </trkpt>
      <trkpt lat="47.45688" lon="3.39695">
        <ele>248</ele>
        <time>2021-09-27T14:00:47Z</time>
      </trkpt>
      <trkpt lat="47.45654" lon="3.39733">
        <ele>247</ele>
        <time>2021-09-27T14:00:17Z</time>
      </trkpt>
      <trkpt lat="47.45618" lon="3.39773">
        <ele>246</ele>
        <time>2021-09-27T13:59:45Z</time>
      </trkpt>
      <trkpt lat="47.45587" lon="3.39806">
        <ele>244</ele>
        <time>2021-09-27T13:59:18Z</time>
      </trkpt>
      <trkpt lat="47.45549" lon="3.39847">
        <ele>242</ele>
        <time>2021-09-27T13:58:46Z</time>
      </trkpt>
      <trkpt lat="47.45513" lon="3.39887">
        <ele>242</ele>
        <time>2021-09-27T13:58:15Z</time>
      </trkpt>
      <trkpt lat="47.45478" lon="3.39926">
        <ele>244</ele>
        <time>2021-09-27T13:57:46Z</time>
      </trkpt>
      <trkpt lat="47.45442" lon="3.39965">
        <ele>247</ele>
        <time>2021-09-27T13:57:16Z</time>
      </trkpt>
      <trkpt lat="47.45403" lon="3.40006">
        <ele>248</ele>
        <time>2021-09-27T13:56:43Z</time>
      </trkpt>
      <trkpt lat="47.45371" lon="3.40039">
        <ele>249</ele>
        <time>2021-09-27T13:56:16Z</time>
      </trkpt>
      <trkpt lat="47.45344" lon="3.40057">
        <ele>249</ele>
        <time>2021-09-27T13:55:55Z</time>
      </trkpt>
      <trkpt lat="47.45312" lon="3.40065">
        <ele>249</ele>
        <time>2021-09-27T13:55:32Z</time>
      </trkpt>
      <trkpt lat="47.45284" lon="3.4007">
        <ele>249</ele>
        <time>2021-09-27T13:55:11Z</time>
      </trkpt>
      <trkpt lat="47.45255" lon="3.40077">
        <ele>248</ele>
        <time>2021-09-27T13:54:51Z</time>
      </trkpt>
      <trkpt lat="47.45215" lon="3.40093">
        <ele>246</ele>
        <time>2021-09-27T13:54:22Z</time>
      </trkpt>
      <trkpt lat="47.45182" lon="3.40112">
        <ele>246</ele>
        <time>2021-09-27T13:53:58Z</time>
      </trkpt>
      <trkpt lat="47.45154" lon="3.40128">
        <ele>246</ele>
        <time>2021-09-27T13:53:36Z</time>
      </trkpt>
      <trkpt lat="47.45126" lon="3.40141">
        <ele>247</ele>
        <time>2021-09-27T13:53:16Z</time>
      </trkpt>
      <trkpt lat="47.45093" lon="3.40153">
        <ele>250</ele>
        <time>2021-09-27T13:52:51Z</time>
      </trkpt>
      <trkpt lat="47.45064" lon="3.40164">
        <ele>252</ele>
        <time>2021-09-27T13:52:28Z</time>
      </trkpt>
      <trkpt lat="47.45063" lon="3.40164">
        <ele>252</ele>
        <time>2021-09-27T13:52:27Z</time>
      </trkpt>
      <trkpt lat="47.45061" lon="3.40166">
        <ele>252</ele>
        <time>2021-09-27T13:52:25Z</time>
      </trkpt>
      <trkpt lat="47.45059" lon="3.40168">
        <ele>252</ele>
        <time>2021-09-27T13:52:16Z</time>
      </trkpt>
      <trkpt lat="47.45057" lon="3.40168">
        <ele>252</ele>
        <time>2021-09-27T13:52:15Z</time>
      </trkpt>
      <trkpt lat="47.45055" lon="3.4017">
        <ele>253</ele>
        <time>2021-09-27T13:52:14Z</time>
      </trkpt>
      <trkpt lat="47.45053" lon="3.40172">
        <ele>253</ele>
        <time>2021-09-27T13:52:13Z</time>
      </trkpt>
      <trkpt lat="47.4505" lon="3.40174">
        <ele>253</ele>
        <time>2021-09-27T13:52:12Z</time>
      </trkpt>
      <trkpt lat="47.45049" lon="3.40175">
        <ele>253</ele>
        <time>2021-09-27T13:52:11Z</time>
      </trkpt>
      <trkpt lat="47.45048" lon="3.40176">
        <ele>253</ele>
        <time>2021-09-27T13:52:00Z</time>
      </trkpt>
      <trkpt lat="47.45043" lon="3.40174">
        <ele>253</ele>
        <time>2021-09-27T13:51:47Z</time>
      </trkpt>
      <trkpt lat="47.45022" lon="3.402">
        <ele>256</ele>
        <time>2021-09-27T13:51:25Z</time>
      </trkpt>
      <trkpt lat="47.45008" lon="3.40243">
        <ele>258</ele>
        <time>2021-09-27T13:51:00Z</time>
      </trkpt>
      <trkpt lat="47.44994" lon="3.40286">
        <ele>260</ele>
        <time>2021-09-27T13:50:34Z</time>
      </trkpt>
      <trkpt lat="47.4498" lon="3.40334">
        <ele>263</ele>
        <time>2021-09-27T13:50:07Z</time>
      </trkpt>
      <trkpt lat="47.44959" lon="3.40381">
        <ele>264</ele>
        <time>2021-09-27T13:49:37Z</time>
      </trkpt>
      <trkpt lat="47.44935" lon="3.40418">
        <ele>267</ele>
        <time>2021-09-27T13:49:10Z</time>
      </trkpt>
      <trkpt lat="47.44905" lon="3.40453">
        <ele>268</ele>
        <time>2021-09-27T13:48:41Z</time>
      </trkpt>
      <trkpt lat="47.44884" lon="3.40492">
        <ele>268</ele>
        <time>2021-09-27T13:48:15Z</time>
      </trkpt>
      <trkpt lat="47.44876" lon="3.40514">
        <ele>269</ele>
        <time>2021-09-27T13:48:02Z</time>
      </trkpt>
      <trkpt lat="47.44876" lon="3.40516">
        <ele>269</ele>
        <time>2021-09-27T13:48:01Z</time>
      </trkpt>
      <trkpt lat="47.44875" lon="3.4052">
        <ele>269</ele>
        <time>2021-09-27T13:47:59Z</time>
      </trkpt>
      <trkpt lat="47.44867" lon="3.40549">
        <ele>270</ele>
        <time>2021-09-27T13:47:42Z</time>
      </trkpt>
      <trkpt lat="47.44858" lon="3.40584">
        <ele>271</ele>
        <time>2021-09-27T13:47:20Z</time>
      </trkpt>
      <trkpt lat="47.44852" lon="3.40625">
        <ele>272</ele>
        <time>2021-09-27T13:46:56Z</time>
      </trkpt>
      <trkpt lat="47.44847" lon="3.40666">
        <ele>272</ele>
        <time>2021-09-27T13:46:33Z</time>
      </trkpt>
      <trkpt lat="47.44847" lon="3.40668">
        <ele>271</ele>
        <time>2021-09-27T13:46:32Z</time>
      </trkpt>
      <trkpt lat="47.44847" lon="3.40671">
        <ele>271</ele>
        <time>2021-09-27T13:46:31Z</time>
      </trkpt>
      <trkpt lat="47.44847" lon="3.40673">
        <ele>271</ele>
        <time>2021-09-27T13:46:30Z</time>
      </trkpt>
      <trkpt lat="47.44847" lon="3.40675">
        <ele>271</ele>
        <time>2021-09-27T13:46:29Z</time>
      </trkpt>
      <trkpt lat="47.44847" lon="3.40677">
        <ele>271</ele>
        <time>2021-09-27T13:46:28Z</time>
      </trkpt>
      <trkpt lat="47.44847" lon="3.40679">
        <ele>271</ele>
        <time>2021-09-27T13:46:27Z</time>
      </trkpt>
      <trkpt lat="47.44847" lon="3.40682">
        <ele>271</ele>
        <time>2021-09-27T13:46:26Z</time>
      </trkpt>
      <trkpt lat="47.44846" lon="3.40687">
        <ele>271</ele>
        <time>2021-09-27T13:46:23Z</time>
      </trkpt>
      <trkpt lat="47.44841" lon="3.40718">
        <ele>271</ele>
        <time>2021-09-27T13:46:02Z</time>
      </trkpt>
      <trkpt lat="47.44838" lon="3.40738">
        <ele>271</ele>
        <time>2021-09-27T13:45:48Z</time>
      </trkpt>
      <trkpt lat="47.44834" lon="3.40758">
        <ele>270</ele>
        <time>2021-09-27T13:45:32Z</time>
      </trkpt>
      <trkpt lat="47.4483" lon="3.40786">
        <ele>268</ele>
        <time>2021-09-27T13:45:12Z</time>
      </trkpt>
      <trkpt lat="47.4483" lon="3.40815">
        <ele>266</ele>
        <time>2021-09-27T13:44:50Z</time>
      </trkpt>
      <trkpt lat="47.44829" lon="3.40844">
        <ele>264</ele>
        <time>2021-09-27T13:44:26Z</time>
      </trkpt>
      <trkpt lat="47.44828" lon="3.40869">
        <ele>261</ele>
        <time>2021-09-27T13:44:04Z</time>
      </trkpt>
      <trkpt lat="47.44828" lon="3.40878">
        <ele>259</ele>
        <time>2021-09-27T13:43:43Z</time>
      </trkpt>
      <trkpt lat="47.44828" lon="3.40882">
        <ele>258</ele>
        <time>2021-09-27T13:43:26Z</time>
      </trkpt>
      <trkpt lat="47.44834" lon="3.40888">
        <ele>258</ele>
        <time>2021-09-27T13:43:05Z</time>
      </trkpt>
      <trkpt lat="47.44847" lon="3.40895">
        <ele>258</ele>
        <time>2021-09-27T13:42:48Z</time>
      </trkpt>
      <trkpt lat="47.44853" lon="3.40904">
        <ele>257</ele>
        <time>2021-09-27T13:42:32Z</time>
      </trkpt>
      <trkpt lat="47.44856" lon="3.40909">
        <ele>256</ele>
        <time>2021-09-27T13:42:17Z</time>
      </trkpt>
      <trkpt lat="47.44861" lon="3.40912">
        <ele>256</ele>
        <time>2021-09-27T13:42:00Z</time>
      </trkpt>
      <trkpt lat="47.44864" lon="3.40922">
        <ele>255</ele>
        <time>2021-09-27T13:41:43Z</time>
      </trkpt>
      <trkpt lat="47.44869" lon="3.40926">
        <ele>256</ele>
        <time>2021-09-27T13:41:28Z</time>
      </trkpt>
      <trkpt lat="47.4487" lon="3.40923">
        <ele>256</ele>
        <time>2021-09-27T13:41:09Z</time>
      </trkpt>
      <trkpt lat="47.4487" lon="3.40925">
        <ele>256</ele>
        <time>2021-09-27T13:40:53Z</time>
      </trkpt>
      <trkpt lat="47.44871" lon="3.40932">
        <ele>255</ele>
        <time>2021-09-27T13:40:31Z</time>
      </trkpt>
      <trkpt lat="47.44871" lon="3.40938">
        <ele>255</ele>
        <time>2021-09-27T13:40:10Z</time>
      </trkpt>
      <trkpt lat="47.44875" lon="3.40941">
        <ele>255</ele>
        <time>2021-09-27T13:39:53Z</time>
      </trkpt>
      <trkpt lat="47.44875" lon="3.40941">
        <ele>255</ele>
        <time>2021-09-27T13:39:20Z</time>
      </trkpt>
      <trkpt lat="47.44874" lon="3.40942">
        <ele>255</ele>
        <time>2021-09-27T13:38:56Z</time>
      </trkpt>
      <trkpt lat="47.44874" lon="3.40943">
        <ele>255</ele>
        <time>2021-09-27T13:38:26Z</time>
      </trkpt>
      <trkpt lat="47.44874" lon="3.40943">
        <ele>255</ele>
        <time>2021-09-27T13:38:24Z</time>
      </trkpt>
      <trkpt lat="47.44874" lon="3.40942">
        <ele>255</ele>
        <time>2021-09-27T13:38:20Z</time>
      </trkpt>
      <trkpt lat="47.44875" lon="3.40944">
        <ele>255</ele>
        <time>2021-09-27T13:38:01Z</time>
      </trkpt>
      <trkpt lat="47.44878" lon="3.40944">
        <ele>255</ele>
        <time>2021-09-27T13:37:44Z</time>
      </trkpt>
      <trkpt lat="47.44875" lon="3.40945">
        <ele>255</ele>
        <time>2021-09-27T13:37:25Z</time>
      </trkpt>
      <trkpt lat="47.44885" lon="3.40957">
        <ele>256</ele>
        <time>2021-09-27T13:37:07Z</time>
      </trkpt>
      <trkpt lat="47.44885" lon="3.40959">
        <ele>256</ele>
        <time>2021-09-27T13:37:06Z</time>
      </trkpt>
      <trkpt lat="47.44893" lon="3.4097">
        <ele>257</ele>
        <time>2021-09-27T13:36:57Z</time>
      </trkpt>
      <trkpt lat="47.44919" lon="3.40999">
        <ele>257</ele>
        <time>2021-09-27T13:36:34Z</time>
      </trkpt>
      <trkpt lat="47.44944" lon="3.41023">
        <ele>257</ele>
        <time>2021-09-27T13:36:13Z</time>
      </trkpt>
      <trkpt lat="47.44972" lon="3.4105">
        <ele>262</ele>
        <time>2021-09-27T13:35:49Z</time>
      </trkpt>
      <trkpt lat="47.45" lon="3.41087">
        <ele>263</ele>
        <time>2021-09-27T13:35:22Z</time>
      </trkpt>
      <trkpt lat="47.45023" lon="3.41125">
        <ele>264</ele>
        <time>2021-09-27T13:34:58Z</time>
      </trkpt>
      <trkpt lat="47.4505" lon="3.41163">
        <ele>265</ele>
        <time>2021-09-27T13:34:32Z</time>
      </trkpt>
      <trkpt lat="47.45079" lon="3.41199">
        <ele>265</ele>
        <time>2021-09-27T13:34:06Z</time>
      </trkpt>
      <trkpt lat="47.45106" lon="3.41234">
        <ele>267</ele>
        <time>2021-09-27T13:33:41Z</time>
      </trkpt>
      <trkpt lat="47.45134" lon="3.41268">
        <ele>268</ele>
        <time>2021-09-27T13:33:15Z</time>
      </trkpt>
      <trkpt lat="47.45158" lon="3.41297">
        <ele>269</ele>
        <time>2021-09-27T13:32:53Z</time>
      </trkpt>
      <trkpt lat="47.4518" lon="3.41327">
        <ele>269</ele>
        <time>2021-09-27T13:32:33Z</time>
      </trkpt>
      <trkpt lat="47.452" lon="3.41353">
        <ele>269</ele>
        <time>2021-09-27T13:32:12Z</time>
      </trkpt>
      <trkpt lat="47.45201" lon="3.41354">
        <ele>269</ele>
        <time>2021-09-27T13:32:11Z</time>
      </trkpt>
      <trkpt lat="47.45202" lon="3.41356">
        <ele>269</ele>
        <time>2021-09-27T13:32:10Z</time>
      </trkpt>
      <trkpt lat="47.45203" lon="3.41357">
        <ele>269</ele>
        <time>2021-09-27T13:32:09Z</time>
      </trkpt>
      <trkpt lat="47.45204" lon="3.41358">
        <ele>269</ele>
        <time>2021-09-27T13:32:08Z</time>
      </trkpt>
      <trkpt lat="47.45205" lon="3.4136">
        <ele>269</ele>
        <time>2021-09-27T13:32:07Z</time>
      </trkpt>
      <trkpt lat="47.45206" lon="3.41361">
        <ele>269</ele>
        <time>2021-09-27T13:32:06Z</time>
      </trkpt>
      <trkpt lat="47.45207" lon="3.41362">
        <ele>269</ele>
        <time>2021-09-27T13:32:05Z</time>
      </trkpt>
      <trkpt lat="47.45208" lon="3.41363">
        <ele>269</ele>
        <time>2021-09-27T13:32:04Z</time>
      </trkpt>
      <trkpt lat="47.45209" lon="3.41364">
        <ele>269</ele>
        <time>2021-09-27T13:32:03Z</time>
      </trkpt>
      <trkpt lat="47.4521" lon="3.41365">
        <ele>269</ele>
        <time>2021-09-27T13:31:55Z</time>
      </trkpt>
      <trkpt lat="47.45212" lon="3.41368">
        <ele>269</ele>
        <time>2021-09-27T13:31:40Z</time>
      </trkpt>
      <trkpt lat="47.45212" lon="3.41369">
        <ele>269</ele>
        <time>2021-09-27T13:31:39Z</time>
      </trkpt>
      <trkpt lat="47.45213" lon="3.41371">
        <ele>269</ele>
        <time>2021-09-27T13:31:38Z</time>
      </trkpt>
      <trkpt lat="47.45214" lon="3.41372">
        <ele>269</ele>
        <time>2021-09-27T13:31:37Z</time>
      </trkpt>
      <trkpt lat="47.45215" lon="3.41373">
        <ele>269</ele>
        <time>2021-09-27T13:31:36Z</time>
      </trkpt>
      <trkpt lat="47.45223" lon="3.41383">
        <ele>269</ele>
        <time>2021-09-27T13:31:24Z</time>
      </trkpt>
      <trkpt lat="47.45235" lon="3.414">
        <ele>269</ele>
        <time>2021-09-27T13:31:07Z</time>
      </trkpt>
      <trkpt lat="47.45252" lon="3.4142">
        <ele>269</ele>
        <time>2021-09-27T13:30:48Z</time>
      </trkpt>
      <trkpt lat="47.45272" lon="3.41446">
        <ele>272</ele>
        <time>2021-09-27T13:30:27Z</time>
      </trkpt>
      <trkpt lat="47.45293" lon="3.41469">
        <ele>273</ele>
        <time>2021-09-27T13:30:07Z</time>
      </trkpt>
      <trkpt lat="47.45319" lon="3.41495">
        <ele>273</ele>
        <time>2021-09-27T13:29:43Z</time>
      </trkpt>
      <trkpt lat="47.4534" lon="3.41528">
        <ele>273</ele>
        <time>2021-09-27T13:29:21Z</time>
      </trkpt>
      <trkpt lat="47.45355" lon="3.41559">
        <ele>273</ele>
        <time>2021-09-27T13:29:00Z</time>
      </trkpt>
      <trkpt lat="47.4537" lon="3.41582">
        <ele>272</ele>
        <time>2021-09-27T13:28:42Z</time>
      </trkpt>
      <trkpt lat="47.45386" lon="3.41601">
        <ele>269</ele>
        <time>2021-09-27T13:28:24Z</time>
      </trkpt>
      <trkpt lat="47.454" lon="3.41615">
        <ele>266</ele>
        <time>2021-09-27T13:28:07Z</time>
      </trkpt>
      <trkpt lat="47.45404" lon="3.41619">
        <ele>265</ele>
        <time>2021-09-27T13:28:02Z</time>
      </trkpt>
      <trkpt lat="47.4541" lon="3.41614">
        <ele>265</ele>
        <time>2021-09-27T13:27:47Z</time>
      </trkpt>
      <trkpt lat="47.45428" lon="3.41585">
        <ele>267</ele>
        <time>2021-09-27T13:27:25Z</time>
      </trkpt>
      <trkpt lat="47.45444" lon="3.41563">
        <ele>269</ele>
        <time>2021-09-27T13:27:08Z</time>
      </trkpt>
      <trkpt lat="47.45461" lon="3.41528">
        <ele>271</ele>
        <time>2021-09-27T13:26:48Z</time>
      </trkpt>
      <trkpt lat="47.45473" lon="3.41505">
        <ele>271</ele>
        <time>2021-09-27T13:26:33Z</time>
      </trkpt>
      <trkpt lat="47.4549" lon="3.41476">
        <ele>271</ele>
        <time>2021-09-27T13:26:13Z</time>
      </trkpt>
      <trkpt lat="47.45504" lon="3.41451">
        <ele>271</ele>
        <time>2021-09-27T13:25:57Z</time>
      </trkpt>
      <trkpt lat="47.45518" lon="3.41422">
        <ele>270</ele>
        <time>2021-09-27T13:25:40Z</time>
      </trkpt>
      <trkpt lat="47.45519" lon="3.4142">
        <ele>270</ele>
        <time>2021-09-27T13:25:39Z</time>
      </trkpt>
      <trkpt lat="47.4552" lon="3.41418">
        <ele>270</ele>
        <time>2021-09-27T13:25:38Z</time>
      </trkpt>
      <trkpt lat="47.45528" lon="3.41402">
        <ele>271</ele>
        <time>2021-09-27T13:25:29Z</time>
      </trkpt>
      <trkpt lat="47.45544" lon="3.41371">
        <ele>272</ele>
        <time>2021-09-27T13:25:11Z</time>
      </trkpt>
      <trkpt lat="47.45561" lon="3.41338">
        <ele>273</ele>
        <time>2021-09-27T13:24:51Z</time>
      </trkpt>
      <trkpt lat="47.45579" lon="3.4132">
        <ele>270</ele>
        <time>2021-09-27T13:24:30Z</time>
      </trkpt>
      <trkpt lat="47.45598" lon="3.41306">
        <ele>267</ele>
        <time>2021-09-27T13:24:09Z</time>
      </trkpt>
      <trkpt lat="47.45611" lon="3.413">
        <ele>264</ele>
        <time>2021-09-27T13:23:48Z</time>
      </trkpt>
      <trkpt lat="47.45612" lon="3.413">
        <ele>263</ele>
        <time>2021-09-27T13:23:31Z</time>
      </trkpt>
      <trkpt lat="47.45613" lon="3.41293">
        <ele>263</ele>
        <time>2021-09-27T13:23:09Z</time>
      </trkpt>
      <trkpt lat="47.45616" lon="3.41288">
        <ele>263</ele>
        <time>2021-09-27T13:22:35Z</time>
      </trkpt>
      <trkpt lat="47.45616" lon="3.41289">
        <ele>263</ele>
        <time>2021-09-27T13:22:14Z</time>
      </trkpt>
      <trkpt lat="47.45616" lon="3.41289">
        <ele>263</ele>
        <time>2021-09-27T13:21:49Z</time>
      </trkpt>
      <trkpt lat="47.45615" lon="3.41291">
        <ele>263</ele>
        <time>2021-09-27T13:21:18Z</time>
      </trkpt>
      <trkpt lat="47.45615" lon="3.41291">
        <ele>263</ele>
        <time>2021-09-27T13:20:58Z</time>
      </trkpt>
      <trkpt lat="47.45613" lon="3.41291">
        <ele>263</ele>
        <time>2021-09-27T13:20:33Z</time>
      </trkpt>
      <trkpt lat="47.45614" lon="3.41285">
        <ele>263</ele>
        <time>2021-09-27T13:20:01Z</time>
      </trkpt>
      <trkpt lat="47.45618" lon="3.41276">
        <ele>262</ele>
        <time>2021-09-27T13:19:46Z</time>
      </trkpt>
      <trkpt lat="47.45625" lon="3.41258">
        <ele>261</ele>
        <time>2021-09-27T13:19:33Z</time>
      </trkpt>
      <trkpt lat="47.45626" lon="3.41253">
        <ele>260</ele>
        <time>2021-09-27T13:19:30Z</time>
      </trkpt>
      <trkpt lat="47.45633" lon="3.41222">
        <ele>258</ele>
        <time>2021-09-27T13:19:13Z</time>
      </trkpt>
      <trkpt lat="47.45647" lon="3.41177">
        <ele>257</ele>
        <time>2021-09-27T13:18:47Z</time>
      </trkpt>
      <trkpt lat="47.45664" lon="3.41135">
        <ele>257</ele>
        <time>2021-09-27T13:18:23Z</time>
      </trkpt>
      <trkpt lat="47.45667" lon="3.41125">
        <ele>257</ele>
        <time>2021-09-27T13:18:17Z</time>
      </trkpt>
      <trkpt lat="47.45668" lon="3.41122">
        <ele>257</ele>
        <time>2021-09-27T13:18:15Z</time>
      </trkpt>
      <trkpt lat="47.45681" lon="3.41085">
        <ele>258</ele>
        <time>2021-09-27T13:17:54Z</time>
      </trkpt>
      <trkpt lat="47.45697" lon="3.4104">
        <ele>258</ele>
        <time>2021-09-27T13:17:29Z</time>
      </trkpt>
      <trkpt lat="47.45705" lon="3.41023">
        <ele>257</ele>
        <time>2021-09-27T13:17:17Z</time>
      </trkpt>
      <trkpt lat="47.45716" lon="3.41">
        <ele>257</ele>
        <time>2021-09-27T13:17:02Z</time>
      </trkpt>
      <trkpt lat="47.45725" lon="3.40976">
        <ele>256</ele>
        <time>2021-09-27T13:16:47Z</time>
      </trkpt>
      <trkpt lat="47.45735" lon="3.40952">
        <ele>257</ele>
        <time>2021-09-27T13:16:33Z</time>
      </trkpt>
      <trkpt lat="47.45739" lon="3.40935">
        <ele>258</ele>
        <time>2021-09-27T13:16:24Z</time>
      </trkpt>
      <trkpt lat="47.45739" lon="3.40934">
        <ele>258</ele>
        <time>2021-09-27T13:16:23Z</time>
      </trkpt>
      <trkpt lat="47.45739" lon="3.40932">
        <ele>258</ele>
        <time>2021-09-27T13:16:22Z</time>
      </trkpt>
      <trkpt lat="47.4574" lon="3.4093">
        <ele>258</ele>
        <time>2021-09-27T13:16:21Z</time>
      </trkpt>
      <trkpt lat="47.4574" lon="3.40928">
        <ele>258</ele>
        <time>2021-09-27T13:16:20Z</time>
      </trkpt>
      <trkpt lat="47.45741" lon="3.40927">
        <ele>258</ele>
        <time>2021-09-27T13:16:19Z</time>
      </trkpt>
      <trkpt lat="47.45742" lon="3.40925">
        <ele>258</ele>
        <time>2021-09-27T13:16:18Z</time>
      </trkpt>
      <trkpt lat="47.45751" lon="3.4089">
        <ele>259</ele>
        <time>2021-09-27T13:16:00Z</time>
      </trkpt>
      <trkpt lat="47.45759" lon="3.40863">
        <ele>258</ele>
        <time>2021-09-27T13:15:45Z</time>
      </trkpt>
      <trkpt lat="47.45766" lon="3.40835">
        <ele>259</ele>
        <time>2021-09-27T13:15:29Z</time>
      </trkpt>
      <trkpt lat="47.45766" lon="3.40834">
        <ele>259</ele>
        <time>2021-09-27T13:15:28Z</time>
      </trkpt>
      <trkpt lat="47.45766" lon="3.40832">
        <ele>259</ele>
        <time>2021-09-27T13:15:27Z</time>
      </trkpt>
      <trkpt lat="47.45766" lon="3.4083">
        <ele>259</ele>
        <time>2021-09-27T13:15:26Z</time>
      </trkpt>
      <trkpt lat="47.45766" lon="3.40828">
        <ele>259</ele>
        <time>2021-09-27T13:15:25Z</time>
      </trkpt>
      <trkpt lat="47.45767" lon="3.40826">
        <ele>259</ele>
        <time>2021-09-27T13:15:24Z</time>
      </trkpt>
      <trkpt lat="47.45767" lon="3.40824">
        <ele>259</ele>
        <time>2021-09-27T13:15:23Z</time>
      </trkpt>
      <trkpt lat="47.45767" lon="3.40822">
        <ele>259</ele>
        <time>2021-09-27T13:15:22Z</time>
      </trkpt>
      <trkpt lat="47.45768" lon="3.4082">
        <ele>259</ele>
        <time>2021-09-27T13:15:21Z</time>
      </trkpt>
      <trkpt lat="47.45768" lon="3.40818">
        <ele>259</ele>
        <time>2021-09-27T13:15:20Z</time>
      </trkpt>
      <trkpt lat="47.45769" lon="3.40816">
        <ele>259</ele>
        <time>2021-09-27T13:15:19Z</time>
      </trkpt>
      <trkpt lat="47.45769" lon="3.40814">
        <ele>259</ele>
        <time>2021-09-27T13:15:18Z</time>
      </trkpt>
      <trkpt lat="47.45778" lon="3.40788">
        <ele>259</ele>
        <time>2021-09-27T13:15:03Z</time>
      </trkpt>
      <trkpt lat="47.45786" lon="3.40756">
        <ele>257</ele>
        <time>2021-09-27T13:14:45Z</time>
      </trkpt>
      <trkpt lat="47.45794" lon="3.40734">
        <ele>256</ele>
        <time>2021-09-27T13:14:30Z</time>
      </trkpt>
      <trkpt lat="47.45794" lon="3.40732">
        <ele>256</ele>
        <time>2021-09-27T13:14:29Z</time>
      </trkpt>
      <trkpt lat="47.45795" lon="3.40731">
        <ele>256</ele>
        <time>2021-09-27T13:14:28Z</time>
      </trkpt>
      <trkpt lat="47.45805" lon="3.40712">
        <ele>255</ele>
        <time>2021-09-27T13:14:15Z</time>
      </trkpt>
      <trkpt lat="47.45807" lon="3.40709">
        <ele>255</ele>
        <time>2021-09-27T13:14:13Z</time>
      </trkpt>
      <trkpt lat="47.45822" lon="3.40695">
        <ele>254</ele>
        <time>2021-09-27T13:13:57Z</time>
      </trkpt>
      <trkpt lat="47.4583" lon="3.40687">
        <ele>253</ele>
        <time>2021-09-27T13:13:49Z</time>
      </trkpt>
      <trkpt lat="47.45848" lon="3.40677">
        <ele>253</ele>
        <time>2021-09-27T13:13:33Z</time>
      </trkpt>
      <trkpt lat="47.45858" lon="3.40673">
        <ele>252</ele>
        <time>2021-09-27T13:13:25Z</time>
      </trkpt>
      <trkpt lat="47.4586" lon="3.40672">
        <ele>252</ele>
        <time>2021-09-27T13:13:23Z</time>
      </trkpt>
      <trkpt lat="47.45862" lon="3.4067">
        <ele>252</ele>
        <time>2021-09-27T13:13:21Z</time>
      </trkpt>
      <trkpt lat="47.45875" lon="3.40661">
        <ele>250</ele>
        <time>2021-09-27T13:13:09Z</time>
      </trkpt>
      <trkpt lat="47.45893" lon="3.40646">
        <ele>247</ele>
        <time>2021-09-27T13:12:51Z</time>
      </trkpt>
      <trkpt lat="47.459" lon="3.40642">
        <ele>246</ele>
        <time>2021-09-27T13:12:45Z</time>
      </trkpt>
      <trkpt lat="47.4592" lon="3.40626">
        <ele>243</ele>
        <time>2021-09-27T13:12:25Z</time>
      </trkpt>
      <trkpt lat="47.45931" lon="3.40618">
        <ele>242</ele>
        <time>2021-09-27T13:12:14Z</time>
      </trkpt>
      <trkpt lat="47.45952" lon="3.40598">
        <ele>238</ele>
        <time>2021-09-27T13:11:53Z</time>
      </trkpt>
      <trkpt lat="47.45974" lon="3.40582">
        <ele>235</ele>
        <time>2021-09-27T13:11:32Z</time>
      </trkpt>
      <trkpt lat="47.4599" lon="3.40569">
        <ele>231</ele>
        <time>2021-09-27T13:11:14Z</time>
      </trkpt>
      <trkpt lat="47.46011" lon="3.40568">
        <ele>230</ele>
        <time>2021-09-27T13:10:54Z</time>
      </trkpt>
      <trkpt lat="47.46036" lon="3.40561">
        <ele>229</ele>
        <time>2021-09-27T13:10:33Z</time>
      </trkpt>
      <trkpt lat="47.46038" lon="3.40561">
        <ele>229</ele>
        <time>2021-09-27T13:10:32Z</time>
      </trkpt>
      <trkpt lat="47.46046" lon="3.40561">
        <ele>228</ele>
        <time>2021-09-27T13:10:23Z</time>
      </trkpt>
      <trkpt lat="47.46053" lon="3.40559">
        <ele>228</ele>
        <time>2021-09-27T13:10:02Z</time>
      </trkpt>
      <trkpt lat="47.46054" lon="3.40559">
        <ele>228</ele>
        <time>2021-09-27T13:09:35Z</time>
      </trkpt>
      <trkpt lat="47.46059" lon="3.4056">
        <ele>228</ele>
        <time>2021-09-27T13:09:18Z</time>
      </trkpt>
      <trkpt lat="47.46059" lon="3.40556">
        <ele>228</ele>
        <time>2021-09-27T13:08:57Z</time>
      </trkpt>
      <trkpt lat="47.46061" lon="3.40554">
        <ele>228</ele>
        <time>2021-09-27T13:08:35Z</time>
      </trkpt>
      <trkpt lat="47.4606" lon="3.40552">
        <ele>227</ele>
        <time>2021-09-27T13:08:30Z</time>
      </trkpt>
      <trkpt lat="47.46059" lon="3.40555">
        <ele>228</ele>
        <time>2021-09-27T13:08:10Z</time>
      </trkpt>
      <trkpt lat="47.4606" lon="3.40555">
        <ele>228</ele>
        <time>2021-09-27T13:07:46Z</time>
      </trkpt>
      <trkpt lat="47.46057" lon="3.40555">
        <ele>228</ele>
        <time>2021-09-27T13:07:27Z</time>
      </trkpt>
      <trkpt lat="47.46055" lon="3.40556">
        <ele>228</ele>
        <time>2021-09-27T13:07:09Z</time>
      </trkpt>
      <trkpt lat="47.46054" lon="3.40559">
        <ele>228</ele>
        <time>2021-09-27T13:06:35Z</time>
      </trkpt>
      <trkpt lat="47.46052" lon="3.40559">
        <ele>228</ele>
        <time>2021-09-27T13:06:13Z</time>
      </trkpt>
      <trkpt lat="47.46053" lon="3.40562">
        <ele>228</ele>
        <time>2021-09-27T13:05:56Z</time>
      </trkpt>
      <trkpt lat="47.46053" lon="3.40575">
        <ele>230</ele>
        <time>2021-09-27T13:05:34Z</time>
      </trkpt>
      <trkpt lat="47.46051" lon="3.40602">
        <ele>232</ele>
        <time>2021-09-27T13:05:17Z</time>
      </trkpt>
      <trkpt lat="47.46043" lon="3.40627">
        <ele>234</ele>
        <time>2021-09-27T13:05:04Z</time>
      </trkpt>
      <trkpt lat="47.46042" lon="3.40628">
        <ele>234</ele>
        <time>2021-09-27T13:05:03Z</time>
      </trkpt>
      <trkpt lat="47.46041" lon="3.40661">
        <ele>237</ele>
        <time>2021-09-27T13:04:48Z</time>
      </trkpt>
      <trkpt lat="47.46041" lon="3.40663">
        <ele>238</ele>
        <time>2021-09-27T13:04:47Z</time>
      </trkpt>
      <trkpt lat="47.46041" lon="3.40665">
        <ele>238</ele>
        <time>2021-09-27T13:04:46Z</time>
      </trkpt>
      <trkpt lat="47.46041" lon="3.40667">
        <ele>238</ele>
        <time>2021-09-27T13:04:45Z</time>
      </trkpt>
      <trkpt lat="47.46042" lon="3.40669">
        <ele>238</ele>
        <time>2021-09-27T13:04:44Z</time>
      </trkpt>
      <trkpt lat="47.46041" lon="3.40672">
        <ele>238</ele>
        <time>2021-09-27T13:04:43Z</time>
      </trkpt>
      <trkpt lat="47.46041" lon="3.40674">
        <ele>239</ele>
        <time>2021-09-27T13:04:42Z</time>
      </trkpt>
      <trkpt lat="47.46048" lon="3.40702">
        <ele>241</ele>
        <time>2021-09-27T13:04:29Z</time>
      </trkpt>
      <trkpt lat="47.46048" lon="3.40706">
        <ele>241</ele>
        <time>2021-09-27T13:04:27Z</time>
      </trkpt>
      <trkpt lat="47.46049" lon="3.40708">
        <ele>242</ele>
        <time>2021-09-27T13:04:26Z</time>
      </trkpt>
      <trkpt lat="47.46049" lon="3.4071">
        <ele>242</ele>
        <time>2021-09-27T13:04:25Z</time>
      </trkpt>
      <trkpt lat="47.46049" lon="3.40712">
        <ele>242</ele>
        <time>2021-09-27T13:04:24Z</time>
      </trkpt>
      <trkpt lat="47.4605" lon="3.40715">
        <ele>242</ele>
        <time>2021-09-27T13:04:23Z</time>
      </trkpt>
      <trkpt lat="47.46054" lon="3.40729">
        <ele>243</ele>
        <time>2021-09-27T13:04:17Z</time>
      </trkpt>
      <trkpt lat="47.46064" lon="3.40766">
        <ele>247</ele>
        <time>2021-09-27T13:04:01Z</time>
      </trkpt>
      <trkpt lat="47.46065" lon="3.40769">
        <ele>247</ele>
        <time>2021-09-27T13:04:00Z</time>
      </trkpt>
      <trkpt lat="47.46066" lon="3.40771">
        <ele>247</ele>
        <time>2021-09-27T13:03:59Z</time>
      </trkpt>
      <trkpt lat="47.46067" lon="3.40773">
        <ele>247</ele>
        <time>2021-09-27T13:03:58Z</time>
      </trkpt>
      <trkpt lat="47.46068" lon="3.40777">
        <ele>247</ele>
        <time>2021-09-27T13:03:57Z</time>
      </trkpt>
      <trkpt lat="47.46068" lon="3.40779">
        <ele>248</ele>
        <time>2021-09-27T13:03:56Z</time>
      </trkpt>
      <trkpt lat="47.46069" lon="3.40782">
        <ele>248</ele>
        <time>2021-09-27T13:03:55Z</time>
      </trkpt>
      <trkpt lat="47.46069" lon="3.40784">
        <ele>248</ele>
        <time>2021-09-27T13:03:54Z</time>
      </trkpt>
      <trkpt lat="47.4607" lon="3.40787">
        <ele>248</ele>
        <time>2021-09-27T13:03:53Z</time>
      </trkpt>
      <trkpt lat="47.4607" lon="3.40789">
        <ele>249</ele>
        <time>2021-09-27T13:03:52Z</time>
      </trkpt>
      <trkpt lat="47.46074" lon="3.40807">
        <ele>250</ele>
        <time>2021-09-27T13:03:45Z</time>
      </trkpt>
      <trkpt lat="47.46079" lon="3.40845">
        <ele>253</ele>
        <time>2021-09-27T13:03:30Z</time>
      </trkpt>
      <trkpt lat="47.4608" lon="3.4085">
        <ele>253</ele>
        <time>2021-09-27T13:03:28Z</time>
      </trkpt>
      <trkpt lat="47.46084" lon="3.40876">
        <ele>255</ele>
        <time>2021-09-27T13:03:15Z</time>
      </trkpt>
      <trkpt lat="47.46084" lon="3.40878">
        <ele>255</ele>
        <time>2021-09-27T13:03:14Z</time>
      </trkpt>
      <trkpt lat="47.46084" lon="3.4089">
        <ele>256</ele>
        <time>2021-09-27T13:03:07Z</time>
      </trkpt>
      <trkpt lat="47.46086" lon="3.40919">
        <ele>257</ele>
        <time>2021-09-27T13:02:51Z</time>
      </trkpt>
      <trkpt lat="47.46091" lon="3.40943">
        <ele>258</ele>
        <time>2021-09-27T13:02:38Z</time>
      </trkpt>
      <trkpt lat="47.46098" lon="3.40974">
        <ele>260</ele>
        <time>2021-09-27T13:02:22Z</time>
      </trkpt>
      <trkpt lat="47.46099" lon="3.40979">
        <ele>260</ele>
        <time>2021-09-27T13:02:19Z</time>
      </trkpt>
      <trkpt lat="47.461" lon="3.40982">
        <ele>260</ele>
        <time>2021-09-27T13:02:18Z</time>
      </trkpt>
      <trkpt lat="47.46101" lon="3.40984">
        <ele>261</ele>
        <time>2021-09-27T13:02:17Z</time>
      </trkpt>
      <trkpt lat="47.46101" lon="3.40986">
        <ele>261</ele>
        <time>2021-09-27T13:02:16Z</time>
      </trkpt>
      <trkpt lat="47.46102" lon="3.40988">
        <ele>261</ele>
        <time>2021-09-27T13:02:15Z</time>
      </trkpt>
      <trkpt lat="47.46102" lon="3.4099">
        <ele>261</ele>
        <time>2021-09-27T13:02:14Z</time>
      </trkpt>
      <trkpt lat="47.46103" lon="3.40992">
        <ele>261</ele>
        <time>2021-09-27T13:02:13Z</time>
      </trkpt>
      <trkpt lat="47.46104" lon="3.40995">
        <ele>261</ele>
        <time>2021-09-27T13:02:12Z</time>
      </trkpt>
      <trkpt lat="47.46104" lon="3.40997">
        <ele>261</ele>
        <time>2021-09-27T13:02:11Z</time>
      </trkpt>
      <trkpt lat="47.46105" lon="3.40998">
        <ele>261</ele>
        <time>2021-09-27T13:02:10Z</time>
      </trkpt>
      <trkpt lat="47.46106" lon="3.41">
        <ele>261</ele>
        <time>2021-09-27T13:02:09Z</time>
      </trkpt>
      <trkpt lat="47.4611" lon="3.41008">
        <ele>262</ele>
        <time>2021-09-27T13:02:04Z</time>
      </trkpt>
      <trkpt lat="47.46112" lon="3.41019">
        <ele>262</ele>
        <time>2021-09-27T13:01:57Z</time>
      </trkpt>
      <trkpt lat="47.46112" lon="3.41021">
        <ele>262</ele>
        <time>2021-09-27T13:01:56Z</time>
      </trkpt>
      <trkpt lat="47.46112" lon="3.41023">
        <ele>262</ele>
        <time>2021-09-27T13:01:55Z</time>
      </trkpt>
      <trkpt lat="47.46113" lon="3.41026">
        <ele>262</ele>
        <time>2021-09-27T13:01:53Z</time>
      </trkpt>
      <trkpt lat="47.46115" lon="3.41037">
        <ele>263</ele>
        <time>2021-09-27T13:01:47Z</time>
      </trkpt>
      <trkpt lat="47.46115" lon="3.41038">
        <ele>263</ele>
        <time>2021-09-27T13:01:46Z</time>
      </trkpt>
      <trkpt lat="47.46116" lon="3.4104">
        <ele>263</ele>
        <time>2021-09-27T13:01:45Z</time>
      </trkpt>
      <trkpt lat="47.46119" lon="3.41064">
        <ele>265</ele>
        <time>2021-09-27T13:01:33Z</time>
      </trkpt>
      <trkpt lat="47.46122" lon="3.41089">
        <ele>266</ele>
        <time>2021-09-27T13:01:17Z</time>
      </trkpt>
      <trkpt lat="47.46123" lon="3.41101">
        <ele>266</ele>
        <time>2021-09-27T13:01:08Z</time>
      </trkpt>
      <trkpt lat="47.46124" lon="3.41145">
        <ele>265</ele>
        <time>2021-09-27T13:00:44Z</time>
      </trkpt>
      <trkpt lat="47.46123" lon="3.41147">
        <ele>265</ele>
        <time>2021-09-27T13:00:43Z</time>
      </trkpt>
      <trkpt lat="47.46125" lon="3.41158">
        <ele>265</ele>
        <time>2021-09-27T13:00:36Z</time>
      </trkpt>
      <trkpt lat="47.46125" lon="3.41166">
        <ele>265</ele>
        <time>2021-09-27T13:00:28Z</time>
      </trkpt>
      <trkpt lat="47.46127" lon="3.41169">
        <ele>265</ele>
        <time>2021-09-27T13:00:07Z</time>
      </trkpt>
      <trkpt lat="47.46126" lon="3.41167">
        <ele>265</ele>
        <time>2021-09-27T12:59:45Z</time>
      </trkpt>
      <trkpt lat="47.46127" lon="3.41167">
        <ele>265</ele>
        <time>2021-09-27T12:59:22Z</time>
      </trkpt>
      <trkpt lat="47.46127" lon="3.41171">
        <ele>265</ele>
        <time>2021-09-27T12:59:05Z</time>
      </trkpt>
      <trkpt lat="47.46127" lon="3.41172">
        <ele>265</ele>
        <time>2021-09-27T12:58:44Z</time>
      </trkpt>
      <trkpt lat="47.46127" lon="3.41176">
        <ele>265</ele>
        <time>2021-09-27T12:58:30Z</time>
      </trkpt>
      <trkpt lat="47.46135" lon="3.41177">
        <ele>265</ele>
        <time>2021-09-27T12:58:10Z</time>
      </trkpt>
      <trkpt lat="47.46145" lon="3.41177">
        <ele>265</ele>
        <time>2021-09-27T12:57:54Z</time>
      </trkpt>
      <trkpt lat="47.46161" lon="3.41182">
        <ele>265</ele>
        <time>2021-09-27T12:57:39Z</time>
      </trkpt>
      <trkpt lat="47.46165" lon="3.41183">
        <ele>265</ele>
        <time>2021-09-27T12:57:36Z</time>
      </trkpt>
      <trkpt lat="47.46172" lon="3.41186">
        <ele>265</ele>
        <time>2021-09-27T12:57:31Z</time>
      </trkpt>
      <trkpt lat="47.46189" lon="3.41189">
        <ele>265</ele>
        <time>2021-09-27T12:57:17Z</time>
      </trkpt>
      <trkpt lat="47.46205" lon="3.41194">
        <ele>265</ele>
        <time>2021-09-27T12:57:03Z</time>
      </trkpt>
      <trkpt lat="47.46206" lon="3.41194">
        <ele>265</ele>
        <time>2021-09-27T12:57:02Z</time>
      </trkpt>
      <trkpt lat="47.4621" lon="3.41195">
        <ele>266</ele>
        <time>2021-09-27T12:56:58Z</time>
      </trkpt>
      <trkpt lat="47.46215" lon="3.41196">
        <ele>266</ele>
        <time>2021-09-27T12:56:54Z</time>
      </trkpt>
      <trkpt lat="47.46234" lon="3.41199">
        <ele>266</ele>
        <time>2021-09-27T12:56:39Z</time>
      </trkpt>
      <trkpt lat="47.46236" lon="3.41199">
        <ele>266</ele>
        <time>2021-09-27T12:56:38Z</time>
      </trkpt>
      <trkpt lat="47.46237" lon="3.41199">
        <ele>266</ele>
        <time>2021-09-27T12:56:37Z</time>
      </trkpt>
      <trkpt lat="47.46255" lon="3.41195">
        <ele>266</ele>
        <time>2021-09-27T12:56:25Z</time>
      </trkpt>
      <trkpt lat="47.4628" lon="3.41192">
        <ele>267</ele>
        <time>2021-09-27T12:56:03Z</time>
      </trkpt>
      <trkpt lat="47.46309" lon="3.41192">
        <ele>267</ele>
        <time>2021-09-27T12:55:40Z</time>
      </trkpt>
      <trkpt lat="47.46337" lon="3.41188">
        <ele>269</ele>
        <time>2021-09-27T12:55:20Z</time>
      </trkpt>
      <trkpt lat="47.46361" lon="3.41184">
        <ele>269</ele>
        <time>2021-09-27T12:55:01Z</time>
      </trkpt>
      <trkpt lat="47.46388" lon="3.41181">
        <ele>270</ele>
        <time>2021-09-27T12:54:42Z</time>
      </trkpt>
      <trkpt lat="47.46418" lon="3.41178">
        <ele>271</ele>
        <time>2021-09-27T12:54:17Z</time>
      </trkpt>
      <trkpt lat="47.46437" lon="3.41179">
        <ele>271</ele>
        <time>2021-09-27T12:53:58Z</time>
      </trkpt>
      <trkpt lat="47.46454" lon="3.4118">
        <ele>271</ele>
        <time>2021-09-27T12:53:44Z</time>
      </trkpt>
      <trkpt lat="47.46482" lon="3.41184">
        <ele>271</ele>
        <time>2021-09-27T12:53:22Z</time>
      </trkpt>
      <trkpt lat="47.4651" lon="3.41178">
        <ele>271</ele>
        <time>2021-09-27T12:52:59Z</time>
      </trkpt>
      <trkpt lat="47.46526" lon="3.41178">
        <ele>271</ele>
        <time>2021-09-27T12:52:48Z</time>
      </trkpt>
      <trkpt lat="47.46551" lon="3.4118">
        <ele>268</ele>
        <time>2021-09-27T12:52:27Z</time>
      </trkpt>
      <trkpt lat="47.46571" lon="3.41188">
        <ele>265</ele>
        <time>2021-09-27T12:52:07Z</time>
      </trkpt>
      <trkpt lat="47.46589" lon="3.41195">
        <ele>262</ele>
        <time>2021-09-27T12:51:45Z</time>
      </trkpt>
      <trkpt lat="47.46608" lon="3.41192">
        <ele>257</ele>
        <time>2021-09-27T12:51:26Z</time>
      </trkpt>
      <trkpt lat="47.46628" lon="3.4119">
        <ele>253</ele>
        <time>2021-09-27T12:51:09Z</time>
      </trkpt>
      <trkpt lat="47.46656" lon="3.41187">
        <ele>250</ele>
        <time>2021-09-27T12:50:45Z</time>
      </trkpt>
      <trkpt lat="47.46688" lon="3.4118">
        <ele>249</ele>
        <time>2021-09-27T12:50:19Z</time>
      </trkpt>
      <trkpt lat="47.46689" lon="3.4118">
        <ele>249</ele>
        <time>2021-09-27T12:50:18Z</time>
      </trkpt>
      <trkpt lat="47.46691" lon="3.4118">
        <ele>249</ele>
        <time>2021-09-27T12:50:17Z</time>
      </trkpt>
      <trkpt lat="47.46692" lon="3.41179">
        <ele>249</ele>
        <time>2021-09-27T12:50:16Z</time>
      </trkpt>
      <trkpt lat="47.46693" lon="3.41179">
        <ele>249</ele>
        <time>2021-09-27T12:50:15Z</time>
      </trkpt>
      <trkpt lat="47.46694" lon="3.41179">
        <ele>249</ele>
        <time>2021-09-27T12:50:14Z</time>
      </trkpt>
      <trkpt lat="47.46697" lon="3.41179">
        <ele>248</ele>
        <time>2021-09-27T12:49:59Z</time>
      </trkpt>
      <trkpt lat="47.46696" lon="3.4118">
        <ele>248</ele>
        <time>2021-09-27T12:49:25Z</time>
      </trkpt>
      <trkpt lat="47.46696" lon="3.41179">
        <ele>248</ele>
        <time>2021-09-27T12:49:00Z</time>
      </trkpt>
      <trkpt lat="47.46698" lon="3.4118">
        <ele>248</ele>
        <time>2021-09-27T12:48:50Z</time>
      </trkpt>
      <trkpt lat="47.46699" lon="3.4118">
        <ele>248</ele>
        <time>2021-09-27T12:48:49Z</time>
      </trkpt>
      <trkpt lat="47.46698" lon="3.41178">
        <ele>248</ele>
        <time>2021-09-27T12:48:32Z</time>
      </trkpt>
      <trkpt lat="47.46696" lon="3.41176">
        <ele>248</ele>
        <time>2021-09-27T12:48:14Z</time>
      </trkpt>
      <trkpt lat="47.46696" lon="3.41176">
        <ele>248</ele>
        <time>2021-09-27T12:48:03Z</time>
      </trkpt>
      <trkpt lat="47.46696" lon="3.41176">
        <ele>248</ele>
        <time>2021-09-27T12:47:33Z</time>
      </trkpt>
      <trkpt lat="47.46697" lon="3.41178">
        <ele>248</ele>
        <time>2021-09-27T12:47:11Z</time>
      </trkpt>
      <trkpt lat="47.46697" lon="3.41177">
        <ele>248</ele>
        <time>2021-09-27T12:46:54Z</time>
      </trkpt>
      <trkpt lat="47.46701" lon="3.41172">
        <ele>248</ele>
        <time>2021-09-27T12:46:41Z</time>
      </trkpt>
      <trkpt lat="47.467" lon="3.41176">
        <ele>248</ele>
        <time>2021-09-27T12:46:24Z</time>
      </trkpt>
      <trkpt lat="47.46708" lon="3.41176">
        <ele>248</ele>
        <time>2021-09-27T12:46:08Z</time>
      </trkpt>
      <trkpt lat="47.46733" lon="3.41168">
        <ele>245</ele>
        <time>2021-09-27T12:45:46Z</time>
      </trkpt>
      <trkpt lat="47.46734" lon="3.41168">
        <ele>245</ele>
        <time>2021-09-27T12:45:45Z</time>
      </trkpt>
      <trkpt lat="47.46754" lon="3.41162">
        <ele>242</ele>
        <time>2021-09-27T12:45:23Z</time>
      </trkpt>
      <trkpt lat="47.46787" lon="3.41152">
        <ele>238</ele>
        <time>2021-09-27T12:44:55Z</time>
      </trkpt>
      <trkpt lat="47.46824" lon="3.41142">
        <ele>234</ele>
        <time>2021-09-27T12:44:24Z</time>
      </trkpt>
      <trkpt lat="47.46857" lon="3.41131">
        <ele>232</ele>
        <time>2021-09-27T12:43:57Z</time>
      </trkpt>
      <trkpt lat="47.4689" lon="3.4112">
        <ele>228</ele>
        <time>2021-09-27T12:43:31Z</time>
      </trkpt>
      <trkpt lat="47.46925" lon="3.41111">
        <ele>225</ele>
        <time>2021-09-27T12:43:03Z</time>
      </trkpt>
      <trkpt lat="47.46946" lon="3.41105">
        <ele>223</ele>
        <time>2021-09-27T12:42:43Z</time>
      </trkpt>
      <trkpt lat="47.46972" lon="3.41097">
        <ele>222</ele>
        <time>2021-09-27T12:42:22Z</time>
      </trkpt>
      <trkpt lat="47.46996" lon="3.41087">
        <ele>222</ele>
        <time>2021-09-27T12:42:02Z</time>
      </trkpt>
      <trkpt lat="47.47025" lon="3.41076">
        <ele>222</ele>
        <time>2021-09-27T12:41:38Z</time>
      </trkpt>
      <trkpt lat="47.47055" lon="3.41063">
        <ele>221</ele>
        <time>2021-09-27T12:41:13Z</time>
      </trkpt>
      <trkpt lat="47.47076" lon="3.41054">
        <ele>219</ele>
        <time>2021-09-27T12:40:52Z</time>
      </trkpt>
      <trkpt lat="47.47077" lon="3.41053">
        <ele>219</ele>
        <time>2021-09-27T12:40:51Z</time>
      </trkpt>
      <trkpt lat="47.4708" lon="3.41053">
        <ele>219</ele>
        <time>2021-09-27T12:40:43Z</time>
      </trkpt>
      <trkpt lat="47.47081" lon="3.41053">
        <ele>219</ele>
        <time>2021-09-27T12:40:36Z</time>
      </trkpt>
      <trkpt lat="47.47083" lon="3.41056">
        <ele>219</ele>
        <time>2021-09-27T12:40:32Z</time>
      </trkpt>
      <trkpt lat="47.47084" lon="3.41057">
        <ele>218</ele>
        <time>2021-09-27T12:40:08Z</time>
      </trkpt>
      <trkpt lat="47.47081" lon="3.41053">
        <ele>219</ele>
        <time>2021-09-27T12:39:53Z</time>
      </trkpt>
      <trkpt lat="47.47081" lon="3.41053">
        <ele>219</ele>
        <time>2021-09-27T12:39:47Z</time>
      </trkpt>
      <trkpt lat="47.47083" lon="3.41054">
        <ele>219</ele>
        <time>2021-09-27T12:39:34Z</time>
      </trkpt>
      <trkpt lat="47.47085" lon="3.41064">
        <ele>218</ele>
        <time>2021-09-27T12:39:20Z</time>
      </trkpt>
      <trkpt lat="47.47086" lon="3.41065">
        <ele>218</ele>
        <time>2021-09-27T12:39:05Z</time>
      </trkpt>
      <trkpt lat="47.47091" lon="3.41066">
        <ele>218</ele>
        <time>2021-09-27T12:38:52Z</time>
      </trkpt>
      <trkpt lat="47.47092" lon="3.41101">
        <ele>218</ele>
        <time>2021-09-27T12:38:30Z</time>
      </trkpt>
      <trkpt lat="47.47092" lon="3.41141">
        <ele>219</ele>
        <time>2021-09-27T12:38:09Z</time>
      </trkpt>
      <trkpt lat="47.47091" lon="3.41143">
        <ele>219</ele>
        <time>2021-09-27T12:38:08Z</time>
      </trkpt>
      <trkpt lat="47.4709" lon="3.41144">
        <ele>219</ele>
        <time>2021-09-27T12:38:07Z</time>
      </trkpt>
      <trkpt lat="47.47092" lon="3.41146">
        <ele>219</ele>
        <time>2021-09-27T12:38:00Z</time>
      </trkpt>
      <trkpt lat="47.47093" lon="3.41147">
        <ele>219</ele>
        <time>2021-09-27T12:37:59Z</time>
      </trkpt>
      <trkpt lat="47.47093" lon="3.41149">
        <ele>219</ele>
        <time>2021-09-27T12:37:58Z</time>
      </trkpt>
      <trkpt lat="47.47094" lon="3.4115">
        <ele>219</ele>
        <time>2021-09-27T12:37:57Z</time>
      </trkpt>
      <trkpt lat="47.47094" lon="3.41151">
        <ele>219</ele>
        <time>2021-09-27T12:37:56Z</time>
      </trkpt>
      <trkpt lat="47.47096" lon="3.41196">
        <ele>220</ele>
        <time>2021-09-27T12:37:30Z</time>
      </trkpt>
      <trkpt lat="47.47098" lon="3.41242">
        <ele>217</ele>
        <time>2021-09-27T12:37:02Z</time>
      </trkpt>
      <trkpt lat="47.47099" lon="3.41262">
        <ele>215</ele>
        <time>2021-09-27T12:36:49Z</time>
      </trkpt>
      <trkpt lat="47.471" lon="3.41301">
        <ele>211</ele>
        <time>2021-09-27T12:36:25Z</time>
      </trkpt>
      <trkpt lat="47.47102" lon="3.41338">
        <ele>207</ele>
        <time>2021-09-27T12:36:02Z</time>
      </trkpt>
      <trkpt lat="47.47102" lon="3.4134">
        <ele>207</ele>
        <time>2021-09-27T12:36:01Z</time>
      </trkpt>
      <trkpt lat="47.47102" lon="3.41341">
        <ele>207</ele>
        <time>2021-09-27T12:36:00Z</time>
      </trkpt>
      <trkpt lat="47.47102" lon="3.41343">
        <ele>207</ele>
        <time>2021-09-27T12:35:59Z</time>
      </trkpt>
      <trkpt lat="47.47102" lon="3.41345">
        <ele>207</ele>
        <time>2021-09-27T12:35:58Z</time>
      </trkpt>
      <trkpt lat="47.47102" lon="3.41347">
        <ele>207</ele>
        <time>2021-09-27T12:35:57Z</time>
      </trkpt>
      <trkpt lat="47.47101" lon="3.41348">
        <ele>207</ele>
        <time>2021-09-27T12:35:56Z</time>
      </trkpt>
      <trkpt lat="47.47101" lon="3.4135">
        <ele>207</ele>
        <time>2021-09-27T12:35:55Z</time>
      </trkpt>
      <trkpt lat="47.47104" lon="3.41359">
        <ele>206</ele>
        <time>2021-09-27T12:35:44Z</time>
      </trkpt>
      <trkpt lat="47.47107" lon="3.41411">
        <ele>207</ele>
        <time>2021-09-27T12:35:15Z</time>
      </trkpt>
      <trkpt lat="47.47111" lon="3.41449">
        <ele>208</ele>
        <time>2021-09-27T12:34:54Z</time>
      </trkpt>
      <trkpt lat="47.47131" lon="3.4146">
        <ele>204</ele>
        <time>2021-09-27T12:34:35Z</time>
      </trkpt>
      <trkpt lat="47.47162" lon="3.41458">
        <ele>200</ele>
        <time>2021-09-27T12:34:11Z</time>
      </trkpt>
      <trkpt lat="47.47199" lon="3.41456">
        <ele>199</ele>
        <time>2021-09-27T12:33:43Z</time>
      </trkpt>
      <trkpt lat="47.47227" lon="3.41454">
        <ele>200</ele>
        <time>2021-09-27T12:33:20Z</time>
      </trkpt>
      <trkpt lat="47.47257" lon="3.41453">
        <ele>200</ele>
        <time>2021-09-27T12:32:57Z</time>
      </trkpt>
      <trkpt lat="47.47281" lon="3.41456">
        <ele>199</ele>
        <time>2021-09-27T12:32:38Z</time>
      </trkpt>
      <trkpt lat="47.47282" lon="3.41456">
        <ele>199</ele>
        <time>2021-09-27T12:32:37Z</time>
      </trkpt>
      <trkpt lat="47.47285" lon="3.41457">
        <ele>199</ele>
        <time>2021-09-27T12:32:35Z</time>
      </trkpt>
      <trkpt lat="47.47286" lon="3.41457">
        <ele>199</ele>
        <time>2021-09-27T12:32:34Z</time>
      </trkpt>
      <trkpt lat="47.47287" lon="3.41457">
        <ele>199</ele>
        <time>2021-09-27T12:32:31Z</time>
      </trkpt>
      <trkpt lat="47.47287" lon="3.41459">
        <ele>199</ele>
        <time>2021-09-27T12:32:18Z</time>
      </trkpt>
      <trkpt lat="47.47289" lon="3.41462">
        <ele>199</ele>
        <time>2021-09-27T12:32:15Z</time>
      </trkpt>
      <trkpt lat="47.47289" lon="3.41464">
        <ele>199</ele>
        <time>2021-09-27T12:32:14Z</time>
      </trkpt>
      <trkpt lat="47.47289" lon="3.41466">
        <ele>199</ele>
        <time>2021-09-27T12:32:13Z</time>
      </trkpt>
      <trkpt lat="47.47289" lon="3.41467">
        <ele>199</ele>
        <time>2021-09-27T12:32:12Z</time>
      </trkpt>
      <trkpt lat="47.47289" lon="3.41469">
        <ele>199</ele>
        <time>2021-09-27T12:32:11Z</time>
      </trkpt>
      <trkpt lat="47.47289" lon="3.41471">
        <ele>199</ele>
        <time>2021-09-27T12:32:10Z</time>
      </trkpt>
      <trkpt lat="47.47293" lon="3.41475">
        <ele>198</ele>
        <time>2021-09-27T12:32:06Z</time>
      </trkpt>
      <trkpt lat="47.47294" lon="3.41476">
        <ele>198</ele>
        <time>2021-09-27T12:32:05Z</time>
      </trkpt>
      <trkpt lat="47.47295" lon="3.41477">
        <ele>198</ele>
        <time>2021-09-27T12:32:04Z</time>
      </trkpt>
      <trkpt lat="47.47296" lon="3.41478">
        <ele>198</ele>
        <time>2021-09-27T12:32:03Z</time>
      </trkpt>
      <trkpt lat="47.47296" lon="3.4148">
        <ele>198</ele>
        <time>2021-09-27T12:32:02Z</time>
      </trkpt>
      <trkpt lat="47.47296" lon="3.41481">
        <ele>198</ele>
        <time>2021-09-27T12:32:01Z</time>
      </trkpt>
      <trkpt lat="47.47296" lon="3.41483">
        <ele>198</ele>
        <time>2021-09-27T12:32:00Z</time>
      </trkpt>
      <trkpt lat="47.47297" lon="3.41488">
        <ele>198</ele>
        <time>2021-09-27T12:31:57Z</time>
      </trkpt>
      <trkpt lat="47.47298" lon="3.4152">
        <ele>198</ele>
        <time>2021-09-27T12:31:37Z</time>
      </trkpt>
      <trkpt lat="47.47302" lon="3.4156">
        <ele>196</ele>
        <time>2021-09-27T12:31:15Z</time>
      </trkpt>
      <trkpt lat="47.47306" lon="3.41609">
        <ele>195</ele>
        <time>2021-09-27T12:30:49Z</time>
      </trkpt>
      <trkpt lat="47.47308" lon="3.41656">
        <ele>195</ele>
        <time>2021-09-27T12:30:24Z</time>
      </trkpt>
      <trkpt lat="47.47311" lon="3.41705">
        <ele>195</ele>
        <time>2021-09-27T12:29:58Z</time>
      </trkpt>
      <trkpt lat="47.47313" lon="3.41754">
        <ele>194</ele>
        <time>2021-09-27T12:29:33Z</time>
      </trkpt>
      <trkpt lat="47.47314" lon="3.41814">
        <ele>194</ele>
        <time>2021-09-27T12:29:03Z</time>
      </trkpt>
      <trkpt lat="47.47315" lon="3.41868">
        <ele>195</ele>
        <time>2021-09-27T12:28:35Z</time>
      </trkpt>
      <trkpt lat="47.47317" lon="3.41919">
        <ele>195</ele>
        <time>2021-09-27T12:28:08Z</time>
      </trkpt>
      <trkpt lat="47.47326" lon="3.41969">
        <ele>193</ele>
        <time>2021-09-27T12:27:41Z</time>
      </trkpt>
      <trkpt lat="47.47336" lon="3.42025">
        <ele>192</ele>
        <time>2021-09-27T12:27:10Z</time>
      </trkpt>
      <trkpt lat="47.47342" lon="3.42077">
        <ele>191</ele>
        <time>2021-09-27T12:26:42Z</time>
      </trkpt>
      <trkpt lat="47.47346" lon="3.4212">
        <ele>189</ele>
        <time>2021-09-27T12:26:20Z</time>
      </trkpt>
      <trkpt lat="47.4735" lon="3.42168">
        <ele>188</ele>
        <time>2021-09-27T12:25:56Z</time>
      </trkpt>
      <trkpt lat="47.4736" lon="3.42221">
        <ele>187</ele>
        <time>2021-09-27T12:25:28Z</time>
      </trkpt>
      <trkpt lat="47.47371" lon="3.42267">
        <ele>185</ele>
        <time>2021-09-27T12:25:04Z</time>
      </trkpt>
      <trkpt lat="47.47379" lon="3.42293">
        <ele>184</ele>
        <time>2021-09-27T12:24:46Z</time>
      </trkpt>
      <trkpt lat="47.4738" lon="3.42295">
        <ele>184</ele>
        <time>2021-09-27T12:24:45Z</time>
      </trkpt>
      <trkpt lat="47.47381" lon="3.42296">
        <ele>184</ele>
        <time>2021-09-27T12:24:44Z</time>
      </trkpt>
      <trkpt lat="47.47382" lon="3.42299">
        <ele>184</ele>
        <time>2021-09-27T12:24:29Z</time>
      </trkpt>
      <trkpt lat="47.4738" lon="3.42296">
        <ele>184</ele>
        <time>2021-09-27T12:24:15Z</time>
      </trkpt>
      <trkpt lat="47.47378" lon="3.42295">
        <ele>184</ele>
        <time>2021-09-27T12:24:00Z</time>
      </trkpt>
      <trkpt lat="47.47379" lon="3.42296">
        <ele>184</ele>
        <time>2021-09-27T12:23:46Z</time>
      </trkpt>
      <trkpt lat="47.47382" lon="3.42296">
        <ele>184</ele>
        <time>2021-09-27T12:23:30Z</time>
      </trkpt>
      <trkpt lat="47.47383" lon="3.42297">
        <ele>184</ele>
        <time>2021-09-27T12:23:08Z</time>
      </trkpt>
      <trkpt lat="47.47383" lon="3.42297">
        <ele>184</ele>
        <time>2021-09-27T12:23:03Z</time>
      </trkpt>
      <trkpt lat="47.47384" lon="3.42298">
        <ele>184</ele>
        <time>2021-09-27T12:22:58Z</time>
      </trkpt>
      <trkpt lat="47.47384" lon="3.42298">
        <ele>184</ele>
        <time>2021-09-27T12:22:56Z</time>
      </trkpt>
      <trkpt lat="47.47386" lon="3.42299">
        <ele>184</ele>
        <time>2021-09-27T12:22:51Z</time>
      </trkpt>
      <trkpt lat="47.47387" lon="3.42302">
        <ele>184</ele>
        <time>2021-09-27T12:22:36Z</time>
      </trkpt>
      <trkpt lat="47.47386" lon="3.42298">
        <ele>184</ele>
        <time>2021-09-27T12:22:20Z</time>
      </trkpt>
      <trkpt lat="47.47395" lon="3.42293">
        <ele>184</ele>
        <time>2021-09-27T12:22:04Z</time>
      </trkpt>
      <trkpt lat="47.47426" lon="3.42272">
        <ele>186</ele>
        <time>2021-09-27T12:21:39Z</time>
      </trkpt>
      <trkpt lat="47.47464" lon="3.42244">
        <ele>189</ele>
        <time>2021-09-27T12:21:10Z</time>
      </trkpt>
      <trkpt lat="47.47506" lon="3.42222">
        <ele>190</ele>
        <time>2021-09-27T12:20:38Z</time>
      </trkpt>
      <trkpt lat="47.47546" lon="3.42214">
        <ele>189</ele>
        <time>2021-09-27T12:20:09Z</time>
      </trkpt>
      <trkpt lat="47.47571" lon="3.42212">
        <ele>187</ele>
        <time>2021-09-27T12:19:49Z</time>
      </trkpt>
      <trkpt lat="47.47598" lon="3.42207">
        <ele>184</ele>
        <time>2021-09-27T12:19:25Z</time>
      </trkpt>
      <trkpt lat="47.47599" lon="3.42207">
        <ele>184</ele>
        <time>2021-09-27T12:19:24Z</time>
      </trkpt>
      <trkpt lat="47.47601" lon="3.42207">
        <ele>184</ele>
        <time>2021-09-27T12:19:23Z</time>
      </trkpt>
      <trkpt lat="47.47602" lon="3.42207">
        <ele>184</ele>
        <time>2021-09-27T12:19:22Z</time>
      </trkpt>
      <trkpt lat="47.47603" lon="3.42207">
        <ele>184</ele>
        <time>2021-09-27T12:19:21Z</time>
      </trkpt>
      <trkpt lat="47.47605" lon="3.42206">
        <ele>184</ele>
        <time>2021-09-27T12:19:19Z</time>
      </trkpt>
      <trkpt lat="47.47613" lon="3.42206">
        <ele>183</ele>
        <time>2021-09-27T12:19:03Z</time>
      </trkpt>
      <trkpt lat="47.47613" lon="3.42206">
        <ele>183</ele>
        <time>2021-09-27T12:19:01Z</time>
      </trkpt>
      <trkpt lat="47.47645" lon="3.42204">
        <ele>181</ele>
        <time>2021-09-27T12:18:37Z</time>
      </trkpt>
      <trkpt lat="47.47685" lon="3.42199">
        <ele>179</ele>
        <time>2021-09-27T12:18:09Z</time>
      </trkpt>
      <trkpt lat="47.47717" lon="3.42196">
        <ele>178</ele>
        <time>2021-09-27T12:17:45Z</time>
      </trkpt>
      <trkpt lat="47.47749" lon="3.42192">
        <ele>178</ele>
        <time>2021-09-27T12:17:20Z</time>
      </trkpt>
      <trkpt lat="47.47767" lon="3.42191">
        <ele>177</ele>
        <time>2021-09-27T12:17:04Z</time>
      </trkpt>
      <trkpt lat="47.47791" lon="3.42189">
        <ele>176</ele>
        <time>2021-09-27T12:16:44Z</time>
      </trkpt>
      <trkpt lat="47.4781" lon="3.42187">
        <ele>176</ele>
        <time>2021-09-27T12:16:22Z</time>
      </trkpt>
      <trkpt lat="47.47811" lon="3.42187">
        <ele>175</ele>
        <time>2021-09-27T12:16:21Z</time>
      </trkpt>
      <trkpt lat="47.47819" lon="3.42187">
        <ele>175</ele>
        <time>2021-09-27T12:16:08Z</time>
      </trkpt>
      <trkpt lat="47.4782" lon="3.42187">
        <ele>175</ele>
        <time>2021-09-27T12:16:07Z</time>
      </trkpt>
      <trkpt lat="47.47824" lon="3.42184">
        <ele>175</ele>
        <time>2021-09-27T12:15:54Z</time>
      </trkpt>
      <trkpt lat="47.47827" lon="3.42183">
        <ele>175</ele>
        <time>2021-09-27T12:15:39Z</time>
      </trkpt>
      <trkpt lat="47.4783" lon="3.42178">
        <ele>175</ele>
        <time>2021-09-27T12:15:26Z</time>
      </trkpt>
      <trkpt lat="47.47831" lon="3.42177">
        <ele>175</ele>
        <time>2021-09-27T12:15:13Z</time>
      </trkpt>
      <trkpt lat="47.47829" lon="3.4218">
        <ele>175</ele>
        <time>2021-09-27T12:15:05Z</time>
      </trkpt>
      <trkpt lat="47.47826" lon="3.42184">
        <ele>175</ele>
        <time>2021-09-27T12:15:01Z</time>
      </trkpt>
      <trkpt lat="47.47825" lon="3.42186">
        <ele>175</ele>
        <time>2021-09-27T12:14:58Z</time>
      </trkpt>
      <trkpt lat="47.47825" lon="3.42159">
        <ele>176</ele>
        <time>2021-09-27T12:14:40Z</time>
      </trkpt>
      <trkpt lat="47.47827" lon="3.42112">
        <ele>177</ele>
        <time>2021-09-27T12:14:16Z</time>
      </trkpt>
      <trkpt lat="47.47829" lon="3.42091">
        <ele>178</ele>
        <time>2021-09-27T12:14:05Z</time>
      </trkpt>
      <trkpt lat="47.47831" lon="3.42059">
        <ele>179</ele>
        <time>2021-09-27T12:13:49Z</time>
      </trkpt>
      <trkpt lat="47.47824" lon="3.42013">
        <ele>179</ele>
        <time>2021-09-27T12:13:24Z</time>
      </trkpt>
      <trkpt lat="47.47812" lon="3.41983">
        <ele>181</ele>
        <time>2021-09-27T12:13:05Z</time>
      </trkpt>
      <trkpt lat="47.478" lon="3.41935">
        <ele>181</ele>
        <time>2021-09-27T12:12:39Z</time>
      </trkpt>
      <trkpt lat="47.47796" lon="3.41884">
        <ele>180</ele>
        <time>2021-09-27T12:12:12Z</time>
      </trkpt>
      <trkpt lat="47.47795" lon="3.41882">
        <ele>180</ele>
        <time>2021-09-27T12:12:11Z</time>
      </trkpt>
      <trkpt lat="47.47795" lon="3.4188">
        <ele>180</ele>
        <time>2021-09-27T12:12:10Z</time>
      </trkpt>
      <trkpt lat="47.47795" lon="3.41878">
        <ele>180</ele>
        <time>2021-09-27T12:12:09Z</time>
      </trkpt>
      <trkpt lat="47.47795" lon="3.41876">
        <ele>180</ele>
        <time>2021-09-27T12:12:08Z</time>
      </trkpt>
      <trkpt lat="47.47789" lon="3.41836">
        <ele>181</ele>
        <time>2021-09-27T12:11:46Z</time>
      </trkpt>
      <trkpt lat="47.4778" lon="3.41793">
        <ele>182</ele>
        <time>2021-09-27T12:11:24Z</time>
      </trkpt>
      <trkpt lat="47.47767" lon="3.41744">
        <ele>184</ele>
        <time>2021-09-27T12:10:58Z</time>
      </trkpt>
      <trkpt lat="47.47756" lon="3.41708">
        <ele>184</ele>
        <time>2021-09-27T12:10:38Z</time>
      </trkpt>
      <trkpt lat="47.47746" lon="3.41674">
        <ele>185</ele>
        <time>2021-09-27T12:10:19Z</time>
      </trkpt>
      <trkpt lat="47.47739" lon="3.41629">
        <ele>183</ele>
        <time>2021-09-27T12:09:55Z</time>
      </trkpt>
      <trkpt lat="47.4774" lon="3.41581">
        <ele>182</ele>
        <time>2021-09-27T12:09:32Z</time>
      </trkpt>
      <trkpt lat="47.4774" lon="3.4155">
        <ele>182</ele>
        <time>2021-09-27T12:09:17Z</time>
      </trkpt>
      <trkpt lat="47.47741" lon="3.4153">
        <ele>181</ele>
        <time>2021-09-27T12:09:04Z</time>
      </trkpt>
      <trkpt lat="47.47741" lon="3.41528">
        <ele>181</ele>
        <time>2021-09-27T12:09:03Z</time>
      </trkpt>
      <trkpt lat="47.47742" lon="3.41526">
        <ele>181</ele>
        <time>2021-09-27T12:09:02Z</time>
      </trkpt>
      <trkpt lat="47.47742" lon="3.41524">
        <ele>181</ele>
        <time>2021-09-27T12:09:01Z</time>
      </trkpt>
      <trkpt lat="47.47742" lon="3.41522">
        <ele>181</ele>
        <time>2021-09-27T12:09:00Z</time>
      </trkpt>
      <trkpt lat="47.47743" lon="3.4152">
        <ele>181</ele>
        <time>2021-09-27T12:08:59Z</time>
      </trkpt>
      <trkpt lat="47.47743" lon="3.4151">
        <ele>181</ele>
        <time>2021-09-27T12:08:54Z</time>
      </trkpt>
      <trkpt lat="47.47746" lon="3.41469">
        <ele>180</ele>
        <time>2021-09-27T12:08:36Z</time>
      </trkpt>
      <trkpt lat="47.47746" lon="3.41436">
        <ele>180</ele>
        <time>2021-09-27T12:08:19Z</time>
      </trkpt>
      <trkpt lat="47.47746" lon="3.41402">
        <ele>180</ele>
        <time>2021-09-27T12:08:02Z</time>
      </trkpt>
      <trkpt lat="47.47747" lon="3.41399">
        <ele>180</ele>
        <time>2021-09-27T12:08:00Z</time>
      </trkpt>
      <trkpt lat="47.47762" lon="3.41372">
        <ele>180</ele>
        <time>2021-09-27T12:07:43Z</time>
      </trkpt>
      <trkpt lat="47.47779" lon="3.41339">
        <ele>179</ele>
        <time>2021-09-27T12:07:23Z</time>
      </trkpt>
      <trkpt lat="47.47794" lon="3.41318">
        <ele>177</ele>
        <time>2021-09-27T12:07:07Z</time>
      </trkpt>
      <trkpt lat="47.47813" lon="3.41297">
        <ele>177</ele>
        <time>2021-09-27T12:06:48Z</time>
      </trkpt>
      <trkpt lat="47.47831" lon="3.41279">
        <ele>179</ele>
        <time>2021-09-27T12:06:31Z</time>
      </trkpt>
      <trkpt lat="47.47853" lon="3.41262">
        <ele>182</ele>
        <time>2021-09-27T12:06:15Z</time>
      </trkpt>
      <trkpt lat="47.47868" lon="3.4125">
        <ele>183</ele>
        <time>2021-09-27T12:06:01Z</time>
      </trkpt>
      <trkpt lat="47.47883" lon="3.41238">
        <ele>184</ele>
        <time>2021-09-27T12:05:46Z</time>
      </trkpt>
      <trkpt lat="47.47885" lon="3.41237">
        <ele>184</ele>
        <time>2021-09-27T12:05:45Z</time>
      </trkpt>
      <trkpt lat="47.47886" lon="3.41236">
        <ele>184</ele>
        <time>2021-09-27T12:05:44Z</time>
      </trkpt>
      <trkpt lat="47.4789" lon="3.41236">
        <ele>184</ele>
        <time>2021-09-27T12:05:38Z</time>
      </trkpt>
      <trkpt lat="47.479" lon="3.41258">
        <ele>183</ele>
        <time>2021-09-27T12:05:22Z</time>
      </trkpt>
      <trkpt lat="47.47902" lon="3.41271">
        <ele>183</ele>
        <time>2021-09-27T12:05:13Z</time>
      </trkpt>
      <trkpt lat="47.47901" lon="3.41273">
        <ele>183</ele>
        <time>2021-09-27T12:05:12Z</time>
      </trkpt>
      <trkpt lat="47.47904" lon="3.41291">
        <ele>183</ele>
        <time>2021-09-27T12:05:00Z</time>
      </trkpt>
      <trkpt lat="47.47914" lon="3.41325">
        <ele>182</ele>
        <time>2021-09-27T12:04:40Z</time>
      </trkpt>
      <trkpt lat="47.47924" lon="3.41363">
        <ele>181</ele>
        <time>2021-09-27T12:04:20Z</time>
      </trkpt>
      <trkpt lat="47.47929" lon="3.41393">
        <ele>181</ele>
        <time>2021-09-27T12:04:03Z</time>
      </trkpt>
      <trkpt lat="47.47938" lon="3.41426">
        <ele>181</ele>
        <time>2021-09-27T12:03:43Z</time>
      </trkpt>
      <trkpt lat="47.47939" lon="3.41427">
        <ele>181</ele>
        <time>2021-09-27T12:03:42Z</time>
      </trkpt>
      <trkpt lat="47.4794" lon="3.41429">
        <ele>181</ele>
        <time>2021-09-27T12:03:41Z</time>
      </trkpt>
      <trkpt lat="47.4794" lon="3.41431">
        <ele>181</ele>
        <time>2021-09-27T12:03:40Z</time>
      </trkpt>
      <trkpt lat="47.47941" lon="3.41432">
        <ele>181</ele>
        <time>2021-09-27T12:03:39Z</time>
      </trkpt>
      <trkpt lat="47.47942" lon="3.41433">
        <ele>181</ele>
        <time>2021-09-27T12:03:38Z</time>
      </trkpt>
      <trkpt lat="47.47943" lon="3.41435">
        <ele>181</ele>
        <time>2021-09-27T12:03:37Z</time>
      </trkpt>
      <trkpt lat="47.47957" lon="3.41467">
        <ele>181</ele>
        <time>2021-09-27T12:03:16Z</time>
      </trkpt>
      <trkpt lat="47.47974" lon="3.41487">
        <ele>180</ele>
        <time>2021-09-27T12:02:59Z</time>
      </trkpt>
      <trkpt lat="47.47976" lon="3.41488">
        <ele>180</ele>
        <time>2021-09-27T12:02:57Z</time>
      </trkpt>
      <trkpt lat="47.4798" lon="3.41491">
        <ele>180</ele>
        <time>2021-09-27T12:02:37Z</time>
      </trkpt>
      <trkpt lat="47.47978" lon="3.41491">
        <ele>180</ele>
        <time>2021-09-27T12:01:59Z</time>
      </trkpt>
      <trkpt lat="47.47979" lon="3.41491">
        <ele>180</ele>
        <time>2021-09-27T12:01:24Z</time>
      </trkpt>
      <trkpt lat="47.4798" lon="3.41491">
        <ele>180</ele>
        <time>2021-09-27T12:01:05Z</time>
      </trkpt>
      <trkpt lat="47.4798" lon="3.41492">
        <ele>180</ele>
        <time>2021-09-27T12:00:52Z</time>
      </trkpt>
      <trkpt lat="47.47974" lon="3.4149">
        <ele>180</ele>
        <time>2021-09-27T12:00:36Z</time>
      </trkpt>
      <trkpt lat="47.47973" lon="3.41486">
        <ele>180</ele>
        <time>2021-09-27T12:00:10Z</time>
      </trkpt>
      <trkpt lat="47.47973" lon="3.41483">
        <ele>180</ele>
        <time>2021-09-27T11:59:50Z</time>
      </trkpt>
      <trkpt lat="47.47971" lon="3.41484">
        <ele>180</ele>
        <time>2021-09-27T11:59:22Z</time>
      </trkpt>
      <trkpt lat="47.4797" lon="3.41483">
        <ele>180</ele>
        <time>2021-09-27T11:58:59Z</time>
      </trkpt>
      <trkpt lat="47.47972" lon="3.41485">
        <ele>180</ele>
        <time>2021-09-27T11:58:44Z</time>
      </trkpt>
      <trkpt lat="47.47981" lon="3.41491">
        <ele>180</ele>
        <time>2021-09-27T11:58:27Z</time>
      </trkpt>
      <trkpt lat="47.47983" lon="3.4149">
        <ele>180</ele>
        <time>2021-09-27T11:58:01Z</time>
      </trkpt>
      <trkpt lat="47.47986" lon="3.41491">
        <ele>181</ele>
        <time>2021-09-27T11:57:41Z</time>
      </trkpt>
      <trkpt lat="47.47985" lon="3.41489">
        <ele>181</ele>
        <time>2021-09-27T11:57:21Z</time>
      </trkpt>
      <trkpt lat="47.47982" lon="3.4149">
        <ele>180</ele>
        <time>2021-09-27T11:57:00Z</time>
      </trkpt>
      <trkpt lat="47.47981" lon="3.4149">
        <ele>180</ele>
        <time>2021-09-27T11:56:53Z</time>
      </trkpt>
      <trkpt lat="47.47981" lon="3.41489">
        <ele>180</ele>
        <time>2021-09-27T11:56:50Z</time>
      </trkpt>
      <trkpt lat="47.47981" lon="3.41489">
        <ele>180</ele>
        <time>2021-09-27T11:56:47Z</time>
      </trkpt>
      <trkpt lat="47.47981" lon="3.41489">
        <ele>180</ele>
        <time>2021-09-27T11:56:47Z</time>
      </trkpt>
    </trkseg>
  </trk>
</gpx>